Provisional Data: Ninemile Run near Walton, PA


Please select a monitoring station.
Please select start date.
Please select start date.

Toggle Unit: C/F Toggle Unit: C/F
Sample Time Temperature (C) Temperature (F) Specific Conductivity (mS/cm) pH   Turbidity (NTU+) DO (mg/L)
12/4/2020 12:00:00 AM 3.68 38.624 0.065 6.52 2.54 12.43
12/4/2020 12:15:00 AM 3.68 38.624 0.065 6.53 2.47 12.43
12/4/2020 12:30:00 AM 3.69 38.642 0.065 6.54 2.41 12.43
12/4/2020 12:45:00 AM 3.7 38.66 0.065 6.53 2.42 12.43
12/4/2020 1:00:00 AM 3.71 38.678 0.065 6.53 2.45 12.43
12/4/2020 1:15:00 AM 3.72 38.696 0.065 6.52 2.4 12.42
12/4/2020 1:30:00 AM 3.73 38.714 0.065 6.52 2.44 12.42
12/4/2020 1:45:00 AM 3.74 38.732 0.065 6.54 2.39 12.41
12/4/2020 2:00:00 AM 3.75 38.75 0.064 6.53 2.34 12.41
12/4/2020 2:15:00 AM 3.76 38.768 0.064 6.52 2.44 12.41
12/4/2020 2:30:00 AM 3.75 38.75 0.064 6.53 2.34 12.4
12/4/2020 2:45:00 AM 3.74 38.732 0.064 6.53 2.39 12.4
12/4/2020 3:00:00 AM 3.72 38.696 0.064 6.53 2.46 12.41
12/4/2020 3:15:00 AM 3.72 38.696 0.064 6.51 2.53 12.4
12/4/2020 3:30:00 AM 3.71 38.678 0.064 6.52 2.43 12.4
12/4/2020 3:45:00 AM 3.72 38.696 0.064 6.52 2.68 12.4
12/4/2020 4:00:00 AM 3.73 38.714 0.064 6.53 2.42 12.4
12/4/2020 4:15:00 AM 3.74 38.732 0.064 6.53 2.4 12.4
12/4/2020 4:30:00 AM 3.73 38.714 0.064 6.54 2.48 12.4
12/4/2020 4:45:00 AM 3.73 38.714 0.064 6.51 2.74 12.4
12/4/2020 5:00:00 AM 3.72 38.696 0.064 6.53 2.99 12.4
12/4/2020 5:15:00 AM 3.71 38.678 0.064 6.51 2.72 12.4
12/4/2020 5:30:00 AM 3.71 38.678 0.064 6.53 2.6 12.4
12/4/2020 5:45:00 AM 3.73 38.714 0.064 6.53 2.57 12.4
12/4/2020 6:00:00 AM 3.74 38.732 0.064 6.53 2.49 12.4
12/4/2020 6:15:00 AM 3.76 38.768 0.064 6.51 2.51 12.39
12/4/2020 6:30:00 AM 3.78 38.804 0.064 6.53 2.39 12.39
12/4/2020 6:45:00 AM 3.79 38.822 0.064 6.53 2.47 12.39
12/4/2020 7:00:00 AM 3.8 38.84 0.064 6.53 2.35 12.39
12/4/2020 7:15:00 AM 3.82 38.876 0.064 6.52 2.38 12.39
12/4/2020 7:30:00 AM 3.83 38.894 0.064 6.52 2.44 12.39
12/4/2020 7:45:00 AM 3.84 38.912 0.064 6.55 2.36 12.39
12/4/2020 8:00:00 AM 3.87 38.966 0.064 6.52 2.25 12.41
12/4/2020 8:15:00 AM 3.92 39.056 0.064 6.55 2.33 12.45
12/4/2020 8:30:00 AM 3.98 39.164 0.064 6.57 2.22 12.48
12/4/2020 8:45:00 AM 4.03 39.254 0.063 6.58 2.23 12.49
12/4/2020 9:00:00 AM 4.09 39.362 0.063 6.56 2.29 12.5
12/4/2020 9:15:00 AM 4.14 39.452 0.063 6.59 2.15 12.51
12/4/2020 9:30:00 AM 4.19 39.542 0.063 6.61 2.22 12.51
12/4/2020 9:45:00 AM 4.23 39.614 0.063 6.59 2.18 12.51
12/4/2020 10:00:00 AM 4.27 39.686 0.063 6.59 2.23 12.51
12/4/2020 10:15:00 AM 4.34 39.812 0.063 6.61 2.26 12.52
12/4/2020 10:30:00 AM 4.43 39.974 0.063 6.63 2.15 12.51
12/4/2020 10:45:00 AM 4.49 40.082 0.063 6.63 2.17 12.49
12/4/2020 11:00:00 AM 4.54 40.172 0.063 6.63 2.21 12.47
12/4/2020 11:15:00 AM 4.61 40.298 0.063 6.62 2.25 12.46
12/4/2020 11:30:00 AM 4.68 40.424 0.063 6.64 2.18 12.45
12/4/2020 11:45:00 AM 4.8 40.64 0.062 6.64 2.14 12.44
12/4/2020 12:00:00 PM 4.92 40.856 0.062 6.64 2.15 12.42
12/4/2020 12:15:00 PM 5.01 41.018 0.062 6.66 2.2 12.4
12/4/2020 12:30:00 PM 5.12 41.216 0.062 6.66 2.2 12.38
12/4/2020 12:45:00 PM 5.25 41.45 0.062 6.64 2.22 12.35
12/4/2020 1:00:00 PM 5.31 41.558 0.062 6.66 2.24 12.32
12/4/2020 1:15:00 PM 5.36 41.648 0.062 6.64 2.24 12.28
12/4/2020 1:30:00 PM 5.42 41.756 0.062 6.65 2.26 12.25
12/4/2020 1:45:00 PM 5.46 41.828 0.062 6.65 2.33 12.22
12/4/2020 2:00:00 PM 5.49 41.882 0.062 6.62 2.27 12.18
12/4/2020 2:15:00 PM 5.53 41.954 0.062 6.65 2.25 12.16
12/4/2020 2:30:00 PM 5.57 42.026 0.062 6.64 2.29 12.14
12/4/2020 2:45:00 PM 5.59 42.062 0.062 6.62 2.21 12.12
12/4/2020 3:00:00 PM 5.61 42.098 0.062 6.64 2.31 12.1
12/4/2020 3:15:00 PM 5.62 42.116 0.062 6.62 2.24 12.07
12/4/2020 3:30:00 PM 5.61 42.098 0.062 6.63 2.27 12.04
12/4/2020 3:45:00 PM 5.61 42.098 0.062 6.6 2.4 12.01
12/4/2020 4:00:00 PM 5.6 42.08 0.062 6.6 2.3 11.99
12/4/2020 4:15:00 PM 5.58 42.044 0.062 6.58 2.36 11.95
12/4/2020 4:30:00 PM 5.57 42.026 0.062 6.57 2.38 11.92
12/4/2020 4:45:00 PM 5.56 42.008 0.062 6.55 2.54 11.9
12/4/2020 5:00:00 PM 5.55 41.99 0.062 6.56 2.65 11.87
12/4/2020 5:15:00 PM 5.53 41.954 0.062 6.55 2.63 11.85
12/4/2020 5:30:00 PM 5.52 41.936 0.062 6.53 2.66 11.84
12/4/2020 5:45:00 PM 5.49 41.882 0.062 6.54 2.66 11.82
12/4/2020 6:00:00 PM 5.44 41.792 0.062 6.52 2.81 11.82
12/4/2020 6:15:00 PM 5.4 41.72 0.062 6.52 2.75 11.82
12/4/2020 6:30:00 PM 5.35 41.63 0.063 6.51 2.56 11.83
12/4/2020 6:45:00 PM 5.32 41.576 0.063 6.51 2.62 11.84
12/4/2020 7:00:00 PM 5.27 41.486 0.063 6.51 2.55 11.85
12/4/2020 7:15:00 PM 5.23 41.414 0.063 6.5 2.55 11.86
12/4/2020 7:30:00 PM 5.18 41.324 0.063 6.49 2.65 11.87
12/4/2020 7:45:00 PM 5.15 41.27 0.063 6.51 2.5 11.88
12/4/2020 8:00:00 PM 5.11 41.198 0.063 6.49 2.5 11.89
12/4/2020 8:15:00 PM 5.08 41.144 0.063 6.49 2.7 11.91
12/4/2020 8:30:00 PM 5.04 41.072 0.063 6.49 2.56 11.92
12/4/2020 8:45:00 PM 5.02 41.036 0.063 6.5 2.53 11.93
12/4/2020 9:00:00 PM 5 41 0.063 6.5 2.58 11.94
12/4/2020 9:15:00 PM 4.98 40.964 0.063 6.49 2.55 11.95
12/4/2020 9:30:00 PM 4.96 40.928 0.063 6.5 2.5 11.96
12/4/2020 9:45:00 PM 4.94 40.892 0.063 6.51 2.47 11.97
12/4/2020 10:00:00 PM 4.92 40.856 0.063 6.5 2.51 11.98
12/4/2020 10:15:00 PM 4.91 40.838 0.063 6.5 2.35 11.98
12/4/2020 10:30:00 PM 4.89 40.802 0.063 6.49 2.56 11.99
12/4/2020 10:45:00 PM 4.87 40.766 0.063 6.5 2.52 12
12/4/2020 11:00:00 PM 4.85 40.73 0.063 6.49 2.6 12
12/4/2020 11:15:00 PM 4.84 40.712 0.063 6.5 2.6 12
12/4/2020 11:30:00 PM 4.82 40.676 0.063 6.48 2.46 12
12/4/2020 11:45:00 PM 4.81 40.658 0.063 6.5 2.61 12
12/5/2020 12:00:00 AM 4.8 40.64 0.063 6.5 2.5 12.01
12/5/2020 12:15:00 AM 4.79 40.622 0.063 6.48 2.45 12.01
12/5/2020 12:30:00 AM 4.78 40.604 0.063 6.51 2.38 12.02
12/5/2020 12:45:00 AM 4.77 40.586 0.063 6.5 2.39 12.01
12/5/2020 1:00:00 AM 4.77 40.586 0.063 6.48 2.35 12.01
12/5/2020 1:15:00 AM 4.76 40.568 0.063 6.49 2.37 12.02
12/5/2020 1:30:00 AM 4.76 40.568 0.063 6.5 2.49 12.02
12/5/2020 1:45:00 AM 4.76 40.568 0.063 6.49 2.38 12.02
12/5/2020 2:00:00 AM 4.76 40.568 0.063 6.5 2.35 12.01
12/5/2020 2:15:00 AM 4.76 40.568 0.063 6.5 2.48 12.01
12/5/2020 2:30:00 AM 4.76 40.568 0.063 6.47 2.38 12.01
12/5/2020 2:45:00 AM 4.77 40.586 0.063 6.5 2.46 12
12/5/2020 3:00:00 AM 4.77 40.586 0.063 6.5 2.43 12
12/5/2020 3:15:00 AM 4.78 40.604 0.063 6.48 2.45 12
12/5/2020 3:30:00 AM 4.78 40.604 0.063 6.48 2.54 12
12/5/2020 3:45:00 AM 4.79 40.622 0.063 6.49 2.49 11.99
12/5/2020 4:00:00 AM 4.8 40.64 0.063 6.49 2.66 11.99
12/5/2020 4:15:00 AM 4.81 40.658 0.063 6.5 2.59 11.99
12/5/2020 4:30:00 AM 4.82 40.676 0.063 6.49 2.61 11.98
12/5/2020 4:45:00 AM 4.83 40.694 0.063 6.48 2.84 11.98
12/5/2020 5:00:00 AM 4.83 40.694 0.063 6.5 2.82 11.98
12/5/2020 5:15:00 AM 4.84 40.712 0.063 6.48 2.96 11.98
12/5/2020 5:30:00 AM 4.84 40.712 0.063 6.49 2.7 11.98
12/5/2020 5:45:00 AM 4.85 40.73 0.062 6.51 2.57 11.98
12/5/2020 6:00:00 AM 4.85 40.73 0.062 6.51 3.13 11.98
12/5/2020 6:15:00 AM 4.86 40.748 0.062 6.51 2.62 11.98
12/5/2020 6:30:00 AM 4.86 40.748 0.062 6.51 2.57 11.98
12/5/2020 6:45:00 AM 4.86 40.748 0.062 6.51 2.48 11.98
12/5/2020 7:00:00 AM 4.87 40.766 0.062 6.48 2.48 11.98
12/5/2020 7:15:00 AM 4.87 40.766 0.062 6.49 2.37 11.98
12/5/2020 7:30:00 AM 4.87 40.766 0.062 6.51 2.34 11.99
12/5/2020 7:45:00 AM 4.86 40.748 0.062 6.5 2.3 12
12/5/2020 8:00:00 AM 4.86 40.748 0.062 6.52 2.29 12.02
12/5/2020 8:15:00 AM 4.87 40.766 0.062 6.52 2.22 12.05
12/5/2020 8:30:00 AM 4.88 40.784 0.062 6.52 2.29 12.08
12/5/2020 8:45:00 AM 4.89 40.802 0.062 6.53 2.17 12.1
12/5/2020 9:00:00 AM 4.9 40.82 0.062 6.55 2.19 12.13
12/5/2020 9:15:00 AM 4.91 40.838 0.062 6.56 2.17 12.14
12/5/2020 9:30:00 AM 4.91 40.838 0.062 6.54 2.2 12.13
12/5/2020 9:45:00 AM 4.91 40.838 0.062 6.56 2.24 12.15
12/5/2020 10:00:00 AM 4.92 40.856 0.062 6.57 2.23 12.17
12/5/2020 10:15:00 AM 4.94 40.892 0.062 6.55 2.12 12.2
12/5/2020 10:30:00 AM 4.94 40.892 0.061 6.59 2.13 12.21
12/5/2020 10:45:00 AM 4.96 40.928 0.061 6.59 2.16 12.22
12/5/2020 11:00:00 AM 4.98 40.964 0.061 6.6 2.09 12.24
12/5/2020 11:15:00 AM 4.99 40.982 0.061 6.6 2.1 12.24
12/5/2020 11:30:00 AM 5 41 0.061 6.6 2.16 12.22
12/5/2020 11:45:00 AM 4.99 40.982 0.061 6.6 2.14 12.21
12/5/2020 12:00:00 PM 5 41 0.061 6.6 2.11 12.21
12/5/2020 12:15:00 PM 5.02 41.036 0.061 6.61 2.15 12.24
12/5/2020 12:30:00 PM 5.02 41.036 0.061 6.61 2.2 12.23
12/5/2020 12:45:00 PM 5.02 41.036 0.061 6.6 2.17 12.22
12/5/2020 1:00:00 PM 5.02 41.036 0.061 6.6 2.17 12.22
12/5/2020 1:15:00 PM 5.02 41.036 0.061 6.6 2.21 12.22
12/5/2020 1:30:00 PM 5.02 41.036 0.061 6.61 2.16 12.22
12/5/2020 1:45:00 PM 5.01 41.018 0.061 6.6 2.15 12.18
12/5/2020 2:00:00 PM 4.99 40.982 0.061 6.6 2.14 12.17
12/5/2020 2:15:00 PM 5 41 0.061 6.6 2.25 12.2
12/5/2020 2:30:00 PM 5.02 41.036 0.061 6.59 2.16 12.22
12/5/2020 2:45:00 PM 5.03 41.054 0.061 6.6 2.09 12.21
12/5/2020 3:00:00 PM 5.03 41.054 0.061 6.62 2.16 12.22
12/5/2020 3:15:00 PM 4.99 40.982 0.061 6.6 2.18 12.19
12/5/2020 3:30:00 PM 4.95 40.91 0.061 6.58 2.12 12.17
12/5/2020 3:45:00 PM 4.92 40.856 0.061 6.59 2.11 12.16
12/5/2020 4:00:00 PM 4.89 40.802 0.061 6.58 2.2 12.17
12/5/2020 4:15:00 PM 4.88 40.784 0.061 6.57 2.17 12.15
12/5/2020 4:30:00 PM 4.87 40.766 0.061 6.57 2.22 12.12
12/5/2020 4:45:00 PM 4.86 40.748 0.061 6.56 2.53 12.1
12/5/2020 5:00:00 PM 4.85 40.73 0.061 6.56 2.45 12.08
12/5/2020 5:15:00 PM 4.84 40.712 0.061 6.55 2.42 12.07
12/5/2020 5:30:00 PM 4.82 40.676 0.061 6.54 2.43 12.06
12/5/2020 5:45:00 PM 4.8 40.64 0.061 6.53 2.47 12.06
12/5/2020 6:00:00 PM 4.78 40.604 0.061 6.53 2.55 12.05
12/5/2020 6:15:00 PM 4.75 40.55 0.061 6.52 2.44 12.05
12/5/2020 6:30:00 PM 4.74 40.532 0.061 6.53 2.35 12.06
12/5/2020 6:45:00 PM 4.71 40.478 0.061 6.53 2.33 12.06
12/5/2020 7:00:00 PM 4.68 40.424 0.061 6.5 2.41 12.07
12/5/2020 7:15:00 PM 4.65 40.37 0.061 6.53 2.35 12.08
12/5/2020 7:30:00 PM 4.63 40.334 0.061 6.51 2.36 12.08
12/5/2020 7:45:00 PM 4.61 40.298 0.061 6.5 2.37 12.09
12/5/2020 8:00:00 PM 4.58 40.244 0.061 6.53 2.33 12.1
12/5/2020 8:15:00 PM 4.55 40.19 0.061 6.52 2.31 12.11
12/5/2020 8:30:00 PM 4.52 40.136 0.061 6.52 2.36 12.12
12/5/2020 8:45:00 PM 4.49 40.082 0.061 6.52 2.54 12.12
12/5/2020 9:00:00 PM 4.47 40.046 0.061 6.51 2.41 12.12
12/5/2020 9:15:00 PM 4.45 40.01 0.061 6.49 2.35 12.12
12/5/2020 9:30:00 PM 4.43 39.974 0.061 6.51 2.4 12.14
12/5/2020 9:45:00 PM 4.41 39.938 0.061 6.51 2.4 12.15
12/5/2020 10:00:00 PM 4.38 39.884 0.061 6.5 2.38 12.15
12/5/2020 10:15:00 PM 4.36 39.848 0.061 6.52 2.29 12.17
12/5/2020 10:30:00 PM 4.34 39.812 0.061 6.49 2.41 12.17
12/5/2020 10:45:00 PM 4.31 39.758 0.061 6.52 2.32 12.18
12/5/2020 11:00:00 PM 4.3 39.74 0.061 6.51 2.38 12.18
12/5/2020 11:15:00 PM 4.27 39.686 0.061 6.5 2.39 12.19
12/5/2020 11:30:00 PM 4.25 39.65 0.061 6.52 2.39 12.19
12/5/2020 11:45:00 PM 4.22 39.596 0.061 6.49 2.89 12.2
12/6/2020 12:00:00 AM 4.21 39.578 0.061 6.51 2.48 12.21
12/6/2020 12:15:00 AM 4.18 39.524 0.061 6.52 2.4 12.21
12/6/2020 12:30:00 AM 4.15 39.47 0.061 6.52 2.58 12.22
12/6/2020 12:45:00 AM 4.12 39.416 0.061 6.52 2.41 12.23
12/6/2020 1:00:00 AM 4.1 39.38 0.061 6.5 2.44 12.24
12/6/2020 1:15:00 AM 4.08 39.344 0.061 6.51 2.34 12.25
12/6/2020 1:30:00 AM 4.06 39.308 0.061 6.52 2.26 12.25
12/6/2020 1:45:00 AM 4.03 39.254 0.061 6.52 2.31 12.27
12/6/2020 2:00:00 AM 4.01 39.218 0.061 6.5 2.27 12.28
12/6/2020 2:15:00 AM 3.97 39.146 0.061 6.52 2.27 12.29
12/6/2020 2:30:00 AM 3.96 39.128 0.061 6.5 2.25 12.3
12/6/2020 2:45:00 AM 3.93 39.074 0.061 6.51 2.27 12.31
12/6/2020 3:00:00 AM 3.9 39.02 0.061 6.51 2.32 12.31
12/6/2020 3:15:00 AM 3.87 38.966 0.061 6.52 2.2 12.33
12/6/2020 3:30:00 AM 3.83 38.894 0.061 6.52 2.25 12.34
12/6/2020 3:45:00 AM 3.79 38.822 0.061 6.52 2.35 12.35
12/6/2020 4:00:00 AM 3.76 38.768 0.061 6.52 2.59 12.36
12/6/2020 4:15:00 AM 3.72 38.696 0.061 6.5 2.78 12.37
12/6/2020 4:30:00 AM 3.68 38.624 0.061 6.52 2.55 12.38
12/6/2020 4:45:00 AM 3.64 38.552 0.061 6.52 2.72 12.4
12/6/2020 5:00:00 AM 3.61 38.498 0.061 6.52 2.84 12.4
12/6/2020 5:15:00 AM 3.58 38.444 0.061 6.52 3.43 12.42
12/6/2020 5:30:00 AM 3.54 38.372 0.061 6.51 2.77 12.43
12/6/2020 5:45:00 AM 3.51 38.318 0.061 6.52 2.51 12.44
12/6/2020 6:00:00 AM 3.48 38.264 0.061 6.52 2.42 12.45
12/6/2020 6:15:00 AM 3.46 38.228 0.061 6.51 2.38 12.46
12/6/2020 6:30:00 AM 3.44 38.192 0.061 6.52 2.31 12.47
12/6/2020 6:45:00 AM 3.42 38.156 0.061 6.52 2.33 12.47
12/6/2020 7:00:00 AM 3.41 38.138 0.061 6.53 2.34 12.48
12/6/2020 7:15:00 AM 3.39 38.102 0.061 6.52 2.31 12.49
12/6/2020 7:30:00 AM 3.36 38.048 0.061 6.52 2.27 12.5
12/6/2020 7:45:00 AM 3.35 38.03 0.061 6.53 2.23 12.52
12/6/2020 8:00:00 AM 3.33 37.994 0.061 6.53 2.14 12.56
12/6/2020 8:15:00 AM 3.32 37.976 0.061 6.55 2.12 12.59
12/6/2020 8:30:00 AM 3.32 37.976 0.061 6.56 2.17 12.64
12/6/2020 8:45:00 AM 3.34 38.012 0.061 6.57 2.2 12.67
12/6/2020 9:00:00 AM 3.35 38.03 0.06 6.58 2.09 12.7
12/6/2020 9:15:00 AM 3.35 38.03 0.06 6.59 2.16 12.72
12/6/2020 9:30:00 AM 3.35 38.03 0.06 6.58 2.1 12.75
12/6/2020 9:45:00 AM 3.38 38.084 0.06 6.62 2.1 12.78
12/6/2020 10:00:00 AM 3.42 38.156 0.06 6.6 2.12 12.8
12/6/2020 10:15:00 AM 3.48 38.264 0.06 6.64 2.1 12.81
12/6/2020 10:30:00 AM 3.52 38.336 0.06 6.64 2.18 12.81
12/6/2020 10:45:00 AM 3.57 38.426 0.06 6.63 2.1 12.81
12/6/2020 11:00:00 AM 3.61 38.498 0.06 6.65 2.1 12.81
12/6/2020 11:15:00 AM 3.66 38.588 0.06 6.63 2.13 12.81
12/6/2020 11:30:00 AM 3.69 38.642 0.06 6.66 2.07 12.8
12/6/2020 11:45:00 AM 3.67 38.606 0.06 6.65 2.07 12.8
12/6/2020 12:00:00 PM 3.69 38.642 0.06 6.66 2.1 12.8
12/6/2020 12:15:00 PM 3.72 38.696 0.06 6.66 2.04 12.8
12/6/2020 12:30:00 PM 3.74 38.732 0.06 6.67 2.06 12.79
12/6/2020 12:45:00 PM 3.75 38.75 0.06 6.66 2.19 12.78
12/6/2020 1:00:00 PM 3.76 38.768 0.06 6.66 2.12 12.78
12/6/2020 1:15:00 PM 3.8 38.84 0.059 6.67 2.19 12.77
12/6/2020 1:30:00 PM 3.83 38.894 0.059 6.67 2.08 12.75
12/6/2020 1:45:00 PM 3.86 38.948 0.059 6.67 2.08 12.74
12/6/2020 2:00:00 PM 3.88 38.984 0.059 6.66 2.09 12.72
12/6/2020 2:15:00 PM 3.89 39.002 0.059 6.67 2.1 12.7
12/6/2020 2:30:00 PM 3.9 39.02 0.059 6.66 2.13 12.69
12/6/2020 2:45:00 PM 3.89 39.002 0.059 6.66 2.12 12.67
12/6/2020 3:00:00 PM 3.83 38.894 0.059 6.65 2.09 12.64
12/6/2020 3:15:00 PM 3.78 38.804 0.059 6.62 2.16 12.63
12/6/2020 3:30:00 PM 3.72 38.696 0.059 6.63 2.14 12.62
12/6/2020 3:45:00 PM 3.67 38.606 0.059 6.63 2.09 12.62
12/6/2020 4:00:00 PM 3.62 38.516 0.059 6.62 2.19 12.62
12/6/2020 4:15:00 PM 3.58 38.444 0.059 6.6 2.22 12.61
12/6/2020 4:30:00 PM 3.54 38.372 0.059 6.6 2.24 12.59
12/6/2020 4:45:00 PM 3.5 38.3 0.06 6.59 2.27 12.56
12/6/2020 5:00:00 PM 3.46 38.228 0.06 6.57 2.3 12.55
12/6/2020 5:15:00 PM 3.43 38.174 0.06 6.57 2.6 12.54
12/6/2020 5:30:00 PM 3.4 38.12 0.06 6.55 2.36 12.53
12/6/2020 5:45:00 PM 3.37 38.066 0.06 6.57 2.34 12.53
12/6/2020 6:00:00 PM 3.36 38.048 0.06 6.54 2.31 12.53
12/6/2020 6:15:00 PM 3.34 38.012 0.06 6.56 2.27 12.52
12/6/2020 6:30:00 PM 3.32 37.976 0.06 6.55 2.32 12.52
12/6/2020 6:45:00 PM 3.3 37.94 0.06 6.54 2.23 12.53
12/6/2020 7:00:00 PM 3.28 37.904 0.06 6.53 2.43 12.53
12/6/2020 7:15:00 PM 3.25 37.85 0.06 6.54 2.32 12.54
12/6/2020 7:30:00 PM 3.22 37.796 0.06 6.55 2.35 12.54
12/6/2020 7:45:00 PM 3.19 37.742 0.06 6.53 2.22 12.55
12/6/2020 8:00:00 PM 3.16 37.688 0.06 6.53 2.4 12.56
12/6/2020 8:15:00 PM 3.14 37.652 0.06 6.54 2.23 12.57
12/6/2020 8:30:00 PM 3.13 37.634 0.06 6.54 2.26 12.57
12/6/2020 8:45:00 PM 3.12 37.616 0.06 6.54 2.23 12.59
12/6/2020 9:00:00 PM 3.11 37.598 0.06 6.53 2.24 12.59
12/6/2020 9:15:00 PM 3.09 37.562 0.06 6.53 2.25 12.6
12/6/2020 9:30:00 PM 3.07 37.526 0.06 6.53 3.09 12.6
12/6/2020 9:45:00 PM 3.06 37.508 0.06 6.54 2.21 12.61
12/6/2020 10:00:00 PM 3.04 37.472 0.06 6.53 2.27 12.61
12/6/2020 10:15:00 PM 3.02 37.436 0.06 6.53 2.25 12.61
12/6/2020 10:30:00 PM 2.99 37.382 0.06 6.54 2.24 12.63
12/6/2020 10:45:00 PM 2.98 37.364 0.06 6.54 2.33 12.63
12/6/2020 11:00:00 PM 2.94 37.292 0.06 6.54 2.25 12.63
12/6/2020 11:15:00 PM 2.92 37.256 0.06 6.54 2.37 12.64
12/6/2020 11:30:00 PM 2.91 37.238 0.06 6.54 2.26 12.65
12/6/2020 11:45:00 PM 2.89 37.202 0.06 6.52 2.21 12.65
12/7/2020 12:00:00 AM 2.88 37.184 0.06 6.54 2.21 12.66
12/7/2020 12:15:00 AM 2.87 37.166 0.06 6.53 2.23 12.66
12/7/2020 12:30:00 AM 2.85 37.13 0.06 6.54 2.22 12.66
12/7/2020 12:45:00 AM 2.84 37.112 0.06 6.52 2.21 12.67
12/7/2020 1:00:00 AM 2.83 37.094 0.06 6.53 2.21 12.67
12/7/2020 1:15:00 AM 2.82 37.076 0.06 6.53 2.18 12.67
12/7/2020 1:30:00 AM 2.82 37.076 0.06 6.53 2.14 12.67
12/7/2020 1:45:00 AM 2.81 37.058 0.06 6.54 2.15 12.68
12/7/2020 2:00:00 AM 2.81 37.058 0.06 6.53 2.21 12.68
12/7/2020 2:15:00 AM 2.8 37.04 0.06 6.54 2.18 12.68
12/7/2020 2:30:00 AM 2.8 37.04 0.06 6.54 2.21 12.68
12/7/2020 2:45:00 AM 2.8 37.04 0.06 6.54 2.16 12.67
12/7/2020 3:00:00 AM 2.8 37.04 0.06 6.52 2.15 12.67
12/7/2020 3:15:00 AM 2.8 37.04 0.06 6.52 2.19 12.67
12/7/2020 3:30:00 AM 2.79 37.022 0.06 6.53 2.2 12.67
12/7/2020 3:45:00 AM 2.79 37.022 0.06 6.52 2.22 12.68
12/7/2020 4:00:00 AM 2.78 37.004 0.06 6.53 2.33 12.68
12/7/2020 4:15:00 AM 2.76 36.968 0.06 6.53 2.32 12.68
12/7/2020 4:30:00 AM 2.75 36.95 0.06 6.53 2.29 12.69
12/7/2020 4:45:00 AM 2.75 36.95 0.06 6.53 2.2 12.69
12/7/2020 5:00:00 AM 2.75 36.95 0.06 6.53 2.24 12.69
12/7/2020 5:15:00 AM 2.74 36.932 0.06 6.53 2.58 12.69
12/7/2020 5:30:00 AM 2.74 36.932 0.06 6.53 2.49 12.69
12/7/2020 5:45:00 AM 2.74 36.932 0.06 6.53 2.19 12.69
12/7/2020 6:00:00 AM 2.73 36.914 0.06 6.53 2.24 12.69
12/7/2020 6:15:00 AM 2.73 36.914 0.06 6.54 2.29 12.69
12/7/2020 6:30:00 AM 2.73 36.914 0.06 6.54 2.41 12.69
12/7/2020 6:45:00 AM 2.73 36.914 0.06 6.53 2.45 12.69
12/7/2020 7:00:00 AM 2.72 36.896 0.06 6.53 2.32 12.69
12/7/2020 7:15:00 AM 2.71 36.878 0.06 6.52 2.22 12.69
12/7/2020 7:30:00 AM 2.71 36.878 0.06 6.52 2.26 12.7
12/7/2020 7:45:00 AM 2.71 36.878 0.06 6.53 2.2 12.72
12/7/2020 8:00:00 AM 2.7 36.86 0.06 6.53 2.1 12.74
12/7/2020 8:15:00 AM 2.69 36.842 0.06 6.56 2.06 12.78
12/7/2020 8:30:00 AM 2.7 36.86 0.06 6.55 2.07 12.82
12/7/2020 8:45:00 AM 2.7 36.86 0.059 6.56 2.11 12.85
12/7/2020 9:00:00 AM 2.67 36.806 0.059 6.58 2.1 12.86
12/7/2020 9:15:00 AM 2.67 36.806 0.059 6.58 2.06 12.89
12/7/2020 9:30:00 AM 2.67 36.806 0.059 6.58 2 12.93
12/7/2020 9:45:00 AM 2.7 36.86 0.059 6.61 1.99 12.96
12/7/2020 10:00:00 AM 2.72 36.896 0.059 6.6 2 12.97
12/7/2020 10:15:00 AM 2.81 37.058 0.059 6.64 2.05 12.98
12/7/2020 10:30:00 AM 2.91 37.238 0.059 6.64 2.03 12.98
12/7/2020 10:45:00 AM 3.03 37.454 0.059 6.65 2.05 12.98
12/7/2020 11:00:00 AM 3.13 37.634 0.059 6.64 2.09 12.97
12/7/2020 11:15:00 AM 3.23 37.814 0.059 6.64 2.09 12.96
12/7/2020 11:30:00 AM 3.3 37.94 0.059 6.66 2 12.94
12/7/2020 11:45:00 AM 3.39 38.102 0.059 6.66 2.06 12.93
12/7/2020 12:00:00 PM 3.44 38.192 0.058 6.65 2.08 12.91
12/7/2020 12:15:00 PM 3.45 38.21 0.058 6.66 2.1 12.88
12/7/2020 12:30:00 PM 3.51 38.318 0.058 6.65 2.07 12.87
12/7/2020 12:45:00 PM 3.56 38.408 0.058 6.66 2.05 12.85
12/7/2020 1:00:00 PM 3.61 38.498 0.058 6.66 2.15 12.83
12/7/2020 1:15:00 PM 3.58 38.444 0.058 6.67 2.12 12.81
12/7/2020 1:30:00 PM 3.57 38.426 0.058 6.63 2.07 12.78
12/7/2020 1:45:00 PM 3.57 38.426 0.058 6.66 2.06 12.76
12/7/2020 2:00:00 PM 3.57 38.426 0.058 6.64 2.09 12.75
12/7/2020 2:15:00 PM 3.58 38.444 0.058 6.65 2.08 12.75
12/7/2020 2:30:00 PM 3.6 38.48 0.058 6.65 2.01 12.75
12/7/2020 2:45:00 PM 3.6 38.48 0.058 6.65 2.02 12.74
12/7/2020 3:00:00 PM 3.58 38.444 0.058 6.66 2.07 12.72
12/7/2020 3:15:00 PM 3.57 38.426 0.058 6.66 2.08 12.71
12/7/2020 3:30:00 PM 3.55 38.39 0.058 6.65 2.12 12.7
12/7/2020 3:45:00 PM 3.53 38.354 0.058 6.63 2.12 12.69
12/7/2020 4:00:00 PM 3.5 38.3 0.058 6.63 2.16 12.66
12/7/2020 4:15:00 PM 3.46 38.228 0.058 6.62 2.14 12.64
12/7/2020 4:30:00 PM 3.41 38.138 0.058 6.62 2.22 12.63
12/7/2020 4:45:00 PM 3.37 38.066 0.058 6.58 2.28 12.61
12/7/2020 5:00:00 PM 3.32 37.976 0.058 6.58 2.3 12.58
12/7/2020 5:15:00 PM 3.28 37.904 0.058 6.57 2.29 12.57
12/7/2020 5:30:00 PM 3.24 37.832 0.058 6.55 2.29 12.57
12/7/2020 5:45:00 PM 3.2 37.76 0.058 6.57 2.28 12.56
12/7/2020 6:00:00 PM 3.15 37.67 0.059 6.55 2.4 12.55
12/7/2020 6:15:00 PM 3.11 37.598 0.059 6.54 2.32 12.56
12/7/2020 6:30:00 PM 3.07 37.526 0.059 6.55 2.23 12.57
12/7/2020 6:45:00 PM 3.03 37.454 0.059 6.55 2.22 12.56
12/7/2020 7:00:00 PM 2.98 37.364 0.059 6.54 2.25 12.58
12/7/2020 7:15:00 PM 2.93 37.274 0.059 6.55 2.75 12.59
12/7/2020 7:30:00 PM 2.89 37.202 0.059 6.53 3.06 12.6
12/7/2020 7:45:00 PM 2.85 37.13 0.059 6.54 2.56 12.61
12/7/2020 8:00:00 PM 2.81 37.058 0.059 6.53 3.91 12.62
12/7/2020 8:15:00 PM 2.79 37.022 0.059 6.54 3 12.63
12/7/2020 8:30:00 PM 2.75 36.95 0.059 6.52 3.01 12.64
12/7/2020 8:45:00 PM 2.72 36.896 0.059 6.54 2.58 12.65
12/7/2020 9:00:00 PM 2.7 36.86 0.059 6.54 2.68 12.66
12/7/2020 9:15:00 PM 2.68 36.824 0.059 6.52 2.56 12.68
12/7/2020 9:30:00 PM 2.65 36.77 0.059 6.54 3.09 12.68
12/7/2020 9:45:00 PM 2.63 36.734 0.059 6.51 3.09 12.7
12/7/2020 10:00:00 PM 2.59 36.662 0.059 6.54 3.32 12.71
12/7/2020 10:15:00 PM 2.58 36.644 0.059 6.52 2.7 12.72
12/7/2020 10:30:00 PM 2.57 36.626 0.059 6.54 2.39 12.72
12/7/2020 10:45:00 PM 2.56 36.608 0.059 6.52 2.39 12.73
12/7/2020 11:00:00 PM 2.55 36.59 0.059 6.54 2.44 12.74
12/7/2020 11:15:00 PM 2.54 36.572 0.059 6.53 2.38 12.74
12/7/2020 11:30:00 PM 2.54 36.572 0.059 6.52 2.49 12.75
12/7/2020 11:45:00 PM 2.53 36.554 0.059 6.52 2.42 12.75
12/8/2020 12:00:00 AM 2.52 36.536 0.059 6.53 2.44 12.75
12/8/2020 12:15:00 AM 2.52 36.536 0.059 6.54 2.42 12.76
12/8/2020 12:30:00 AM 2.5 36.5 0.059 6.54 2.41 12.76
12/8/2020 12:45:00 AM 2.48 36.464 0.059 6.53 2.33 12.76
12/8/2020 1:00:00 AM 2.45 36.41 0.059 6.53 2.45 12.77
12/8/2020 1:15:00 AM 2.41 36.338 0.059 6.53 2.61 12.78
12/8/2020 1:30:00 AM 2.4 36.32 0.059 6.51 2.35 12.78
12/8/2020 1:45:00 AM 2.39 36.302 0.059 6.54 2.28 12.78
12/8/2020 2:00:00 AM 2.36 36.248 0.059 6.53 2.28 12.79
12/8/2020 2:15:00 AM 2.34 36.212 0.059 6.52 2.3 12.8
12/8/2020 2:30:00 AM 2.33 36.194 0.059 6.53 2.24 12.81
12/8/2020 2:45:00 AM 2.31 36.158 0.059 6.51 2.21 12.82
12/8/2020 3:00:00 AM 2.28 36.104 0.059 6.54 2.26 12.82
12/8/2020 3:15:00 AM 2.26 36.068 0.059 6.52 2.29 12.83
12/8/2020 3:30:00 AM 2.23 36.014 0.059 6.53 2.29 12.83
12/8/2020 3:45:00 AM 2.2 35.96 0.059 6.51 2.34 12.84
12/8/2020 4:00:00 AM 2.17 35.906 0.059 6.54 2.37 12.85
12/8/2020 4:15:00 AM 2.15 35.87 0.059 6.53 2.32 12.86
12/8/2020 4:30:00 AM 2.13 35.834 0.059 6.52 2.4 12.87
12/8/2020 4:45:00 AM 2.11 35.798 0.059 6.53 2.82 12.88
12/8/2020 5:00:00 AM 2.07 35.726 0.059 6.51 2.49 12.89
12/8/2020 5:15:00 AM 2.03 35.654 0.059 6.53 2.45 12.9
12/8/2020 5:30:00 AM 2.01 35.618 0.059 6.53 2.39 12.91
12/8/2020 5:45:00 AM 1.99 35.582 0.059 6.51 2.23 12.92
12/8/2020 6:00:00 AM 1.96 35.528 0.059 6.53 2.26 12.93
12/8/2020 6:15:00 AM 1.93 35.474 0.059 6.53 2.19 12.93
12/8/2020 6:30:00 AM 1.9 35.42 0.059 6.51 2.21 12.94
12/8/2020 6:45:00 AM 1.87 35.366 0.059 6.53 2.26 12.96
12/8/2020 7:00:00 AM 1.86 35.348 0.059 6.53 2.2 12.96
12/8/2020 7:15:00 AM 1.84 35.312 0.059 6.51 2.25 12.97
12/8/2020 7:30:00 AM 1.81 35.258 0.059 6.54 2.22 12.99
12/8/2020 7:45:00 AM 1.79 35.222 0.059 6.54 2.18 13.01
12/8/2020 8:00:00 AM 1.77 35.186 0.059 6.55 2.16 13.04
12/8/2020 8:15:00 AM 1.75 35.15 0.059 6.52 2.11 13.07
12/8/2020 8:30:00 AM 1.74 35.132 0.059 6.54 2.25 13.1
12/8/2020 8:45:00 AM 1.74 35.132 0.059 6.56 2.1 13.13
12/8/2020 9:00:00 AM 1.74 35.132 0.059 6.57 2.12 13.16
12/8/2020 9:15:00 AM 1.72 35.096 0.059 6.56 2.09 13.19
12/8/2020 9:30:00 AM 1.71 35.078 0.059 6.59 2.03 13.21
12/8/2020 9:45:00 AM 1.73 35.114 0.059 6.59 2.07 13.24
12/8/2020 10:00:00 AM 1.76 35.168 0.059 6.6 2.04 13.27
12/8/2020 10:15:00 AM 1.78 35.204 0.059 6.61 2.06 13.28
12/8/2020 10:30:00 AM 1.81 35.258 0.058 6.6 2.11 13.29
12/8/2020 10:45:00 AM 1.86 35.348 0.058 6.62 2.06 13.29
12/8/2020 11:00:00 AM 1.93 35.474 0.058 6.62 2.02 13.29
12/8/2020 11:15:00 AM 1.97 35.546 0.058 6.62 2.04 13.29
12/8/2020 11:30:00 AM 2.03 35.654 0.058 6.63 2.04 13.28
12/8/2020 11:45:00 AM 2.09 35.762 0.058 6.63 2.04 13.27
12/8/2020 12:00:00 PM 2.15 35.87 0.058 6.61 2.04 13.26
12/8/2020 12:15:00 PM 2.21 35.978 0.058 6.62 2.07 13.25
12/8/2020 12:30:00 PM 2.29 36.122 0.058 6.65 2.03 13.23
12/8/2020 12:45:00 PM 2.35 36.23 0.058 6.64 2.09 13.22
12/8/2020 1:00:00 PM 2.41 36.338 0.058 6.63 2.06 13.19
12/8/2020 1:15:00 PM 2.47 36.446 0.058 6.63 2.11 13.17
12/8/2020 1:30:00 PM 2.52 36.536 0.058 6.63 2.07 13.15
12/8/2020 1:45:00 PM 2.57 36.626 0.058 6.64 2.1 13.12
12/8/2020 2:00:00 PM 2.62 36.716 0.058 6.63 2.12 13.1
12/8/2020 2:15:00 PM 2.66 36.788 0.058 6.64 2.09 13.08
12/8/2020 2:30:00 PM 2.68 36.824 0.058 6.64 2 13.06
12/8/2020 2:45:00 PM 2.7 36.86 0.058 6.62 2.07 13.04
12/8/2020 3:00:00 PM 2.71 36.878 0.058 6.63 2.04 13.02
12/8/2020 3:15:00 PM 2.71 36.878 0.058 6.61 2.09 13
12/8/2020 3:30:00 PM 2.72 36.896 0.058 6.63 2.08 12.98
12/8/2020 3:45:00 PM 2.7 36.86 0.058 6.68 2.15 12.95
12/8/2020 4:00:00 PM 2.67 36.806 0.058 6.61 2.08 12.94
12/8/2020 4:15:00 PM 2.65 36.77 0.058 6.61 2.22 12.91
12/8/2020 4:30:00 PM 2.64 36.752 0.058 6.6 2.19 12.9
12/8/2020 4:45:00 PM 2.62 36.716 0.058 6.58 2.22 12.87
12/8/2020 5:00:00 PM 2.6 36.68 0.058 6.57 2.19 12.84
12/8/2020 5:15:00 PM 2.59 36.662 0.058 6.56 2.2 12.83
12/8/2020 5:30:00 PM 2.58 36.644 0.058 6.57 2.44 12.82
12/8/2020 5:45:00 PM 2.57 36.626 0.058 6.55 2.23 12.8
12/8/2020 6:00:00 PM 2.55 36.59 0.058 6.56 2.28 12.8
12/8/2020 6:15:00 PM 2.53 36.554 0.058 6.52 2.19 12.8
12/8/2020 6:30:00 PM 2.53 36.554 0.058 6.55 2.22 12.79
12/8/2020 6:45:00 PM 2.52 36.536 0.058 6.54 2.2 12.79
12/8/2020 7:00:00 PM 2.49 36.482 0.058 6.53 2.2 12.79
12/8/2020 7:15:00 PM 2.48 36.464 0.058 6.53 2.27 12.79
12/8/2020 7:30:00 PM 2.47 36.446 0.058 6.52 2.3 12.8
12/8/2020 7:45:00 PM 2.47 36.446 0.058 6.53 2.46 12.8
12/8/2020 8:00:00 PM 2.47 36.446 0.058 6.54 2.37 12.79
12/8/2020 8:15:00 PM 2.49 36.482 0.058 6.59 2.38 12.8
12/8/2020 8:30:00 PM 2.5 36.5 0.058 6.53 2.25 12.8
12/8/2020 8:45:00 PM 2.51 36.518 0.058 6.53 2.24 12.8
12/8/2020 9:00:00 PM 2.51 36.518 0.058 6.52 2.19 12.8
12/8/2020 9:15:00 PM 2.52 36.536 0.058 6.54 2.25 12.8
12/8/2020 9:30:00 PM 2.53 36.554 0.058 6.53 2.28 12.79
12/8/2020 9:45:00 PM 2.53 36.554 0.058 6.51 2.25 12.79
12/8/2020 10:00:00 PM 2.53 36.554 0.058 6.53 2.2 12.78
12/8/2020 10:15:00 PM 2.54 36.572 0.058 6.51 2.21 12.79
12/8/2020 10:30:00 PM 2.54 36.572 0.058 6.54 2.26 12.78
12/8/2020 10:45:00 PM 2.55 36.59 0.058 6.53 2.96 12.78
12/8/2020 11:00:00 PM 2.55 36.59 0.058 6.53 2.32 12.78
12/8/2020 11:15:00 PM 2.55 36.59 0.058 6.52 2.39 12.77
12/8/2020 11:30:00 PM 2.54 36.572 0.058 6.52 2.43 12.77
12/8/2020 11:45:00 PM 2.54 36.572 0.058 6.52 2.33 12.77
12/9/2020 12:00:00 AM 2.54 36.572 0.058 6.53 2.38 12.77
12/9/2020 12:15:00 AM 2.53 36.554 0.058 6.53 2.28 12.77
12/9/2020 12:30:00 AM 2.52 36.536 0.058 6.52 2.25 12.77
12/9/2020 12:45:00 AM 2.52 36.536 0.058 6.52 2.29 12.77
12/9/2020 1:00:00 AM 2.51 36.518 0.058 6.53 2.29 12.77
12/9/2020 1:15:00 AM 2.5 36.5 0.058 6.5 2.4 12.78
12/9/2020 1:30:00 AM 2.5 36.5 0.058 6.53 2.25 12.77
12/9/2020 1:45:00 AM 2.49 36.482 0.058 6.51 2.2 12.76
12/9/2020 2:00:00 AM 2.49 36.482 0.058 6.53 2.25 12.76
12/9/2020 2:15:00 AM 2.49 36.482 0.058 6.5 2.38 12.76
12/9/2020 2:30:00 AM 2.49 36.482 0.058 6.53 2.3 12.76
12/9/2020 2:45:00 AM 2.49 36.482 0.058 6.51 2.26 12.76
12/9/2020 3:00:00 AM 2.49 36.482 0.058 6.52 2.29 12.76
12/9/2020 3:15:00 AM 2.49 36.482 0.058 6.53 2.56 12.75
12/9/2020 3:30:00 AM 2.49 36.482 0.058 6.52 2.42 12.76
12/9/2020 3:45:00 AM 2.49 36.482 0.058 6.53 2.41 12.75
12/9/2020 4:00:00 AM 2.5 36.5 0.058 6.5 2.46 12.75
12/9/2020 4:15:00 AM 2.49 36.482 0.058 6.53 2.6 12.74
12/9/2020 4:30:00 AM 2.49 36.482 0.058 6.51 2.6 12.75
12/9/2020 4:45:00 AM 2.5 36.5 0.058 6.53 2.59 12.74
12/9/2020 5:00:00 AM 2.5 36.5 0.058 6.52 2.56 12.74
12/9/2020 5:15:00 AM 2.5 36.5 0.058 6.52 2.37 12.74
12/9/2020 5:30:00 AM 2.51 36.518 0.058 6.52 2.37 12.74
12/9/2020 5:45:00 AM 2.51 36.518 0.058 6.5 2.37 12.73
12/9/2020 6:00:00 AM 2.52 36.536 0.058 6.51 2.35 12.73
12/9/2020 6:15:00 AM 2.52 36.536 0.058 6.52 2.4 12.73
12/9/2020 6:30:00 AM 2.53 36.554 0.058 6.51 2.32 12.73
12/9/2020 6:45:00 AM 2.52 36.536 0.058 6.51 2.16 12.73
12/9/2020 7:00:00 AM 2.53 36.554 0.058 6.51 2.29 12.72
12/9/2020 7:15:00 AM 2.54 36.572 0.058 6.51 2.31 12.72
12/9/2020 7:30:00 AM 2.54 36.572 0.058 6.52 2.21 12.72
12/9/2020 7:45:00 AM 2.55 36.59 0.058 6.53 2.21 12.73
12/9/2020 8:00:00 AM 2.55 36.59 0.058 6.52 2.16 12.73
12/9/2020 8:15:00 AM 2.55 36.59 0.058 6.52 2.09 12.73
12/9/2020 8:30:00 AM 2.51 36.518 0.058 6.53 2.12 12.75
12/9/2020 8:45:00 AM 2.48 36.464 0.058 6.54 2.09 12.77
12/9/2020 9:00:00 AM 2.5 36.5 0.058 6.53 2.08 12.81
12/9/2020 9:15:00 AM 2.53 36.554 0.058 6.55 2.07 12.83
12/9/2020 9:30:00 AM 2.56 36.608 0.058 6.56 2.01 12.86
12/9/2020 9:45:00 AM 2.59 36.662 0.058 6.55 2.03 12.9
12/9/2020 10:00:00 AM 2.62 36.716 0.058 6.59 1.99 12.92
12/9/2020 10:15:00 AM 2.63 36.734 0.058 6.56 2.01 12.93
12/9/2020 10:30:00 AM 2.64 36.752 0.058 6.58 2.02 12.93
12/9/2020 10:45:00 AM 2.66 36.788 0.058 6.58 1.99 12.93
12/9/2020 11:00:00 AM 2.68 36.824 0.058 6.59 2.03 12.94
12/9/2020 11:15:00 AM 2.69 36.842 0.058 6.6 2.03 12.93
12/9/2020 11:30:00 AM 2.71 36.878 0.058 6.6 2.01 12.92
12/9/2020 11:45:00 AM 2.72 36.896 0.058 6.58 2 12.91
12/9/2020 12:00:00 PM 2.74 36.932 0.057 6.59 2.05 12.93
12/9/2020 12:15:00 PM 2.75 36.95 0.057 6.61 1.98 12.92
12/9/2020 12:30:00 PM 2.77 36.986 0.057 6.61 1.99 12.91
12/9/2020 12:45:00 PM 2.8 37.04 0.057 6.59 2.03 12.89
12/9/2020 1:00:00 PM 2.81 37.058 0.057 6.6 2.05 12.87
12/9/2020 1:15:00 PM 2.83 37.094 0.057 6.6 2.1 12.85
12/9/2020 1:30:00 PM 2.84 37.112 0.057 6.58 2.05 12.84
12/9/2020 1:45:00 PM 2.86 37.148 0.057 6.6 2.03 12.83
12/9/2020 2:00:00 PM 2.88 37.184 0.057 6.6 2.01 12.83
12/9/2020 2:15:00 PM 2.9 37.22 0.057 6.6 2.04 12.82
12/9/2020 2:30:00 PM 2.92 37.256 0.057 6.59 2.03 12.8
12/9/2020 2:45:00 PM 2.94 37.292 0.057 6.58 2.01 12.78
12/9/2020 3:00:00 PM 2.96 37.328 0.057 6.58 2 12.77
12/9/2020 3:15:00 PM 2.98 37.364 0.057 6.58 2.02 12.77
12/9/2020 3:30:00 PM 3.01 37.418 0.057 6.59 2.04 12.77
12/9/2020 3:45:00 PM 3.03 37.454 0.057 6.56 2.03 12.75
12/9/2020 4:00:00 PM 3.05 37.49 0.057 6.58 2.13 12.71
12/9/2020 4:15:00 PM 3.07 37.526 0.057 6.55 2.15 12.68
12/9/2020 4:30:00 PM 3.08 37.544 0.057 6.55 2.15 12.66
12/9/2020 4:45:00 PM 3.1 37.58 0.057 6.56 2.27 12.63
12/9/2020 5:00:00 PM 3.12 37.616 0.057 6.54 2.18 12.61
12/9/2020 5:15:00 PM 3.13 37.634 0.057 6.54 2.36 12.6
12/9/2020 5:30:00 PM 3.15 37.67 0.057 6.54 2.21 12.58
12/9/2020 5:45:00 PM 3.17 37.706 0.057 6.53 2.17 12.56
12/9/2020 6:00:00 PM 3.18 37.724 0.058 6.52 2.21 12.55
12/9/2020 6:15:00 PM 3.19 37.742 0.058 6.51 2.24 12.54
12/9/2020 6:30:00 PM 3.21 37.778 0.058 6.51 2.33 12.53
12/9/2020 6:45:00 PM 3.22 37.796 0.058 6.52 2.19 12.52
12/9/2020 7:00:00 PM 3.24 37.832 0.058 6.51 2.21 12.51
12/9/2020 7:15:00 PM 3.25 37.85 0.058 6.52 2.31 12.51
12/9/2020 7:30:00 PM 3.27 37.886 0.058 6.48 2.36 12.51
12/9/2020 7:45:00 PM 3.28 37.904 0.058 6.52 2.28 12.5
12/9/2020 8:00:00 PM 3.3 37.94 0.058 6.51 2.27 12.5
12/9/2020 8:15:00 PM 3.31 37.958 0.058 6.5 2.28 12.49
12/9/2020 8:30:00 PM 3.32 37.976 0.058 6.52 2.26 12.5
12/9/2020 8:45:00 PM 3.34 38.012 0.058 6.51 2.21 12.49
12/9/2020 9:00:00 PM 3.35 38.03 0.058 6.49 2.28 12.49
12/9/2020 9:15:00 PM 3.36 38.048 0.058 6.52 2.29 12.48
12/9/2020 9:30:00 PM 3.37 38.066 0.058 6.51 2.29 12.48
12/9/2020 9:45:00 PM 3.39 38.102 0.058 6.51 2.24 12.47
12/9/2020 10:00:00 PM 3.4 38.12 0.058 6.52 2.27 12.47
12/9/2020 10:15:00 PM 3.4 38.12 0.058 6.49 2.26 12.47
12/9/2020 10:30:00 PM 3.41 38.138 0.058 6.5 2.23 12.47
12/9/2020 10:45:00 PM 3.42 38.156 0.058 6.51 2.19 12.46
12/9/2020 11:00:00 PM 3.43 38.174 0.058 6.49 2.6 12.46
12/9/2020 11:15:00 PM 3.44 38.192 0.058 6.51 2.34 12.46
12/9/2020 11:30:00 PM 3.45 38.21 0.058 6.5 2.25 12.46
12/9/2020 11:45:00 PM 3.46 38.228 0.058 6.51 2.19 12.46
12/10/2020 12:00:00 AM 3.47 38.246 0.058 6.49 2.22 12.45
12/10/2020 12:15:00 AM 3.48 38.264 0.058 6.5 2.18 12.45
12/10/2020 12:30:00 AM 3.5 38.3 0.058 6.51 2.39 12.45
12/10/2020 12:45:00 AM 3.51 38.318 0.058 6.52 2.3 12.45
12/10/2020 1:00:00 AM 3.51 38.318 0.058 6.49 2.24 12.45
12/10/2020 1:15:00 AM 3.52 38.336 0.058 6.51 2.2 12.45
12/10/2020 1:30:00 AM 3.53 38.354 0.058 6.5 2.25 12.44
12/10/2020 1:45:00 AM 3.54 38.372 0.058 6.5 2.32 12.44
12/10/2020 2:00:00 AM 3.55 38.39 0.058 6.49 2.31 12.44
12/10/2020 2:15:00 AM 3.56 38.408 0.058 6.5 2.25 12.44
12/10/2020 2:30:00 AM 3.57 38.426 0.058 6.49 2.24 12.44
12/10/2020 2:45:00 AM 3.59 38.462 0.058 6.5 2.22 12.44
12/10/2020 3:00:00 AM 3.59 38.462 0.058 6.49 2.28 12.44
12/10/2020 3:15:00 AM 3.6 38.48 0.058 6.49 2.18 12.44
12/10/2020 3:30:00 AM 3.61 38.498 0.058 6.5 2.25 12.44
12/10/2020 3:45:00 AM 3.62 38.516 0.058 6.51 2.29 12.44
12/10/2020 4:00:00 AM 3.62 38.516 0.058 6.48 2.87 12.44
12/10/2020 4:15:00 AM 3.64 38.552 0.058 6.5 2.7 12.44
12/10/2020 4:30:00 AM 3.64 38.552 0.058 6.5 2.47 12.43
12/10/2020 4:45:00 AM 3.65 38.57 0.058 6.5 2.29 12.43
12/10/2020 5:00:00 AM 3.66 38.588 0.058 6.5 2.33 12.43
12/10/2020 5:15:00 AM 3.67 38.606 0.058 6.49 2.34 12.43
12/10/2020 5:30:00 AM 3.69 38.642 0.058 6.5 2.43 12.43
12/10/2020 5:45:00 AM 3.69 38.642 0.058 6.5 2.29 12.43
12/10/2020 6:00:00 AM 3.71 38.678 0.058 6.49 2.45 12.43
12/10/2020 6:15:00 AM 3.71 38.678 0.058 6.51 2.57 12.42
12/10/2020 6:30:00 AM 3.72 38.696 0.058 6.49 2.31 12.43
12/10/2020 6:45:00 AM 3.73 38.714 0.058 6.5 2.29 12.43
12/10/2020 7:00:00 AM 3.73 38.714 0.058 6.5 2.22 12.43
12/10/2020 7:15:00 AM 3.73 38.714 0.058 6.5 2.25 12.43
12/10/2020 7:30:00 AM 3.73 38.714 0.058 6.5 2.21 12.44
12/10/2020 7:45:00 AM 3.71 38.678 0.058 6.5 2.1 12.45
12/10/2020 8:00:00 AM 3.7 38.66 0.058 6.52 2.14 12.49
12/10/2020 8:15:00 AM 3.72 38.696 0.058 6.49 2.1 12.52
12/10/2020 8:30:00 AM 3.75 38.75 0.058 6.54 2.09 12.56
12/10/2020 8:45:00 AM 3.77 38.786 0.058 6.54 2.08 12.61
12/10/2020 9:00:00 AM 3.79 38.822 0.058 6.55 2.07 12.64
12/10/2020 9:15:00 AM 3.82 38.876 0.058 6.55 2.07 12.66
12/10/2020 9:30:00 AM 3.87 38.966 0.057 6.56 2.07 12.69
12/10/2020 9:45:00 AM 3.91 39.038 0.057 6.58 2.06 12.71
12/10/2020 10:00:00 AM 3.96 39.128 0.057 6.59 2.03 12.73
12/10/2020 10:15:00 AM 4.01 39.218 0.057 6.61 2.08 12.75
12/10/2020 10:30:00 AM 4.07 39.326 0.057 6.6 2.04 12.76
12/10/2020 10:45:00 AM 4.13 39.434 0.057 6.64 2 12.76
12/10/2020 11:00:00 AM 4.2 39.56 0.057 6.63 2.05 12.76
12/10/2020 11:15:00 AM 4.25 39.65 0.057 6.65 2.09 12.75
12/10/2020 11:30:00 AM 4.31 39.758 0.057 6.65 2.07 12.75
12/10/2020 11:45:00 AM 4.37 39.866 0.057 6.65 2.03 12.74
12/10/2020 12:00:00 PM 4.44 39.992 0.057 6.66 2.04 12.72
12/10/2020 12:15:00 PM 4.54 40.172 0.057 6.65 2.04 12.71
12/10/2020 12:30:00 PM 4.58 40.244 0.057 6.68 2.12 12.7
12/10/2020 12:45:00 PM 4.61 40.298 0.057 6.65 2.1 12.68
12/10/2020 1:00:00 PM 4.67 40.406 0.056 6.66 2.07 12.67
12/10/2020 1:15:00 PM 4.71 40.478 0.056 6.67 2.18 12.65
12/10/2020 1:30:00 PM 4.75 40.55 0.056 6.67 2.12 12.63
12/10/2020 1:45:00 PM 4.77 40.586 0.056 6.68 2.12 12.62
12/10/2020 2:00:00 PM 4.83 40.694 0.056 6.67 2.09 12.61
12/10/2020 2:15:00 PM 4.85 40.73 0.056 6.68 2.09 12.59
12/10/2020 2:30:00 PM 4.85 40.73 0.056 6.67 2.09 12.57
12/10/2020 2:45:00 PM 4.87 40.766 0.056 6.64 2.07 12.55
12/10/2020 3:00:00 PM 4.88 40.784 0.056 6.66 2.12 12.54
12/10/2020 3:15:00 PM 4.88 40.784 0.056 6.66 2.11 12.52
12/10/2020 3:30:00 PM 4.85 40.73 0.056 6.65 2.12 12.48
12/10/2020 3:45:00 PM 4.81 40.658 0.056 6.62 2.13 12.45
12/10/2020 4:00:00 PM 4.77 40.586 0.056 6.62 2.15 12.41
12/10/2020 4:15:00 PM 4.73 40.514 0.056 6.61 2.2 12.39
12/10/2020 4:30:00 PM 4.69 40.442 0.056 6.59 2.19 12.36
12/10/2020 4:45:00 PM 4.64 40.352 0.056 6.58 2.17 12.33
12/10/2020 5:00:00 PM 4.58 40.244 0.057 6.55 2.27 12.3
12/10/2020 5:15:00 PM 4.54 40.172 0.057 6.55 2.34 12.28
12/10/2020 5:30:00 PM 4.49 40.082 0.057 6.54 2.33 12.28
12/10/2020 5:45:00 PM 4.45 40.01 0.057 6.52 2.33 12.27
12/10/2020 6:00:00 PM 4.4 39.92 0.057 6.52 2.26 12.26
12/10/2020 6:15:00 PM 4.37 39.866 0.057 6.53 2.29 12.26
12/10/2020 6:30:00 PM 4.33 39.794 0.057 6.5 2.28 12.26
12/10/2020 6:45:00 PM 4.29 39.722 0.057 6.5 2.27 12.27
12/10/2020 7:00:00 PM 4.24 39.632 0.057 6.51 2.36 12.28
12/10/2020 7:15:00 PM 4.18 39.524 0.057 6.51 2.35 12.29
12/10/2020 7:30:00 PM 4.12 39.416 0.057 6.48 2.25 12.3
12/10/2020 7:45:00 PM 4.06 39.308 0.057 6.49 2.26 12.32
12/10/2020 8:00:00 PM 4.01 39.218 0.058 6.5 2.31 12.33
12/10/2020 8:15:00 PM 3.95 39.11 0.058 6.48 2.25 12.35
12/10/2020 8:30:00 PM 3.9 39.02 0.058 6.49 2.24 12.37
12/10/2020 8:45:00 PM 3.84 38.912 0.058 6.49 2.31 12.39
12/10/2020 9:00:00 PM 3.79 38.822 0.058 6.49 2.24 12.4
12/10/2020 9:15:00 PM 3.73 38.714 0.058 6.49 2.27 12.42
12/10/2020 9:30:00 PM 3.68 38.624 0.058 6.49 2.26 12.44
12/10/2020 9:45:00 PM 3.62 38.516 0.058 6.48 2.29 12.45
12/10/2020 10:00:00 PM 3.57 38.426 0.058 6.47 2.26 12.48
12/10/2020 10:15:00 PM 3.51 38.318 0.058 6.49 3.32 12.49
12/10/2020 10:30:00 PM 3.45 38.21 0.058 6.48 2.28 12.51
12/10/2020 10:45:00 PM 3.4 38.12 0.058 6.48 2.2 12.53
12/10/2020 11:00:00 PM 3.34 38.012 0.058 6.5 2.31 12.55
12/10/2020 11:15:00 PM 3.29 37.922 0.058 6.48 2.24 12.57
12/10/2020 11:30:00 PM 3.23 37.814 0.058 6.48 2.26 12.59
12/10/2020 11:45:00 PM 3.18 37.724 0.058 6.5 2.26 12.6
12/11/2020 12:00:00 AM 3.13 37.634 0.058 6.49 2.28 12.61
12/11/2020 12:15:00 AM 3.08 37.544 0.058 6.48 2.25 12.62
12/11/2020 12:30:00 AM 3.04 37.472 0.058 6.48 2.25 12.64
12/11/2020 12:45:00 AM 2.99 37.382 0.058 6.5 2.24 12.65
12/11/2020 1:00:00 AM 2.95 37.31 0.058 6.47 2.28 12.67
12/11/2020 1:15:00 AM 2.9 37.22 0.058 6.48 2.21 12.69
12/11/2020 1:30:00 AM 2.86 37.148 0.058 6.5 2.47 12.71
12/11/2020 1:45:00 AM 2.82 37.076 0.058 6.48 2.33 12.72
12/11/2020 2:00:00 AM 2.77 36.986 0.058 6.5 2.23 12.74
12/11/2020 2:15:00 AM 2.73 36.914 0.058 6.49 2.26 12.76
12/11/2020 2:30:00 AM 2.69 36.842 0.058 6.5 2.22 12.77
12/11/2020 2:45:00 AM 2.65 36.77 0.058 6.5 2.23 12.78
12/11/2020 3:00:00 AM 2.61 36.698 0.058 6.49 2.26 12.79
12/11/2020 3:15:00 AM 2.57 36.626 0.058 6.51 2.23 12.81
12/11/2020 3:30:00 AM 2.54 36.572 0.058 6.5 2.23 12.82
12/11/2020 3:45:00 AM 2.51 36.518 0.058 6.49 2.27 12.83
12/11/2020 4:00:00 AM 2.47 36.446 0.058 6.49 2.27 12.84
12/11/2020 4:15:00 AM 2.44 36.392 0.058 6.5 2.38 12.85
12/11/2020 4:30:00 AM 2.4 36.32 0.058 6.51 2.35 12.86
12/11/2020 4:45:00 AM 2.37 36.266 0.058 6.47 2.35 12.87
12/11/2020 5:00:00 AM 2.34 36.212 0.058 6.5 2.46 12.89
12/11/2020 5:15:00 AM 2.31 36.158 0.058 6.51 2.42 12.9
12/11/2020 5:30:00 AM 2.28 36.104 0.058 6.5 2.38 12.91
12/11/2020 5:45:00 AM 2.25 36.05 0.058 6.5 2.48 12.92
12/11/2020 6:00:00 AM 2.23 36.014 0.058 6.51 2.43 12.93
12/11/2020 6:15:00 AM 2.2 35.96 0.058 6.5 2.34 12.94
12/11/2020 6:30:00 AM 2.17 35.906 0.058 6.48 2.26 12.95
12/11/2020 6:45:00 AM 2.15 35.87 0.058 6.51 2.3 12.96
12/11/2020 7:00:00 AM 2.12 35.816 0.058 6.51 2.27 12.97
12/11/2020 7:15:00 AM 2.1 35.78 0.058 6.48 2.2 12.99
12/11/2020 7:30:00 AM 2.08 35.744 0.058 6.5 2.24 13
12/11/2020 7:45:00 AM 2.07 35.726 0.058 6.52 2.18 13.03
12/11/2020 8:00:00 AM 2.06 35.708 0.058 6.51 2.14 13.08
12/11/2020 8:15:00 AM 2.07 35.726 0.058 6.54 2.13 13.12
12/11/2020 8:30:00 AM 2.09 35.762 0.058 6.55 2.25 13.16
12/11/2020 8:45:00 AM 2.1 35.78 0.058 6.53 2.15 13.2
12/11/2020 9:00:00 AM 2.13 35.834 0.058 6.57 2.12 13.22
12/11/2020 9:15:00 AM 2.19 35.942 0.058 6.58 2.09 13.25
12/11/2020 9:30:00 AM 2.25 36.05 0.058 6.58 2.1 13.27
12/11/2020 9:45:00 AM 2.32 36.176 0.058 6.6 2.08 13.29
12/11/2020 10:00:00 AM 2.39 36.302 0.058 6.59 2.07 13.29
12/11/2020 10:15:00 AM 2.46 36.428 0.058 6.63 2.04 13.29
12/11/2020 10:30:00 AM 2.53 36.554 0.058 6.61 2.05 13.29
12/11/2020 10:45:00 AM 2.59 36.662 0.058 6.64 2.06 13.27
12/11/2020 11:00:00 AM 2.68 36.824 0.058 6.63 2.04 13.26
12/11/2020 11:15:00 AM 2.8 37.04 0.057 6.65 2.08 13.25
12/11/2020 11:30:00 AM 2.89 37.202 0.057 6.65 2.04 13.22
12/11/2020 11:45:00 AM 3.01 37.418 0.057 6.66 2.04 13.2
12/11/2020 12:00:00 PM 3.14 37.652 0.057 6.65 2.05 13.17
12/11/2020 12:15:00 PM 3.27 37.886 0.057 6.67 2.07 13.13
12/11/2020 12:30:00 PM 3.39 38.102 0.057 6.67 2.04 13.1
12/11/2020 12:45:00 PM 3.5 38.3 0.057 6.66 2.05 13.05
12/11/2020 1:00:00 PM 3.58 38.444 0.057 6.67 2.06 13.02
12/11/2020 1:15:00 PM 3.67 38.606 0.057 6.68 2.1 12.98
12/11/2020 1:30:00 PM 3.8 38.84 0.057 6.65 2.13 12.95
12/11/2020 1:45:00 PM 3.95 39.11 0.057 6.68 2.19 12.92
12/11/2020 2:00:00 PM 4.04 39.272 0.057 6.67 2.12 12.86
12/11/2020 2:15:00 PM 4.11 39.398 0.057 6.68 2.07 12.82
12/11/2020 2:30:00 PM 4.19 39.542 0.057 6.66 2.1 12.77
12/11/2020 2:45:00 PM 4.25 39.65 0.057 6.66 2.06 12.71
12/11/2020 3:00:00 PM 4.29 39.722 0.056 6.65 2.08 12.66
12/11/2020 3:15:00 PM 4.36 39.848 0.056 6.64 2.07 12.63
12/11/2020 3:30:00 PM 4.41 39.938 0.056 6.64 2.05 12.58
12/11/2020 3:45:00 PM 4.45 40.01 0.056 6.63 2.11 12.55
12/11/2020 4:00:00 PM 4.49 40.082 0.056 6.63 2.14 12.51
12/11/2020 4:15:00 PM 4.5 40.1 0.056 6.62 2.13 12.46
12/11/2020 4:30:00 PM 4.51 40.118 0.057 6.58 2.18 12.4
12/11/2020 4:45:00 PM 4.51 40.118 0.057 6.59 2.16 12.34
12/11/2020 5:00:00 PM 4.49 40.082 0.057 6.57 2.15 12.3
12/11/2020 5:15:00 PM 4.48 40.064 0.057 6.55 2.29 12.28
12/11/2020 5:30:00 PM 4.46 40.028 0.057 6.54 2.22 12.26
12/11/2020 5:45:00 PM 4.44 39.992 0.057 6.51 2.21 12.24
12/11/2020 6:00:00 PM 4.42 39.956 0.057 6.52 2.22 12.24
12/11/2020 6:15:00 PM 4.39 39.902 0.057 6.52 2.19 12.22
12/11/2020 6:30:00 PM 4.38 39.884 0.057 6.52 2.27 12.21
12/11/2020 6:45:00 PM 4.37 39.866 0.057 6.51 2.27 12.21
12/11/2020 7:00:00 PM 4.36 39.848 0.057 6.5 2.27 12.21
12/11/2020 7:15:00 PM 4.35 39.83 0.057 6.51 2.22 12.21
12/11/2020 7:30:00 PM 4.33 39.794 0.057 6.48 2.2 12.22
12/11/2020 7:45:00 PM 4.31 39.758 0.057 6.49 2.2 12.22
12/11/2020 8:00:00 PM 4.29 39.722 0.057 6.49 2.33 12.23
12/11/2020 8:15:00 PM 4.26 39.668 0.058 6.49 2.17 12.23
12/11/2020 8:30:00 PM 4.23 39.614 0.058 6.5 2.22 12.24
12/11/2020 8:45:00 PM 4.2 39.56 0.058 6.49 2.25 12.25
12/11/2020 9:00:00 PM 4.16 39.488 0.058 6.47 2.31 12.26
12/11/2020 9:15:00 PM 4.12 39.416 0.058 6.49 2.34 12.27
12/11/2020 9:30:00 PM 4.09 39.362 0.058 6.49 2.44 12.28
12/11/2020 9:45:00 PM 4.05 39.29 0.058 6.48 2.42 12.29
12/11/2020 10:00:00 PM 4.01 39.218 0.058 6.49 2.48 12.3
12/11/2020 10:15:00 PM 3.98 39.164 0.058 6.49 2.4 12.32
12/11/2020 10:30:00 PM 3.94 39.092 0.058 6.49 2.44 12.32
12/11/2020 10:45:00 PM 3.9 39.02 0.058 6.49 2.63 12.34
12/11/2020 11:00:00 PM 3.86 38.948 0.058 6.49 2.43 12.35
12/11/2020 11:15:00 PM 3.82 38.876 0.058 6.46 2.45 12.36
12/11/2020 11:30:00 PM 3.78 38.804 0.058 6.49 2.38 12.38
12/11/2020 11:45:00 PM 3.74 38.732 0.058 6.48 2.36 12.39
12/12/2020 12:00:00 AM 3.71 38.678 0.058 6.48 2.41 12.41
12/12/2020 12:15:00 AM 3.69 38.642 0.058 6.48 2.39 12.42
12/12/2020 12:30:00 AM 3.65 38.57 0.058 6.49 2.42 12.43
12/12/2020 12:45:00 AM 3.61 38.498 0.058 6.48 2.37 12.44
12/12/2020 1:00:00 AM 3.58 38.444 0.058 6.49 2.46 12.46
12/12/2020 1:15:00 AM 3.55 38.39 0.058 6.48 2.48 12.47
12/12/2020 1:30:00 AM 3.52 38.336 0.058 6.48 2.37 12.48
12/12/2020 1:45:00 AM 3.5 38.3 0.058 6.49 2.31 12.49
12/12/2020 2:00:00 AM 3.47 38.246 0.058 6.48 2.28 12.49
12/12/2020 2:15:00 AM 3.43 38.174 0.058 6.49 2.29 12.5
12/12/2020 2:30:00 AM 3.4 38.12 0.058 6.47 2.3 12.52
12/12/2020 2:45:00 AM 3.36 38.048 0.058 6.49 2.31 12.53
12/12/2020 3:00:00 AM 3.33 37.994 0.058 6.49 2.35 12.55
12/12/2020 3:15:00 AM 3.33 37.994 0.058 6.49 2.55 12.54
12/12/2020 3:30:00 AM 3.3 37.94 0.058 6.48 2.42 12.55
12/12/2020 3:45:00 AM 3.27 37.886 0.058 6.49 2.42 12.56
12/12/2020 4:00:00 AM 3.24 37.832 0.058 6.46 2.4 12.57
12/12/2020 4:15:00 AM 3.21 37.778 0.058 6.49 2.43 12.59
12/12/2020 4:30:00 AM 3.19 37.742 0.058 6.48 2.37 12.59
12/12/2020 4:45:00 AM 3.17 37.706 0.058 6.49 2.37 12.6
12/12/2020 5:00:00 AM 3.16 37.688 0.058 6.47 2.41 12.61
12/12/2020 5:15:00 AM 3.16 37.688 0.058 6.5 2.39 12.6
12/12/2020 5:30:00 AM 3.15 37.67 0.058 6.46 3 12.61
12/12/2020 5:45:00 AM 3.14 37.652 0.058 6.49 2.75 12.61
12/12/2020 6:00:00 AM 3.13 37.634 0.058 6.49 2.67 12.62
12/12/2020 6:15:00 AM 3.12 37.616 0.058 6.48 2.64 12.62
12/12/2020 6:30:00 AM 3.11 37.598 0.058 6.49 2.51 12.63
12/12/2020 6:45:00 AM 3.11 37.598 0.058 6.49 2.68 12.63
12/12/2020 7:00:00 AM 3.11 37.598 0.058 6.5 2.39 12.63
12/12/2020 7:15:00 AM 3.1 37.58 0.058 6.49 2.55 12.62
12/12/2020 7:30:00 AM 3.1 37.58 0.058 6.49 2.41 12.63
12/12/2020 7:45:00 AM 3.11 37.598 0.058 6.49 2.31 12.64
12/12/2020 8:00:00 AM 3.12 37.616 0.058 6.48 2.27 12.65
12/12/2020 8:15:00 AM 3.13 37.634 0.058 6.51 2.2 12.69
12/12/2020 8:30:00 AM 3.14 37.652 0.058 6.52 2.15 12.73
12/12/2020 8:45:00 AM 3.17 37.706 0.058 6.53 2.21 12.77
12/12/2020 9:00:00 AM 3.2 37.76 0.058 6.54 2.12 12.79
12/12/2020 9:15:00 AM 3.25 37.85 0.058 6.56 2.12 12.82
12/12/2020 9:30:00 AM 3.3 37.94 0.058 6.57 2.07 12.86
12/12/2020 9:45:00 AM 3.34 38.012 0.058 6.59 2.04 12.88
12/12/2020 10:00:00 AM 3.36 38.048 0.058 6.57 2.1 12.88
12/12/2020 10:15:00 AM 3.42 38.156 0.058 6.61 2.08 12.9
12/12/2020 10:30:00 AM 3.55 38.39 0.058 6.62 2.05 12.92
12/12/2020 10:45:00 AM 3.63 38.534 0.058 6.63 2.04 12.92
12/12/2020 11:00:00 AM 3.7 38.66 0.057 6.64 1.97 12.91
12/12/2020 11:15:00 AM 3.78 38.804 0.057 6.65 1.99 12.9
12/12/2020 11:30:00 AM 3.87 38.966 0.057 6.65 2.01 12.89
12/12/2020 11:45:00 AM 3.97 39.146 0.057 6.66 1.98 12.87
12/12/2020 12:00:00 PM 4.07 39.326 0.057 6.66 1.99 12.85
12/12/2020 12:15:00 PM 4.15 39.47 0.057 6.68 2.01 12.83
12/12/2020 12:30:00 PM 4.24 39.632 0.057 6.68 2.05 12.81
12/12/2020 12:45:00 PM 4.37 39.866 0.057 6.67 2.04 12.79
12/12/2020 1:00:00 PM 4.51 40.118 0.057 6.69 2.07 12.74
12/12/2020 1:15:00 PM 4.6 40.28 0.057 6.7 2.02 12.68
12/12/2020 1:30:00 PM 4.68 40.424 0.057 6.67 2 12.62
12/12/2020 1:45:00 PM 4.76 40.568 0.057 6.7 1.97 12.58
12/12/2020 2:00:00 PM 4.86 40.748 0.057 6.68 2 12.54
12/12/2020 2:15:00 PM 4.97 40.946 0.056 6.69 2.04 12.5
12/12/2020 2:30:00 PM 5.05 41.09 0.056 6.69 2.01 12.46
12/12/2020 2:45:00 PM 5.09 41.162 0.057 6.68 2 12.38
12/12/2020 3:00:00 PM 5.13 41.234 0.057 6.65 2.02 12.32
12/12/2020 3:15:00 PM 5.16 41.288 0.057 6.64 2.01 12.3
12/12/2020 3:30:00 PM 5.19 41.342 0.057 6.64 2.07 12.25
12/12/2020 3:45:00 PM 5.23 41.414 0.057 6.63 2.01 12.23
12/12/2020 4:00:00 PM 5.25 41.45 0.057 6.64 2.06 12.2
12/12/2020 4:15:00 PM 5.28 41.504 0.057 6.6 2.11 12.13
12/12/2020 4:30:00 PM 5.3 41.54 0.057 6.6 2.09 12.07
12/12/2020 4:45:00 PM 5.33 41.594 0.057 6.58 2.13 12
12/12/2020 5:00:00 PM 5.36 41.648 0.057 6.55 2.11 11.96
12/12/2020 5:15:00 PM 5.38 41.684 0.057 6.55 2.3 11.92
12/12/2020 5:30:00 PM 5.4 41.72 0.057 6.54 2.22 11.9
12/12/2020 5:45:00 PM 5.43 41.774 0.057 6.53 2.2 11.87
12/12/2020 6:00:00 PM 5.45 41.81 0.057 6.52 2.15 11.85
12/12/2020 6:15:00 PM 5.48 41.864 0.057 6.51 2.2 11.82
12/12/2020 6:30:00 PM 5.5 41.9 0.057 6.52 2.27 11.81
12/12/2020 6:45:00 PM 5.51 41.918 0.057 6.5 2.24 11.79
12/12/2020 7:00:00 PM 5.53 41.954 0.057 6.51 2.21 11.77
12/12/2020 7:15:00 PM 5.53 41.954 0.057 6.5 2.22 11.77
12/12/2020 7:30:00 PM 5.53 41.954 0.057 6.5 2.24 11.76
12/12/2020 7:45:00 PM 5.52 41.936 0.057 6.5 2.2 11.76
12/12/2020 8:00:00 PM 5.51 41.918 0.057 6.49 2.3 11.76
12/12/2020 8:15:00 PM 5.51 41.918 0.058 6.49 2.3 11.76
12/12/2020 8:30:00 PM 5.52 41.936 0.058 6.48 2.19 11.76
12/12/2020 8:45:00 PM 5.53 41.954 0.058 6.5 2.22 11.75
12/12/2020 9:00:00 PM 5.53 41.954 0.058 6.49 2.17 11.75
12/12/2020 9:15:00 PM 5.55 41.99 0.058 6.5 2.19 11.75
12/12/2020 9:30:00 PM 5.55 41.99 0.058 6.49 2.32 11.75
12/12/2020 9:45:00 PM 5.56 42.008 0.058 6.5 2.25 11.74
12/12/2020 10:00:00 PM 5.57 42.026 0.058 6.5 2.25 11.73
12/12/2020 10:15:00 PM 5.59 42.062 0.058 6.5 2.21 11.73
12/12/2020 10:30:00 PM 5.61 42.098 0.058 6.46 2.13 11.73
12/12/2020 10:45:00 PM 5.61 42.098 0.058 6.48 2.17 11.73
12/12/2020 11:00:00 PM 5.62 42.116 0.058 6.48 2.26 11.72
12/12/2020 11:15:00 PM 5.62 42.116 0.058 6.48 2.2 11.72
12/12/2020 11:30:00 PM 5.6 42.08 0.059 6.48 2.22 11.72
12/12/2020 11:45:00 PM 5.58 42.044 0.059 6.47 2.34 11.71
12/13/2020 12:00:00 AM 5.59 42.062 0.059 6.49 2.2 11.72
12/13/2020 12:15:00 AM 5.61 42.098 0.059 6.5 2.22 11.71
12/13/2020 12:30:00 AM 5.63 42.134 0.059 6.48 2.15 11.7
12/13/2020 12:45:00 AM 5.65 42.17 0.059 6.49 2.33 11.7
12/13/2020 1:00:00 AM 5.67 42.206 0.059 6.5 2.23 11.7
12/13/2020 1:15:00 AM 5.71 42.278 0.059 6.5 2.22 11.69
12/13/2020 1:30:00 AM 5.77 42.386 0.058 6.5 2.24 11.68
12/13/2020 1:45:00 AM 5.8 42.44 0.058 6.5 2.36 11.67
12/13/2020 2:00:00 AM 5.81 42.458 0.058 6.48 2.26 11.66
12/13/2020 2:15:00 AM 5.83 42.494 0.058 6.51 2.26 11.66
12/13/2020 2:30:00 AM 5.83 42.494 0.058 6.49 2.24 11.65
12/13/2020 2:45:00 AM 5.83 42.494 0.058 6.5 2.17 11.65
12/13/2020 3:00:00 AM 5.83 42.494 0.058 6.5 2.24 11.64
12/13/2020 3:15:00 AM 5.84 42.512 0.059 6.5 2.47 11.63
12/13/2020 3:30:00 AM 5.85 42.53 0.059 6.5 2.54 11.63
12/13/2020 3:45:00 AM 5.84 42.512 0.059 6.51 2.52 11.62
12/13/2020 4:00:00 AM 5.85 42.53 0.059 6.5 2.6 11.63
12/13/2020 4:15:00 AM 5.83 42.494 0.059 6.5 2.56 11.63
12/13/2020 4:30:00 AM 5.8 42.44 0.059 6.51 2.48 11.64
12/13/2020 4:45:00 AM 5.77 42.386 0.059 6.51 2.33 11.64
12/13/2020 5:00:00 AM 5.74 42.332 0.059 6.47 2.61 11.65
12/13/2020 5:15:00 AM 5.73 42.314 0.059 6.49 2.47 11.66
12/13/2020 5:30:00 AM 5.74 42.332 0.059 6.49 2.63 11.67
12/13/2020 5:45:00 AM 5.74 42.332 0.059 6.5 2.56 11.67
12/13/2020 6:00:00 AM 5.74 42.332 0.059 6.49 2.54 11.67
12/13/2020 6:15:00 AM 5.73 42.314 0.059 6.51 2.76 11.68
12/13/2020 6:30:00 AM 5.72 42.296 0.059 6.48 2.68 11.69
12/13/2020 6:45:00 AM 5.71 42.278 0.059 6.5 2.74 11.7
12/13/2020 7:00:00 AM 5.71 42.278 0.059 6.51 2.72 11.7
12/13/2020 7:15:00 AM 5.7 42.26 0.059 6.51 2.52 11.71
12/13/2020 7:30:00 AM 5.69 42.242 0.059 6.51 2.31 11.72
12/13/2020 7:45:00 AM 5.68 42.224 0.059 6.49 2.37 11.72
12/13/2020 8:00:00 AM 5.67 42.206 0.059 6.51 2.24 11.74
12/13/2020 8:15:00 AM 5.67 42.206 0.059 6.52 2.23 11.75
12/13/2020 8:30:00 AM 5.67 42.206 0.059 6.52 2.2 11.78
12/13/2020 8:45:00 AM 5.68 42.224 0.059 6.53 2.22 11.81
12/13/2020 9:00:00 AM 5.68 42.224 0.059 6.54 2.19 11.87
12/13/2020 9:15:00 AM 5.69 42.242 0.059 6.56 2.17 11.93
12/13/2020 9:30:00 AM 5.72 42.296 0.059 6.58 2.17 12
12/13/2020 9:45:00 AM 5.76 42.368 0.059 6.6 2.19 12.07
12/13/2020 10:00:00 AM 5.77 42.386 0.058 6.61 2.22 12.08
12/13/2020 10:15:00 AM 5.77 42.386 0.058 6.59 2.19 12.09
12/13/2020 10:30:00 AM 5.8 42.44 0.058 6.64 2.17 12.13
12/13/2020 10:45:00 AM 5.83 42.494 0.058 6.65 2.16 12.16
12/13/2020 11:00:00 AM 5.82 42.476 0.058 6.65 2.17 12.14
12/13/2020 11:15:00 AM 5.82 42.476 0.058 6.65 2.08 12.13
12/13/2020 11:30:00 AM 5.86 42.548 0.058 6.66 2.14 12.2
12/13/2020 11:45:00 AM 5.91 42.638 0.058 6.69 2.09 12.24
12/13/2020 12:00:00 PM 5.94 42.692 0.058 6.67 2.15 12.23
12/13/2020 12:15:00 PM 5.96 42.728 0.057 6.69 2.15 12.23
12/13/2020 12:30:00 PM 6.02 42.836 0.057 6.71 2.13 12.25
12/13/2020 12:45:00 PM 6.06 42.908 0.057 6.69 2.13 12.24
12/13/2020 1:00:00 PM 6.06 42.908 0.057 6.72 2.19 12.22
12/13/2020 1:15:00 PM 6.06 42.908 0.057 6.7 2.22 12.22
12/13/2020 1:30:00 PM 6.07 42.926 0.057 6.71 2.23 12.2
12/13/2020 1:45:00 PM 6.12 43.016 0.057 6.7 2.25 12.21
12/13/2020 2:00:00 PM 6.12 43.016 0.057 6.73 2.21 12.18
12/13/2020 2:15:00 PM 6.14 43.052 0.057 6.71 2.24 12.21
12/13/2020 2:30:00 PM 6.15 43.07 0.057 6.72 2.22 12.21
12/13/2020 2:45:00 PM 6.13 43.034 0.057 6.73 2.18 12.19
12/13/2020 3:00:00 PM 6.1 42.98 0.057 6.72 2.14 12.17
12/13/2020 3:15:00 PM 6.05 42.89 0.057 6.7 2.23 12.1
12/13/2020 3:30:00 PM 6.03 42.854 0.057 6.69 2.22 12.1
12/13/2020 3:45:00 PM 6.01 42.818 0.057 6.69 2.14 12.12
12/13/2020 4:00:00 PM 5.98 42.764 0.057 6.67 2.18 12.05
12/13/2020 4:15:00 PM 5.94 42.692 0.057 6.65 2.28 11.99
12/13/2020 4:30:00 PM 5.9 42.62 0.057 6.64 2.25 11.95
12/13/2020 4:45:00 PM 5.86 42.548 0.058 6.61 2.2 11.92
12/13/2020 5:00:00 PM 5.83 42.494 0.058 6.59 2.25 11.89
12/13/2020 5:15:00 PM 5.79 42.422 0.058 6.59 2.36 11.87
12/13/2020 5:30:00 PM 5.76 42.368 0.058 6.57 2.32 11.86
12/13/2020 5:45:00 PM 5.71 42.278 0.058 6.57 2.27 11.85
12/13/2020 6:00:00 PM 5.67 42.206 0.058 6.55 2.39 11.84
12/13/2020 6:15:00 PM 5.63 42.134 0.058 6.55 2.28 11.84
12/13/2020 6:30:00 PM 5.59 42.062 0.058 6.53 2.35 11.84
12/13/2020 6:45:00 PM 5.55 41.99 0.058 6.55 2.4 11.84
12/13/2020 7:00:00 PM 5.52 41.936 0.058 6.54 2.47 11.85
12/13/2020 7:15:00 PM 5.48 41.864 0.059 6.54 2.31 11.85
12/13/2020 7:30:00 PM 5.45 41.81 0.059 6.53 2.23 11.86
12/13/2020 7:45:00 PM 5.41 41.738 0.059 6.53 2.19 11.87
12/13/2020 8:00:00 PM 5.37 41.666 0.059 6.51 2.37 11.88
12/13/2020 8:15:00 PM 5.33 41.594 0.059 6.53 2.37 11.89
12/13/2020 8:30:00 PM 5.29 41.522 0.059 6.52 2.44 11.89
12/13/2020 8:45:00 PM 5.26 41.468 0.059 6.5 2.45 11.9
12/13/2020 9:00:00 PM 5.23 41.414 0.059 6.51 2.34 11.91
12/13/2020 9:15:00 PM 5.21 41.378 0.059 6.53 2.65 11.92
12/13/2020 9:30:00 PM 5.18 41.324 0.059 6.53 2.84 11.93
12/13/2020 9:45:00 PM 5.15 41.27 0.059 6.52 2.34 11.93
12/13/2020 10:00:00 PM 5.12 41.216 0.059 6.53 2.52 11.94
12/13/2020 10:15:00 PM 5.1 41.18 0.059 6.5 2.52 11.95
12/13/2020 10:30:00 PM 5.07 41.126 0.059 6.52 2.45 11.96
12/13/2020 10:45:00 PM 5.05 41.09 0.059 6.52 2.34 11.97
12/13/2020 11:00:00 PM 5.02 41.036 0.059 6.51 2.36 11.97
12/13/2020 11:15:00 PM 5 41 0.06 6.53 2.27 11.98
12/13/2020 11:30:00 PM 4.97 40.946 0.06 6.52 2.26 11.99
12/13/2020 11:45:00 PM 4.95 40.91 0.06 6.53 2.28 12
12/14/2020 12:00:00 AM 4.93 40.874 0.06 6.52 2.24 12
12/14/2020 12:15:00 AM 4.9 40.82 0.06 6.53 2.27 12.01
12/14/2020 12:30:00 AM 4.88 40.784 0.06 6.52 2.28 12.01
12/14/2020 12:45:00 AM 4.86 40.748 0.06 6.52 2.29 12.01
12/14/2020 1:00:00 AM 4.84 40.712 0.06 6.53 2.24 12.02
12/14/2020 1:15:00 AM 4.81 40.658 0.06 6.53 2.21 12.02
12/14/2020 1:30:00 AM 4.79 40.622 0.06 6.52 2.23 12.02
12/14/2020 1:45:00 AM 4.76 40.568 0.06 6.51 2.22 12.03
12/14/2020 2:00:00 AM 4.74 40.532 0.06 6.53 2.21 12.04
12/14/2020 2:15:00 AM 4.71 40.478 0.06 6.52 2.29 12.05
12/14/2020 2:30:00 AM 4.69 40.442 0.06 6.51 2.28 12.06
12/14/2020 2:45:00 AM 4.66 40.388 0.06 6.53 2.27 12.06
12/14/2020 3:00:00 AM 4.64 40.352 0.06 6.53 2.25 12.07
12/14/2020 3:15:00 AM 4.62 40.316 0.06 6.53 2.25 12.07
12/14/2020 3:30:00 AM 4.59 40.262 0.06 6.52 2.24 12.08
12/14/2020 3:45:00 AM 4.57 40.226 0.06 6.52 2.29 12.08
12/14/2020 4:00:00 AM 4.56 40.208 0.06 6.53 2.33 12.09
12/14/2020 4:15:00 AM 4.54 40.172 0.06 6.53 2.38 12.1
12/14/2020 4:30:00 AM 4.51 40.118 0.06 6.52 2.28 12.1
12/14/2020 4:45:00 AM 4.46 40.028 0.06 6.52 2.27 12.11
12/14/2020 5:00:00 AM 4.39 39.902 0.06 6.5 2.56 12.12
12/14/2020 5:15:00 AM 4.36 39.848 0.06 6.53 2.48 12.13
12/14/2020 5:30:00 AM 4.33 39.794 0.06 6.5 2.68 12.14
12/14/2020 5:45:00 AM 4.31 39.758 0.06 6.53 2.44 12.14
12/14/2020 6:00:00 AM 4.28 39.704 0.06 6.53 2.66 12.16
12/14/2020 6:15:00 AM 4.25 39.65 0.06 6.51 2.56 12.16
12/14/2020 6:30:00 AM 4.23 39.614 0.06 6.53 2.45 12.17
12/14/2020 6:45:00 AM 4.21 39.578 0.06 6.52 2.71 12.18
12/14/2020 7:00:00 AM 4.18 39.524 0.06 6.53 2.6 12.18
12/14/2020 7:15:00 AM 4.14 39.452 0.06 6.52 2.41 12.19
12/14/2020 7:30:00 AM 4.08 39.344 0.06 6.53 2.35 12.19
12/14/2020 7:45:00 AM 4.03 39.254 0.06 6.53 2.34 12.21
12/14/2020 8:00:00 AM 4.01 39.218 0.059 6.54 2.26 12.24
12/14/2020 8:15:00 AM 4.01 39.218 0.059 6.54 2.22 12.27
12/14/2020 8:30:00 AM 4.02 39.236 0.059 6.55 2.24 12.31
12/14/2020 8:45:00 AM 4.02 39.236 0.059 6.56 2.2 12.34
12/14/2020 9:00:00 AM 4.02 39.236 0.059 6.57 2.13 12.38
12/14/2020 9:15:00 AM 4.03 39.254 0.059 6.58 2.13 12.43
12/14/2020 9:30:00 AM 4.03 39.254 0.059 6.57 2.15 12.47
12/14/2020 9:45:00 AM 4.04 39.272 0.059 6.61 2.13 12.49
12/14/2020 10:00:00 AM 4.05 39.29 0.059 6.61 2.13 12.51
12/14/2020 10:15:00 AM 4.07 39.326 0.059 6.62 2.12 12.54
12/14/2020 10:30:00 AM 4.08 39.344 0.059 6.63 2.13 12.56
12/14/2020 10:45:00 AM 4.11 39.398 0.059 6.62 2.12 12.6
12/14/2020 11:00:00 AM 4.15 39.47 0.059 6.66 2.11 12.64
12/14/2020 11:15:00 AM 4.17 39.506 0.059 6.67 2.14 12.65
12/14/2020 11:30:00 AM 4.19 39.542 0.059 6.68 2.11 12.67
12/14/2020 11:45:00 AM 4.21 39.578 0.059 6.69 2.11 12.66
12/14/2020 12:00:00 PM 4.21 39.578 0.059 6.68 2.09 12.65
12/14/2020 12:15:00 PM 4.25 39.65 0.059 6.7 2.05 12.68
12/14/2020 12:30:00 PM 4.3 39.74 0.059 6.69 2.13 12.69
12/14/2020 12:45:00 PM 4.37 39.866 0.059 6.71 2.1 12.71
12/14/2020 1:00:00 PM 4.39 39.902 0.059 6.74 2.12 12.7
12/14/2020 1:15:00 PM 4.39 39.902 0.059 6.72 2.21 12.66
12/14/2020 1:30:00 PM 4.37 39.866 0.059 6.69 2.23 12.6
12/14/2020 1:45:00 PM 4.38 39.884 0.059 6.69 2.19 12.61
12/14/2020 2:00:00 PM 4.38 39.884 0.058 6.71 2.15 12.59
12/14/2020 2:15:00 PM 4.38 39.884 0.058 6.68 2.1 12.58
12/14/2020 2:30:00 PM 4.38 39.884 0.058 6.71 2.12 12.58
12/14/2020 2:45:00 PM 4.41 39.938 0.058 6.7 2.08 12.62
12/14/2020 3:00:00 PM 4.41 39.938 0.058 6.71 2.09 12.55
12/14/2020 3:15:00 PM 4.38 39.884 0.059 6.68 2.1 12.46
12/14/2020 3:30:00 PM 4.35 39.83 0.059 6.64 2.08 12.42
12/14/2020 3:45:00 PM 4.33 39.794 0.059 6.65 2.06 12.39
12/14/2020 4:00:00 PM 4.31 39.758 0.059 6.64 2.11 12.39
12/14/2020 4:15:00 PM 4.29 39.722 0.059 6.63 2.11 12.37
12/14/2020 4:30:00 PM 4.26 39.668 0.059 6.62 2.14 12.35
12/14/2020 4:45:00 PM 4.22 39.596 0.059 6.6 2.16 12.33
12/14/2020 5:00:00 PM 4.18 39.524 0.059 6.6 2.22 12.31
12/14/2020 5:15:00 PM 4.13 39.434 0.059 6.58 2.16 12.3
12/14/2020 5:30:00 PM 4.09 39.362 0.059 6.58 2.2 12.3
12/14/2020 5:45:00 PM 4.04 39.272 0.059 6.57 2.19 12.3
12/14/2020 6:00:00 PM 3.99 39.182 0.059 6.55 2.19 12.31
12/14/2020 6:15:00 PM 3.94 39.092 0.059 6.57 2.23 12.32
12/14/2020 6:30:00 PM 3.88 38.984 0.059 6.56 2.25 12.33
12/14/2020 6:45:00 PM 3.81 38.858 0.059 6.56 2.27 12.34
12/14/2020 7:00:00 PM 3.75 38.75 0.059 6.54 2.22 12.36
12/14/2020 7:15:00 PM 3.68 38.624 0.059 6.55 2.28 12.37
12/14/2020 7:30:00 PM 3.62 38.516 0.06 6.53 2.27 12.39
12/14/2020 7:45:00 PM 3.57 38.426 0.06 6.53 2.25 12.42
12/14/2020 8:00:00 PM 3.54 38.372 0.06 6.56 2.21 12.43
12/14/2020 8:15:00 PM 3.5 38.3 0.06 6.54 2.28 12.45
12/14/2020 8:30:00 PM 3.46 38.228 0.06 6.55 2.22 12.46
12/14/2020 8:45:00 PM 3.42 38.156 0.06 6.55 2.18 12.48
12/14/2020 9:00:00 PM 3.38 38.084 0.06 6.54 2.25 12.5
12/14/2020 9:15:00 PM 3.34 38.012 0.06 6.56 2.25 12.52
12/14/2020 9:30:00 PM 3.3 37.94 0.06 6.55 2.24 12.54
12/14/2020 9:45:00 PM 3.26 37.868 0.06 6.55 2.41 12.55
12/14/2020 10:00:00 PM 3.22 37.796 0.06 6.55 2.43 12.56
12/14/2020 10:15:00 PM 3.2 37.76 0.06 6.56 2.32 12.58
12/14/2020 10:30:00 PM 3.16 37.688 0.06 6.55 2.32 12.59
12/14/2020 10:45:00 PM 3.12 37.616 0.06 6.56 2.37 12.61
12/14/2020 11:00:00 PM 3.07 37.526 0.06 6.55 2.26 12.63
12/14/2020 11:15:00 PM 3.04 37.472 0.06 6.55 2.45 12.64
12/14/2020 11:30:00 PM 2.98 37.364 0.06 6.55 2.36 12.65
12/14/2020 11:45:00 PM 2.92 37.256 0.06 6.55 2.29 12.67
12/15/2020 12:00:00 AM 2.9 37.22 0.06 6.56 2.28 12.69
12/15/2020 12:15:00 AM 2.87 37.166 0.06 6.56 2.29 12.69
12/15/2020 12:30:00 AM 2.85 37.13 0.06 6.55 2.31 12.71
12/15/2020 12:45:00 AM 2.82 37.076 0.06 6.56 2.27 12.73
12/15/2020 1:00:00 AM 2.76 36.968 0.06 6.56 2.22 12.74
12/15/2020 1:15:00 AM 2.7 36.86 0.06 6.56 2.26 12.76
12/15/2020 1:30:00 AM 2.65 36.77 0.06 6.55 2.36 12.78
12/15/2020 1:45:00 AM 2.62 36.716 0.06 6.56 2.22 12.79
12/15/2020 2:00:00 AM 2.6 36.68 0.06 6.54 2.24 12.81
12/15/2020 2:15:00 AM 2.58 36.644 0.06 6.57 2.3 12.82
12/15/2020 2:30:00 AM 2.55 36.59 0.06 6.56 2.34 12.84
12/15/2020 2:45:00 AM 2.5 36.5 0.06 6.56 2.29 12.86
12/15/2020 3:00:00 AM 2.45 36.41 0.06 6.54 2.29 12.88
12/15/2020 3:15:00 AM 2.43 36.374 0.06 6.56 2.35 12.89
12/15/2020 3:30:00 AM 2.4 36.32 0.06 6.56 2.24 12.9
12/15/2020 3:45:00 AM 2.37 36.266 0.06 6.54 2.27 12.91
12/15/2020 4:00:00 AM 2.34 36.212 0.06 6.57 2.22 12.92
12/15/2020 4:15:00 AM 2.32 36.176 0.06 6.54 2.42 12.94
12/15/2020 4:30:00 AM 2.29 36.122 0.06 6.55 2.96 12.94
12/15/2020 4:45:00 AM 2.28 36.104 0.06 6.57 2.79 12.96
12/15/2020 5:00:00 AM 2.25 36.05 0.06 6.57 2.45 12.97
12/15/2020 5:15:00 AM 2.23 36.014 0.06 6.57 2.39 12.98
12/15/2020 5:30:00 AM 2.21 35.978 0.06 6.54 2.39 12.99
12/15/2020 5:45:00 AM 2.2 35.96 0.06 6.56 2.59 13
12/15/2020 6:00:00 AM 2.19 35.942 0.06 6.57 2.62 13
12/15/2020 6:15:00 AM 2.17 35.906 0.06 6.56 2.91 13.01
12/15/2020 6:30:00 AM 2.16 35.888 0.06 6.56 2.64 13.02
12/15/2020 6:45:00 AM 2.14 35.852 0.06 6.55 2.39 13.03
12/15/2020 7:00:00 AM 2.12 35.816 0.06 6.56 2.38 13.04
12/15/2020 7:15:00 AM 2.1 35.78 0.06 6.57 2.42 13.04
12/15/2020 7:30:00 AM 2.09 35.762 0.06 6.55 2.44 13.06
12/15/2020 7:45:00 AM 2.07 35.726 0.06 6.57 3.32 13.08
12/15/2020 8:00:00 AM 2.06 35.708 0.06 6.58 2.68 13.11
12/15/2020 8:15:00 AM 2.06 35.708 0.06 6.59 2.42 13.16
12/15/2020 8:30:00 AM 2.06 35.708 0.06 6.6 2.27 13.22
12/15/2020 8:45:00 AM 2.06 35.708 0.06 6.6 2.18 13.27
12/15/2020 9:00:00 AM 2.06 35.708 0.06 6.63 2.21 13.31
12/15/2020 9:15:00 AM 2.06 35.708 0.06 6.63 2.2 13.35
12/15/2020 9:30:00 AM 2.07 35.726 0.06 6.65 2.17 13.39
12/15/2020 9:45:00 AM 2.1 35.78 0.06 6.66 2.15 13.43
12/15/2020 10:00:00 AM 2.11 35.798 0.06 6.66 2.13 13.46
12/15/2020 10:15:00 AM 2.14 35.852 0.06 6.69 2.15 13.49
12/15/2020 10:30:00 AM 2.17 35.906 0.06 6.69 2.12 13.51
12/15/2020 10:45:00 AM 2.19 35.942 0.06 6.7 2.09 13.52
12/15/2020 11:00:00 AM 2.28 36.104 0.06 6.72 2.08 13.54
12/15/2020 11:15:00 AM 2.33 36.194 0.06 6.71 2.13 13.54
12/15/2020 11:30:00 AM 2.35 36.23 0.06 6.73 2.12 13.54
12/15/2020 11:45:00 AM 2.39 36.302 0.059 6.73 2.1 13.54
12/15/2020 12:00:00 PM 2.45 36.41 0.059 6.73 2.1 13.54
12/15/2020 12:15:00 PM 2.49 36.482 0.059 6.73 2.1 13.53
12/15/2020 12:30:00 PM 2.55 36.59 0.059 6.74 2.12 13.53
12/15/2020 12:45:00 PM 2.57 36.626 0.059 6.75 2.1 13.51
12/15/2020 1:00:00 PM 2.56 36.608 0.059 6.74 2.24 13.5
12/15/2020 1:15:00 PM 2.58 36.644 0.059 6.75 2.4 13.5
12/15/2020 1:30:00 PM 2.62 36.716 0.059 6.74 2.33 13.5
12/15/2020 1:45:00 PM 2.69 36.842 0.059 6.76 2.29 13.49
12/15/2020 2:00:00 PM 2.74 36.932 0.059 6.76 2.22 13.47
12/15/2020 2:15:00 PM 2.78 37.004 0.059 6.76 2.13 13.46
12/15/2020 2:30:00 PM 2.79 37.022 0.059 6.75 2.16 13.44
12/15/2020 2:45:00 PM 2.79 37.022 0.059 6.75 2.14 13.41
12/15/2020 3:00:00 PM 2.76 36.968 0.059 6.73 2.17 13.38
12/15/2020 3:15:00 PM 2.73 36.914 0.059 6.72 2.1 13.36
12/15/2020 3:30:00 PM 2.72 36.896 0.059 6.73 2.13 13.36
12/15/2020 3:45:00 PM 2.69 36.842 0.059 6.73 2.12 13.34
12/15/2020 4:00:00 PM 2.65 36.77 0.059 6.71 2.08 13.3
12/15/2020 4:15:00 PM 2.6 36.68 0.059 6.7 2.11 13.27
12/15/2020 4:30:00 PM 2.54 36.572 0.059 6.67 2.12 13.22
12/15/2020 4:45:00 PM 2.48 36.464 0.059 6.66 2.15 13.18
12/15/2020 5:00:00 PM 2.42 36.356 0.059 6.65 2.13 13.15
12/15/2020 5:15:00 PM 2.37 36.266 0.059 6.64 2.12 13.13
12/15/2020 5:30:00 PM 2.31 36.158 0.059 6.6 2.16 13.13
12/15/2020 5:45:00 PM 2.26 36.068 0.059 6.62 2.17 13.13
12/15/2020 6:00:00 PM 2.21 35.978 0.059 6.61 2.27 13.12
12/15/2020 6:15:00 PM 2.16 35.888 0.059 6.6 2.3 13.11
12/15/2020 6:30:00 PM 2.1 35.78 0.059 6.6 2.41 13.12
12/15/2020 6:45:00 PM 2.05 35.69 0.059 6.59 2.31 13.12
12/15/2020 7:00:00 PM 2.01 35.618 0.06 6.59 2.28 13.13
12/15/2020 7:15:00 PM 1.96 35.528 0.06 6.59 2.25 13.14
12/15/2020 7:30:00 PM 1.92 35.456 0.06 6.58 2.22 13.15
12/15/2020 7:45:00 PM 1.87 35.366 0.06 6.56 2.27 13.16
12/15/2020 8:00:00 PM 1.82 35.276 0.06 6.58 2.26 13.18
12/15/2020 8:15:00 PM 1.77 35.186 0.06 6.56 2.24 13.18
12/15/2020 8:30:00 PM 1.73 35.114 0.06 6.57 2.25 13.2
12/15/2020 8:45:00 PM 1.68 35.024 0.06 6.56 2.27 13.21
12/15/2020 9:00:00 PM 1.63 34.934 0.06 6.58 2.27 13.23
12/15/2020 9:15:00 PM 1.59 34.862 0.06 6.58 2.3 13.24
12/15/2020 9:30:00 PM 1.56 34.808 0.06 6.57 2.33 13.26
12/15/2020 9:45:00 PM 1.55 34.79 0.06 6.56 2.29 13.27
12/15/2020 10:00:00 PM 1.54 34.772 0.06 6.58 2.32 13.27
12/15/2020 10:15:00 PM 1.53 34.754 0.06 6.58 2.28 13.28
12/15/2020 10:30:00 PM 1.51 34.718 0.06 6.57 2.32 13.29
12/15/2020 10:45:00 PM 1.49 34.682 0.06 6.57 2.36 13.3
12/15/2020 11:00:00 PM 1.46 34.628 0.06 6.59 2.49 13.32
12/15/2020 11:15:00 PM 1.43 34.574 0.061 6.57 2.43 13.32
12/15/2020 11:30:00 PM 1.4 34.52 0.061 6.58 2.51 13.33
12/15/2020 11:45:00 PM 1.36 34.448 0.061 6.56 2.41 13.35
12/16/2020 12:00:00 AM 1.34 34.412 0.061 6.58 3.02 13.36
12/16/2020 12:15:00 AM 1.31 34.358 0.061 6.57 2.96 13.37
12/16/2020 12:30:00 AM 1.27 34.286 0.061 6.58 2.68 13.38
12/16/2020 12:45:00 AM 1.22 34.196 0.061 6.55 2.53 13.39
12/16/2020 1:00:00 AM 1.17 34.106 0.061 6.58 4.37 13.41
12/16/2020 1:15:00 AM 1.14 34.052 0.061 6.57 2.43 13.43
12/16/2020 1:30:00 AM 1.1 33.98 0.061 6.59 2.35 13.43
12/16/2020 1:45:00 AM 1.06 33.908 0.061 6.55 2.44 13.44
12/16/2020 2:00:00 AM 1.03 33.854 0.061 6.59 2.35 13.46
12/16/2020 2:15:00 AM 0.99 33.782 0.061 6.58 2.58 13.47
12/16/2020 2:30:00 AM 0.97 33.746 0.061 6.58 2.96 13.49
12/16/2020 2:45:00 AM 0.95 33.71 0.061 6.57 2.64 13.5
12/16/2020 3:00:00 AM 0.93 33.674 0.061 6.58 2.66 13.5
12/16/2020 3:15:00 AM 0.9 33.62 0.061 6.58 2.49 13.52
12/16/2020 3:30:00 AM 0.87 33.566 0.061 6.58 2.49 13.53
12/16/2020 3:45:00 AM 0.84 33.512 0.061 6.58 2.64 13.54
12/16/2020 4:00:00 AM 0.8 33.44 0.061 6.58 2.71 13.56
12/16/2020 4:15:00 AM 0.75 33.35 0.061 6.58 4.44 13.57
12/16/2020 4:30:00 AM 0.71 33.278 0.061 6.56 3.34 13.59
12/16/2020 4:45:00 AM 0.69 33.242 0.061 6.59 3.4 13.59
12/16/2020 5:00:00 AM 0.67 33.206 0.061 6.59 2.86 13.6
12/16/2020 5:15:00 AM 0.66 33.188 0.061 6.56 2.71 13.6
12/16/2020 5:30:00 AM 0.65 33.17 0.061 6.57 2.6 13.61
12/16/2020 5:45:00 AM 0.62 33.116 0.061 6.58 2.82 13.62
12/16/2020 6:00:00 AM 0.6 33.08 0.061 6.58 3.4 13.63
12/16/2020 6:15:00 AM 0.57 33.026 0.061 6.57 2.78 13.64
12/16/2020 6:30:00 AM 0.55 32.99 0.061 6.59 2.57 13.65
12/16/2020 6:45:00 AM 0.53 32.954 0.061 6.58 2.45 13.65
12/16/2020 7:00:00 AM 0.52 32.936 0.061 6.58 2.54 13.67
12/16/2020 7:15:00 AM 0.51 32.918 0.061 6.57 2.57 13.67
12/16/2020 7:30:00 AM 0.49 32.882 0.061 6.59 2.47 13.68
12/16/2020 7:45:00 AM 0.47 32.846 0.061 6.56 2.54 13.7
12/16/2020 8:00:00 AM 0.45 32.81 0.061 6.6 2.37 13.72
12/16/2020 8:15:00 AM 0.44 32.792 0.061 6.57 2.27 13.75
12/16/2020 8:30:00 AM 0.42 32.756 0.061 6.6 2.26 13.8
12/16/2020 8:45:00 AM 0.42 32.756 0.061 6.62 2.24 13.83
12/16/2020 9:00:00 AM 0.44 32.792 0.06 6.61 2.21 13.9
12/16/2020 9:15:00 AM 0.46 32.828 0.06 6.63 2.23 13.94
12/16/2020 9:30:00 AM 0.47 32.846 0.06 6.65 2.23 13.97
12/16/2020 9:45:00 AM 0.48 32.864 0.06 6.66 2.19 13.98
12/16/2020 10:00:00 AM 0.48 32.864 0.06 6.65 2.21 13.98
12/16/2020 10:15:00 AM 0.51 32.918 0.06 6.68 2.19 14.01
12/16/2020 10:30:00 AM 0.54 32.972 0.06 6.68 2.18 14.04
12/16/2020 10:45:00 AM 0.57 33.026 0.06 6.67 2.18 14.05
12/16/2020 11:00:00 AM 0.56 33.008 0.06 6.68 2.15 14.04
12/16/2020 11:15:00 AM 0.55 32.99 0.06 6.68 2.19 14.02
12/16/2020 11:30:00 AM 0.54 32.972 0.06 6.69 2.15 14.02
12/16/2020 11:45:00 AM 0.52 32.936 0.06 6.67 2.16 14.01
12/16/2020 12:00:00 PM 0.45 32.81 0.06 6.68 2.2 13.98
12/16/2020 12:15:00 PM 0.36 32.648 0.06 6.67 2.27 14.01
12/16/2020 12:30:00 PM 0.31 32.558 0.06 6.68 2.22 14.03
12/16/2020 12:45:00 PM 0.3 32.54 0.06 6.69 2.2 14.04
12/16/2020 1:00:00 PM 0.26 32.468 0.059 6.68 2.22 14.03
12/16/2020 1:15:00 PM 0.2 32.36 0.059 6.68 2.18 14.02
12/16/2020 1:30:00 PM 0.19 32.342 0.059 6.68 2.21 14.02
12/16/2020 1:45:00 PM 0.19 32.342 0.059 6.69 2.27 14
12/16/2020 2:00:00 PM 0.18 32.324 0.059 6.68 2.29 13.99
12/16/2020 2:15:00 PM 0.11 32.198 0.059 6.68 2.28 13.97
12/16/2020 2:30:00 PM 0.02 32.036 0.059 6.64 2.32 13.98
12/16/2020 2:45:00 PM -0.04 31.928 0.059 6.66 2.45 14
12/16/2020 3:00:00 PM -0.06 31.892 0.059 6.66 2.41 14.01
12/16/2020 3:15:00 PM -0.06 31.892 0.059 6.66 2.77 14.01
12/16/2020 3:30:00 PM -0.06 31.892 0.059 6.65 2.49 14.01
12/16/2020 3:45:00 PM -0.06 31.892 0.059 6.65 2.54 14.01
12/16/2020 4:00:00 PM -0.06 31.892 0.059 6.65 2.62 14
12/16/2020 4:15:00 PM -0.06 31.892 0.059 6.65 2.73 13.99
12/16/2020 4:30:00 PM -0.06 31.892 0.059 6.62 2.53 13.97
12/16/2020 4:45:00 PM -0.06 31.892 0.059 6.63 2.67 13.95
12/16/2020 5:00:00 PM -0.06 31.892 0.059 6.62 2.78 13.93
12/16/2020 5:15:00 PM -0.06 31.892 0.059 6.62 3.1 13.92
12/16/2020 5:30:00 PM -0.06 31.892 0.059 6.62 2.86 13.92
12/16/2020 5:45:00 PM -0.06 31.892 0.059 6.6 2.97 13.91
12/16/2020 6:00:00 PM -0.06 31.892 0.059 6.61 3 13.9
12/16/2020 6:15:00 PM -0.06 31.892 0.059 6.6 2.89 13.89
12/16/2020 6:30:00 PM -0.06 31.892 0.059 6.58 2.8 13.88
12/16/2020 6:45:00 PM -0.06 31.892 0.059 6.59 2.86 13.86
12/16/2020 7:00:00 PM -0.06 31.892 0.059 6.59 2.88 13.85
12/16/2020 7:15:00 PM -0.06 31.892 0.059 6.57 3.25 13.81
12/16/2020 7:30:00 PM -0.06 31.892 0.059 6.59 2.95 13.8
12/16/2020 7:45:00 PM -0.06 31.892 0.059 6.58 2.85 13.79
12/16/2020 8:00:00 PM -0.06 31.892 0.059 6.58 3.07 13.8
12/16/2020 8:15:00 PM -0.06 31.892 0.06 6.58 3.48 13.8
12/16/2020 8:30:00 PM -0.06 31.892 0.06 6.54 4.15 13.82
12/16/2020 8:45:00 PM -0.06 31.892 0.06 6.56 3.89 13.8
12/16/2020 9:00:00 PM -0.06 31.892 0.06 6.57 3.45 13.78
12/16/2020 9:15:00 PM -0.06 31.892 0.06 6.56 3.18 13.76
12/16/2020 9:30:00 PM -0.06 31.892 0.06 6.56 3.73 13.75
12/16/2020 9:45:00 PM -0.06 31.892 0.06 6.54 3.29 13.74
12/16/2020 10:00:00 PM -0.06 31.892 0.06 6.55 3.34 13.73
12/16/2020 10:15:00 PM -0.06 31.892 0.06 6.55 4.17 13.72
12/16/2020 10:30:00 PM -0.06 31.892 0.06 6.54 3.45 13.72
12/16/2020 10:45:00 PM -0.06 31.892 0.06 6.54 3.3 13.7
12/16/2020 11:00:00 PM -0.06 31.892 0.06 6.52 3 13.7
12/16/2020 11:15:00 PM -0.06 31.892 0.06 6.54 3.22 13.69
12/16/2020 11:30:00 PM -0.06 31.892 0.06 6.52 3.27 13.69
12/16/2020 11:45:00 PM -0.06 31.892 0.06 6.53 3.21 13.68
12/17/2020 12:00:00 AM -0.06 31.892 0.06 6.53 3.08 13.67
12/17/2020 12:15:00 AM -0.06 31.892 0.06 6.54 2.87 13.66
12/17/2020 12:30:00 AM -0.06 31.892 0.06 6.5 3.09 13.66
12/17/2020 12:45:00 AM -0.06 31.892 0.06 6.53 2.92 13.65
12/17/2020 1:00:00 AM -0.06 31.892 0.06 6.52 2.92 13.64
12/17/2020 1:15:00 AM -0.06 31.892 0.06 6.51 3.29 13.63
12/17/2020 1:30:00 AM -0.06 31.892 0.06 6.52 2.83 13.63
12/17/2020 1:45:00 AM -0.06 31.892 0.06 6.49 2.96 13.63
12/17/2020 2:00:00 AM -0.06 31.892 0.061 6.52 2.94 13.62
12/17/2020 2:15:00 AM -0.06 31.892 0.061 6.51 2.87 13.62
12/17/2020 2:30:00 AM -0.06 31.892 0.061 6.51 3 13.61
12/17/2020 2:45:00 AM -0.06 31.892 0.061 6.52 2.83 13.61
12/17/2020 3:00:00 AM -0.06 31.892 0.061 6.5 2.93 13.6
12/17/2020 3:15:00 AM -0.06 31.892 0.061 6.51 3.25 13.6
12/17/2020 3:30:00 AM -0.06 31.892 0.061 6.49 3.14 13.59
12/17/2020 3:45:00 AM -0.06 31.892 0.061 6.5 3.14 13.58
12/17/2020 4:00:00 AM -0.06 31.892 0.061 6.48 3.05 13.58
12/17/2020 4:15:00 AM -0.06 31.892 0.061 6.5 3.04 13.57
12/17/2020 4:30:00 AM -0.06 31.892 0.061 6.5 3.07 13.56
12/17/2020 4:45:00 AM -0.06 31.892 0.061 6.49 3.15 13.55
12/17/2020 5:00:00 AM -0.06 31.892 0.061 6.49 3.37 13.55
12/17/2020 5:15:00 AM -0.06 31.892 0.061 6.47 3.43 13.56
12/17/2020 5:30:00 AM -0.06 31.892 0.061 6.5 3.42 13.57
12/17/2020 5:45:00 AM -0.06 31.892 0.061 6.48 3.36 13.57
12/17/2020 6:00:00 AM -0.06 31.892 0.061 6.5 3.39 13.56
12/17/2020 6:15:00 AM -0.06 31.892 0.061 6.5 3.73 13.57
12/17/2020 6:30:00 AM -0.06 31.892 0.061 6.49 3.16 13.57
12/17/2020 6:45:00 AM -0.06 31.892 0.061 6.51 3.58 13.55
12/17/2020 7:00:00 AM -0.06 31.892 0.061 6.5 3.85 13.55
12/17/2020 7:15:00 AM -0.06 31.892 0.061 6.46 2.79 13.54
12/17/2020 7:30:00 AM -0.06 31.892 0.061 6.5 2.8 13.54
12/17/2020 7:45:00 AM -0.06 31.892 0.061 6.48 2.78 13.54
12/17/2020 8:00:00 AM -0.06 31.892 0.061 6.48 2.71 13.56
12/17/2020 8:15:00 AM -0.06 31.892 0.061 6.49 2.61 13.57
12/17/2020 8:30:00 AM -0.06 31.892 0.061 6.5 2.61 13.59
12/17/2020 8:45:00 AM -0.06 31.892 0.061 6.47 2.6 13.62
12/17/2020 9:00:00 AM -0.06 31.892 0.061 6.51 2.67 13.64
12/17/2020 9:15:00 AM -0.06 31.892 0.061 6.5 2.77 13.67
12/17/2020 9:30:00 AM -0.06 31.892 0.061 6.5 2.57 13.69
12/17/2020 9:45:00 AM -0.06 31.892 0.061 6.5 2.6 13.71
12/17/2020 10:00:00 AM -0.06 31.892 0.061 6.52 2.81 13.73
12/17/2020 10:15:00 AM -0.06 31.892 0.061 6.53 2.66 13.76
12/17/2020 10:30:00 AM -0.06 31.892 0.061 6.54 2.83 13.78
12/17/2020 10:45:00 AM -0.06 31.892 0.06 6.52 2.79 13.8
12/17/2020 11:00:00 AM -0.06 31.892 0.06 6.53 2.77 13.83
12/17/2020 11:15:00 AM -0.06 31.892 0.06 6.54 2.88 13.85
12/17/2020 11:30:00 AM -0.06 31.892 0.06 6.57 2.8 13.86
12/17/2020 11:45:00 AM -0.06 31.892 0.06 6.54 2.91 13.89
12/17/2020 12:00:00 PM -0.06 31.892 0.06 6.57 2.79 13.9
12/17/2020 12:15:00 PM -0.06 31.892 0.059 6.57 2.83 13.91
12/17/2020 12:30:00 PM -0.06 31.892 0.059 6.56 2.84 13.92
12/17/2020 12:45:00 PM -0.06 31.892 0.059 6.58 2.99 13.94
12/17/2020 1:00:00 PM -0.06 31.892 0.059 6.57 2.84 13.94
12/17/2020 1:15:00 PM -0.06 31.892 0.059 6.6 2.78 13.95
12/17/2020 1:30:00 PM -0.06 31.892 0.058 6.59 2.85 13.94
12/17/2020 1:45:00 PM -0.06 31.892 0.058 6.58 2.84 13.95
12/17/2020 2:00:00 PM -0.06 31.892 0.058 6.59 3.23 13.95
12/17/2020 2:15:00 PM -0.06 31.892 0.058 6.58 3.04 13.95
12/17/2020 2:30:00 PM -0.06 31.892 0.058 6.61 2.84 13.95
12/17/2020 2:45:00 PM -0.06 31.892 0.058 6.57 2.96 13.97
12/17/2020 3:00:00 PM -0.06 31.892 0.058 6.6 2.98 13.96
12/17/2020 3:15:00 PM -0.06 31.892 0.058 6.58 2.88 13.96
12/17/2020 3:30:00 PM -0.06 31.892 0.058 6.58 2.86 13.95
12/17/2020 3:45:00 PM -0.06 31.892 0.057 6.6 2.85 13.94
12/17/2020 4:00:00 PM -0.06 31.892 0.057 6.6 2.8 13.92
12/17/2020 4:15:00 PM -0.06 31.892 0.057 6.57 2.82 13.9
12/17/2020 4:30:00 PM -0.06 31.892 0.057 6.58 2.79 13.88
12/17/2020 4:45:00 PM -0.06 31.892 0.057 6.57 2.74 13.86
12/17/2020 5:00:00 PM -0.06 31.892 0.057 6.56 2.76 13.85
12/17/2020 5:15:00 PM -0.06 31.892 0.057 6.56 2.74 13.82
12/17/2020 5:30:00 PM -0.06 31.892 0.057 6.52 2.7 13.81
12/17/2020 5:45:00 PM -0.06 31.892 0.057 6.54 2.73 13.8
12/17/2020 6:00:00 PM -0.06 31.892 0.057 6.53 2.71 13.79
12/17/2020 6:15:00 PM -0.06 31.892 0.057 6.51 2.66 13.78
12/17/2020 6:30:00 PM -0.06 31.892 0.057 6.53 2.67 13.76
12/17/2020 6:45:00 PM -0.06 31.892 0.057 6.5 2.73 13.75
12/17/2020 7:00:00 PM -0.06 31.892 0.057 6.5 2.84 13.74
12/17/2020 7:15:00 PM -0.06 31.892 0.057 6.5 3.12 13.74
12/17/2020 7:30:00 PM -0.06 31.892 0.057 6.51 2.67 13.73
12/17/2020 7:45:00 PM -0.06 31.892 0.057 6.49 2.62 13.73
12/17/2020 8:00:00 PM -0.06 31.892 0.057 6.49 2.63 13.74
12/17/2020 8:15:00 PM -0.06 31.892 0.057 6.5 2.6 13.73
12/17/2020 8:30:00 PM -0.06 31.892 0.057 6.5 2.53 13.73
12/17/2020 8:45:00 PM -0.06 31.892 0.057 6.49 2.51 13.73
12/17/2020 9:00:00 PM -0.06 31.892 0.057 6.49 2.66 13.74
12/17/2020 9:15:00 PM -0.06 31.892 0.057 6.49 2.65 13.75
12/17/2020 9:30:00 PM -0.06 31.892 0.057 6.49 2.47 13.75
12/17/2020 9:45:00 PM -0.06 31.892 0.057 6.49 2.42 13.74
12/17/2020 10:00:00 PM -0.06 31.892 0.057 6.46 2.47 13.75
12/17/2020 10:15:00 PM -0.06 31.892 0.057 6.48 2.6 13.75
12/17/2020 10:30:00 PM -0.06 31.892 0.057 6.5 2.55 13.75
12/17/2020 10:45:00 PM -0.06 31.892 0.057 6.49 2.45 13.74
12/17/2020 11:00:00 PM -0.06 31.892 0.057 6.5 2.41 13.74
12/17/2020 11:15:00 PM -0.06 31.892 0.057 6.49 2.44 13.74
12/17/2020 11:30:00 PM -0.06 31.892 0.057 6.47 2.75 13.74
12/17/2020 11:45:00 PM -0.06 31.892 0.057 6.48 2.55 13.74
12/18/2020 12:00:00 AM -0.06 31.892 0.057 6.5 2.52 13.74
12/18/2020 12:15:00 AM -0.06 31.892 0.057 6.47 2.41 13.74
12/18/2020 12:30:00 AM -0.06 31.892 0.057 6.5 2.39 13.75
12/18/2020 12:45:00 AM -0.06 31.892 0.057 6.5 2.57 13.74
12/18/2020 1:00:00 AM -0.06 31.892 0.057 6.5 3.78 13.74
12/18/2020 1:15:00 AM -0.06 31.892 0.057 6.5 2.85 13.74
12/18/2020 1:30:00 AM -0.06 31.892 0.057 6.51 2.48 13.74
12/18/2020 1:45:00 AM -0.06 31.892 0.057 6.47 2.44 13.75
12/18/2020 2:00:00 AM -0.06 31.892 0.057 6.48 2.42 13.74
12/18/2020 2:15:00 AM -0.06 31.892 0.057 6.5 2.44 13.75
12/18/2020 2:30:00 AM -0.06 31.892 0.057 6.5 3.91 13.75
12/18/2020 2:45:00 AM -0.06 31.892 0.057 6.5 3.05 13.75
12/18/2020 3:00:00 AM -0.06 31.892 0.057 6.47 2.56 13.76
12/18/2020 3:15:00 AM -0.06 31.892 0.057 6.48 2.44 13.76
12/18/2020 3:30:00 AM -0.06 31.892 0.057 6.49 2.38 13.76
12/18/2020 3:45:00 AM -0.06 31.892 0.057 6.5 2.42 13.77
12/18/2020 4:00:00 AM -0.06 31.892 0.057 6.48 2.4 13.76
12/18/2020 4:15:00 AM -0.06 31.892 0.057 6.49 2.4 13.76
12/18/2020 4:30:00 AM -0.06 31.892 0.057 6.51 2.42 13.76
12/18/2020 4:45:00 AM -0.06 31.892 0.057 6.5 2.39 13.77
12/18/2020 5:00:00 AM -0.06 31.892 0.057 6.51 2.38 13.77
12/18/2020 5:15:00 AM -0.06 31.892 0.057 6.48 2.39 13.77
12/18/2020 5:30:00 AM -0.06 31.892 0.057 6.51 2.41 13.78
12/18/2020 5:45:00 AM -0.06 31.892 0.057 6.51 2.44 13.78
12/18/2020 6:00:00 AM -0.06 31.892 0.058 6.5 2.49 13.78
12/18/2020 6:15:00 AM -0.06 31.892 0.058 6.5 2.41 13.79
12/18/2020 6:30:00 AM -0.06 31.892 0.058 6.49 2.41 13.79
12/18/2020 6:45:00 AM -0.06 31.892 0.058 6.51 2.38 13.79
12/18/2020 7:00:00 AM -0.06 31.892 0.058 6.51 2.39 13.79
12/18/2020 7:15:00 AM -0.06 31.892 0.058 6.5 2.39 13.8
12/18/2020 7:30:00 AM -0.06 31.892 0.058 6.49 2.34 13.8
12/18/2020 7:45:00 AM -0.06 31.892 0.058 6.51 2.33 13.81
12/18/2020 8:00:00 AM -0.06 31.892 0.058 6.51 2.36 13.81
12/18/2020 8:15:00 AM -0.06 31.892 0.058 6.51 2.35 13.82
12/18/2020 8:30:00 AM -0.06 31.892 0.058 6.51 2.31 13.84
12/18/2020 8:45:00 AM -0.06 31.892 0.058 6.52 2.34 13.85
12/18/2020 9:00:00 AM -0.06 31.892 0.058 6.52 2.33 13.87
12/18/2020 9:15:00 AM -0.06 31.892 0.058 6.53 2.32 13.89
12/18/2020 9:30:00 AM -0.06 31.892 0.058 6.52 2.33 13.9
12/18/2020 9:45:00 AM -0.06 31.892 0.058 6.53 2.3 13.93
12/18/2020 10:00:00 AM -0.06 31.892 0.058 6.52 2.32 13.95
12/18/2020 10:15:00 AM -0.06 31.892 0.058 6.54 2.28 13.98
12/18/2020 10:30:00 AM -0.06 31.892 0.058 6.55 2.33 14
12/18/2020 10:45:00 AM -0.06 31.892 0.057 6.56 2.33 14.02
12/18/2020 11:00:00 AM -0.06 31.892 0.057 6.55 2.46 14.04
12/18/2020 11:15:00 AM -0.06 31.892 0.057 6.57 2.34 14.05
12/18/2020 11:30:00 AM -0.06 31.892 0.057 6.58 2.37 14.06
12/18/2020 11:45:00 AM -0.06 31.892 0.057 6.58 2.39 14.06
12/18/2020 12:00:00 PM -0.06 31.892 0.057 6.59 2.45 14.06
12/18/2020 12:15:00 PM -0.06 31.892 0.057 6.59 2.44 14.07
12/18/2020 12:30:00 PM -0.06 31.892 0.057 6.6 2.45 14.07
12/18/2020 12:45:00 PM -0.06 31.892 0.057 6.59 2.45 14.06
12/18/2020 1:00:00 PM -0.06 31.892 0.057 6.62 2.66 14.07
12/18/2020 1:15:00 PM -0.06 31.892 0.057 6.61 2.98 14.05
12/18/2020 1:30:00 PM -0.06 31.892 0.057 6.63 3.18 14.07
12/18/2020 1:45:00 PM -0.06 31.892 0.057 6.59 3.88 14.06
12/18/2020 2:00:00 PM 0 32 0.057 6.64 4.95 14.07
12/18/2020 2:15:00 PM 0.05 32.09 0.057 6.6 3.83 14.06
12/18/2020 2:30:00 PM 0.07 32.126 0.057 6.61 3.95 14.06
12/18/2020 2:45:00 PM 0.09 32.162 0.057 6.61 3.5 14.05
12/18/2020 3:00:00 PM 0.1 32.18 0.057 6.62 2.56 14.05
12/18/2020 3:15:00 PM 0.13 32.234 0.057 6.64 2.63 14.04
12/18/2020 3:30:00 PM 0.14 32.252 0.057 6.6 2.65 14.05
12/18/2020 3:45:00 PM 0.13 32.234 0.057 6.61 2.79 14.04
12/18/2020 4:00:00 PM 0.13 32.234 0.057 6.61 2.72 14.03
12/18/2020 4:15:00 PM 0.15 32.27 0.057 6.62 2.71 14.02
12/18/2020 4:30:00 PM 0.14 32.252 0.057 6.59 2.36 14
12/18/2020 4:45:00 PM 0.13 32.234 0.057 6.59 2.22 13.96
12/18/2020 5:00:00 PM 0.12 32.216 0.057 6.59 2.33 13.95
12/18/2020 5:15:00 PM 0.11 32.198 0.057 6.58 2.4 13.95
12/18/2020 5:30:00 PM 0.11 32.198 0.057 6.57 2.69 13.94
12/18/2020 5:45:00 PM 0.09 32.162 0.057 6.54 2.81 13.94
12/18/2020 6:00:00 PM 0.07 32.126 0.057 6.56 2.67 13.94
12/18/2020 6:15:00 PM 0.05 32.09 0.057 6.54 2.62 13.94
12/18/2020 6:30:00 PM 0.03 32.054 0.057 6.54 2.79 13.94
12/18/2020 6:45:00 PM 0.01 32.018 0.057 6.54 2.4 13.94
12/18/2020 7:00:00 PM -0.01 31.982 0.057 6.52 2.57 13.94
12/18/2020 7:15:00 PM -0.03 31.946 0.057 6.54 2.73 13.95
12/18/2020 7:30:00 PM -0.05 31.91 0.057 6.53 2.65 13.95
12/18/2020 7:45:00 PM -0.07 31.874 0.057 6.53 2.7 13.96
12/18/2020 8:00:00 PM -0.09 31.838 0.057 6.5 2.62 13.98
12/18/2020 8:15:00 PM -0.1 31.82 0.057 6.53 2.58 13.99
12/18/2020 8:30:00 PM -0.08 31.856 0.057 6.53 2.54 14
12/18/2020 8:45:00 PM -0.08 31.856 0.058 6.53 2.5 14.01
12/18/2020 9:00:00 PM -0.08 31.856 0.058 6.52 2.49 14.02
12/18/2020 9:15:00 PM -0.07 31.874 0.058 6.53 2.44 14.02
12/18/2020 9:30:00 PM -0.07 31.874 0.058 6.5 2.52 14.03
12/18/2020 9:45:00 PM -0.07 31.874 0.058 6.52 2.65 14.04
12/18/2020 10:00:00 PM -0.07 31.874 0.058 6.49 2.52 14.04
12/18/2020 10:15:00 PM -0.07 31.874 0.058 6.51 3.53 14.04
12/18/2020 10:30:00 PM -0.07 31.874 0.058 6.51 2.96 14.04
12/18/2020 10:45:00 PM -0.07 31.874 0.058 6.52 2.54 14.04
12/18/2020 11:00:00 PM -0.07 31.874 0.058 6.52 2.4 14.04
12/18/2020 11:15:00 PM -0.07 31.874 0.058 6.48 2.46 14.04
12/18/2020 11:30:00 PM -0.07 31.874 0.059 6.51 2.32 14.04
12/18/2020 11:45:00 PM -0.07 31.874 0.059 6.51 2.53 14.04
12/19/2020 12:00:00 AM -0.07 31.874 0.059 6.48 2.43 14.03
12/19/2020 12:15:00 AM -0.07 31.874 0.059 6.51 2.57 14.03
12/19/2020 12:30:00 AM -0.07 31.874 0.059 6.5 2.36 14.03
12/19/2020 12:45:00 AM -0.07 31.874 0.059 6.49 2.47 14.03
12/19/2020 1:00:00 AM -0.07 31.874 0.059 6.5 2.56 14.03
12/19/2020 1:15:00 AM -0.07 31.874 0.059 6.49 2.4 14.03
12/19/2020 1:30:00 AM -0.07 31.874 0.059 6.49 2.48 14.03
12/19/2020 1:45:00 AM -0.07 31.874 0.059 6.48 2.59 14.03
12/19/2020 2:00:00 AM -0.07 31.874 0.059 6.5 2.48 14.03
12/19/2020 2:15:00 AM -0.07 31.874 0.059 6.49 2.54 14.03
12/19/2020 2:30:00 AM -0.07 31.874 0.059 6.48 2.47 14.03
12/19/2020 2:45:00 AM -0.07 31.874 0.06 6.48 2.51 14.02
12/19/2020 3:00:00 AM -0.07 31.874 0.06 6.48 2.35 14.03
12/19/2020 3:15:00 AM -0.07 31.874 0.06 6.5 2.57 14.02
12/19/2020 3:30:00 AM -0.07 31.874 0.06 6.48 2.36 14.02
12/19/2020 3:45:00 AM -0.07 31.874 0.06 6.49 2.51 14.01
12/19/2020 4:00:00 AM -0.07 31.874 0.06 6.48 2.43 14.01
12/19/2020 4:15:00 AM -0.07 31.874 0.06 6.49 2.47 14.01
12/19/2020 4:30:00 AM -0.07 31.874 0.06 6.49 2.44 14
12/19/2020 4:45:00 AM -0.07 31.874 0.06 6.47 2.51 14.01
12/19/2020 5:00:00 AM -0.07 31.874 0.06 6.47 2.46 14
12/19/2020 5:15:00 AM -0.07 31.874 0.06 6.48 2.49 14
12/19/2020 5:30:00 AM -0.07 31.874 0.061 6.48 2.37 14
12/19/2020 5:45:00 AM -0.07 31.874 0.061 6.49 2.42 14
12/19/2020 6:00:00 AM -0.07 31.874 0.061 6.48 2.49 14
12/19/2020 6:15:00 AM -0.07 31.874 0.061 6.49 2.52 14
12/19/2020 6:30:00 AM -0.07 31.874 0.061 6.49 2.6 13.99
12/19/2020 6:45:00 AM -0.07 31.874 0.061 6.49 2.41 13.99
12/19/2020 7:00:00 AM -0.07 31.874 0.061 6.47 2.49 13.98
12/19/2020 7:15:00 AM -0.07 31.874 0.061 6.47 2.57 13.97
12/19/2020 7:30:00 AM -0.06 31.892 0.061 6.47 2.41 13.97
12/19/2020 7:45:00 AM -0.06 31.892 0.061 6.5 2.35 13.97
12/19/2020 8:00:00 AM -0.06 31.892 0.061 6.49 2.34 13.97
12/19/2020 8:15:00 AM -0.06 31.892 0.061 6.49 2.41 13.99
12/19/2020 8:30:00 AM -0.06 31.892 0.061 6.5 2.3 14.01
12/19/2020 8:45:00 AM -0.06 31.892 0.061 6.51 2.37 14.04
12/19/2020 9:00:00 AM -0.06 31.892 0.061 6.51 2.28 14.05
12/19/2020 9:15:00 AM -0.06 31.892 0.061 6.51 2.25 14.07
12/19/2020 9:30:00 AM -0.06 31.892 0.061 6.52 2.43 14.08
12/19/2020 9:45:00 AM -0.06 31.892 0.061 6.51 2.53 14.09
12/19/2020 10:00:00 AM -0.06 31.892 0.061 6.54 2.35 14.1
12/19/2020 10:15:00 AM -0.06 31.892 0.061 6.54 2.29 14.12
12/19/2020 10:30:00 AM -0.06 31.892 0.061 6.54 2.44 14.13
12/19/2020 10:45:00 AM -0.06 31.892 0.061 6.55 2.49 14.14
12/19/2020 11:00:00 AM -0.06 31.892 0.061 6.54 2.31 14.15
12/19/2020 11:15:00 AM -0.06 31.892 0.061 6.56 2.29 14.16
12/19/2020 11:30:00 AM -0.06 31.892 0.06 6.58 2.39 14.17
12/19/2020 11:45:00 AM -0.06 31.892 0.06 6.58 2.57 14.17
12/19/2020 12:00:00 PM -0.06 31.892 0.06 6.56 2.42 14.18
12/19/2020 12:15:00 PM -0.06 31.892 0.06 6.59 2.56 14.18
12/19/2020 12:30:00 PM -0.06 31.892 0.06 6.58 2.47 14.19
12/19/2020 12:45:00 PM -0.06 31.892 0.06 6.57 2.66 14.19
12/19/2020 1:00:00 PM -0.06 31.892 0.06 6.6 2.52 14.19
12/19/2020 1:15:00 PM -0.06 31.892 0.059 6.59 2.7 14.19
12/19/2020 1:30:00 PM -0.06 31.892 0.059 6.6 2.7 14.18
12/19/2020 1:45:00 PM -0.06 31.892 0.059 6.6 2.83 14.18
12/19/2020 2:00:00 PM -0.06 31.892 0.059 6.6 2.74 14.17
12/19/2020 2:15:00 PM -0.06 31.892 0.059 6.61 2.97 14.17
12/19/2020 2:30:00 PM -0.06 31.892 0.059 6.59 2.9 14.17
12/19/2020 2:45:00 PM -0.06 31.892 0.059 6.61 2.75 14.15
12/19/2020 3:00:00 PM -0.06 31.892 0.058 6.61 2.81 14.15
12/19/2020 3:15:00 PM -0.06 31.892 0.058 6.61 2.78 14.14
12/19/2020 3:30:00 PM -0.06 31.892 0.058 6.58 2.79 14.12
12/19/2020 3:45:00 PM -0.06 31.892 0.058 6.6 2.94 14.11
12/19/2020 4:00:00 PM -0.06 31.892 0.058 6.58 2.64 14.08
12/19/2020 4:15:00 PM -0.06 31.892 0.058 6.57 2.65 14.05
12/19/2020 4:30:00 PM -0.06 31.892 0.058 6.59 2.56 14.02
12/19/2020 4:45:00 PM -0.06 31.892 0.058 6.57 2.71 14
12/19/2020 5:00:00 PM -0.06 31.892 0.058 6.56 2.62 13.97
12/19/2020 5:15:00 PM -0.06 31.892 0.058 6.56 3.14 13.95
12/19/2020 5:30:00 PM -0.06 31.892 0.058 6.56 2.63 13.93
12/19/2020 5:45:00 PM -0.06 31.892 0.058 6.54 2.64 13.91
12/19/2020 6:00:00 PM -0.06 31.892 0.058 6.52 2.62 13.89
12/19/2020 6:15:00 PM -0.06 31.892 0.058 6.54 2.59 13.88
12/19/2020 6:30:00 PM -0.06 31.892 0.058 6.52 2.64 13.86
12/19/2020 6:45:00 PM -0.06 31.892 0.058 6.52 2.62 13.85
12/19/2020 7:00:00 PM -0.06 31.892 0.058 6.51 2.7 13.84
12/19/2020 7:15:00 PM -0.06 31.892 0.058 6.49 2.74 13.84
12/19/2020 7:30:00 PM -0.06 31.892 0.058 6.51 2.72 13.83
12/19/2020 7:45:00 PM -0.06 31.892 0.058 6.48 2.73 13.82
12/19/2020 8:00:00 PM -0.06 31.892 0.057 6.48 3.26 13.81
12/19/2020 8:15:00 PM -0.06 31.892 0.057 6.47 2.94 13.8
12/19/2020 8:30:00 PM -0.06 31.892 0.057 6.48 2.9 13.8
12/19/2020 8:45:00 PM -0.06 31.892 0.057 6.45 2.99 13.79
12/19/2020 9:00:00 PM -0.06 31.892 0.057 6.48 2.82 13.79
12/19/2020 9:15:00 PM -0.06 31.892 0.057 6.46 3.28 13.79
12/19/2020 9:30:00 PM -0.06 31.892 0.058 6.43 2.97 13.79
12/19/2020 9:45:00 PM -0.06 31.892 0.058 6.45 2.81 13.78
12/19/2020 10:00:00 PM -0.06 31.892 0.058 6.47 2.97 13.78
12/19/2020 10:15:00 PM -0.06 31.892 0.058 6.48 3.2 13.77
12/19/2020 10:30:00 PM -0.06 31.892 0.058 6.5 3.11 13.78
12/19/2020 10:45:00 PM -0.06 31.892 0.058 6.49 3.27 13.77
12/19/2020 11:00:00 PM -0.06 31.892 0.058 6.49 3.24 13.77
12/19/2020 11:15:00 PM -0.06 31.892 0.058 6.5 2.99 13.77
12/19/2020 11:30:00 PM -0.05 31.91 0.058 6.46 3.18 13.77
12/19/2020 11:45:00 PM -0.05 31.91 0.058 6.48 2.79 13.77
12/20/2020 12:00:00 AM -0.04 31.928 0.058 6.49 3.4 13.77
12/20/2020 12:15:00 AM -0.04 31.928 0.058 6.48 3.18 13.77
12/20/2020 12:30:00 AM -0.03 31.946 0.058 6.48 2.49 13.77
12/20/2020 12:45:00 AM -0.02 31.964 0.058 6.45 2.58 13.76
12/20/2020 1:00:00 AM -0.01 31.982 0.058 6.51 2.45 13.77
12/20/2020 1:15:00 AM -0.01 31.982 0.058 6.48 2.25 13.77
12/20/2020 1:30:00 AM 0 32 0.058 6.5 2.27 13.77
12/20/2020 1:45:00 AM 0 32 0.058 6.49 2.25 13.77
12/20/2020 2:00:00 AM 0.01 32.018 0.058 6.46 2.06 13.77
12/20/2020 2:15:00 AM 0.03 32.054 0.058 6.48 2.09 13.77
12/20/2020 2:30:00 AM 0.03 32.054 0.058 6.48 2.05 13.77
12/20/2020 2:45:00 AM 0.04 32.072 0.058 6.49 2.03 13.77
12/20/2020 3:00:00 AM 0.04 32.072 0.058 6.49 2.11 13.77
12/20/2020 3:15:00 AM 0.04 32.072 0.058 6.48 2.06 13.77
12/20/2020 3:30:00 AM 0.04 32.072 0.058 6.5 2.03 13.77
12/20/2020 3:45:00 AM 0.05 32.09 0.058 6.5 2.1 13.76
12/20/2020 4:00:00 AM 0.04 32.072 0.058 6.5 2.02 13.76
12/20/2020 4:15:00 AM 0.03 32.054 0.058 6.48 1.95 13.77
12/20/2020 4:30:00 AM 0.02 32.036 0.058 6.49 2.01 13.76
12/20/2020 4:45:00 AM 0 32 0.058 6.5 2.08 13.77
12/20/2020 5:00:00 AM 0.02 32.036 0.058 6.5 2.08 13.76
12/20/2020 5:15:00 AM 0.05 32.09 0.058 6.51 2 13.76
12/20/2020 5:30:00 AM 0.06 32.108 0.058 6.5 2.21 13.74
12/20/2020 5:45:00 AM 0.07 32.126 0.058 6.5 2.06 13.75
12/20/2020 6:00:00 AM 0.07 32.126 0.058 6.49 2.09 13.75
12/20/2020 6:15:00 AM 0.06 32.108 0.058 6.51 2.74 13.75
12/20/2020 6:30:00 AM 0.06 32.108 0.058 6.51 2.44 13.75
12/20/2020 6:45:00 AM 0.05 32.09 0.058 6.49 2.12 13.76
12/20/2020 7:00:00 AM 0.04 32.072 0.058 6.49 2.07 13.76
12/20/2020 7:15:00 AM 0.05 32.09 0.058 6.51 1.95 13.75
12/20/2020 7:30:00 AM 0.05 32.09 0.058 6.48 1.97 13.75
12/20/2020 7:45:00 AM 0.05 32.09 0.058 6.49 1.92 13.75
12/20/2020 8:00:00 AM 0.04 32.072 0.058 6.49 1.89 13.75
12/20/2020 8:15:00 AM 0.02 32.036 0.058 6.51 1.85 13.77
12/20/2020 8:30:00 AM 0.02 32.036 0.058 6.51 1.89 13.77
12/20/2020 8:45:00 AM 0.04 32.072 0.058 6.51 1.9 13.79
12/20/2020 9:00:00 AM 0.06 32.108 0.058 6.52 1.87 13.8
12/20/2020 9:15:00 AM 0.07 32.126 0.058 6.52 1.84 13.8
12/20/2020 9:30:00 AM 0.07 32.126 0.058 6.52 1.82 13.82
12/20/2020 9:45:00 AM 0.07 32.126 0.058 6.52 1.83 13.84
12/20/2020 10:00:00 AM 0.07 32.126 0.058 6.54 1.83 13.86
12/20/2020 10:15:00 AM 0.08 32.144 0.058 6.55 1.77 13.89
12/20/2020 10:30:00 AM 0.11 32.198 0.058 6.53 1.77 13.9
12/20/2020 10:45:00 AM 0.14 32.252 0.057 6.56 1.76 13.91
12/20/2020 11:00:00 AM 0.17 32.306 0.057 6.57 1.76 13.91
12/20/2020 11:15:00 AM 0.2 32.36 0.057 6.57 1.81 13.91
12/20/2020 11:30:00 AM 0.22 32.396 0.057 6.56 1.81 13.9
12/20/2020 11:45:00 AM 0.23 32.414 0.057 6.58 1.81 13.89
12/20/2020 12:00:00 PM 0.25 32.45 0.057 6.57 1.78 13.89
12/20/2020 12:15:00 PM 0.28 32.504 0.057 6.58 1.82 13.89
12/20/2020 12:30:00 PM 0.31 32.558 0.057 6.59 1.82 13.88
12/20/2020 12:45:00 PM 0.33 32.594 0.057 6.59 1.81 13.87
12/20/2020 1:00:00 PM 0.35 32.63 0.057 6.59 1.81 13.84
12/20/2020 1:15:00 PM 0.37 32.666 0.057 6.59 1.84 13.82
12/20/2020 1:30:00 PM 0.38 32.684 0.057 6.57 1.77 13.8
12/20/2020 1:45:00 PM 0.39 32.702 0.057 6.59 1.75 13.81
12/20/2020 2:00:00 PM 0.42 32.756 0.057 6.6 1.79 13.8
12/20/2020 2:15:00 PM 0.44 32.792 0.057 6.59 1.8 13.8
12/20/2020 2:30:00 PM 0.45 32.81 0.057 6.58 1.86 13.77
12/20/2020 2:45:00 PM 0.45 32.81 0.057 6.59 1.84 13.75
12/20/2020 3:00:00 PM 0.46 32.828 0.057 6.56 1.84 13.73
12/20/2020 3:15:00 PM 0.47 32.846 0.057 6.59 1.79 13.73
12/20/2020 3:30:00 PM 0.47 32.846 0.057 6.57 1.75 13.71
12/20/2020 3:45:00 PM 0.49 32.882 0.057 6.58 1.88 13.7
12/20/2020 4:00:00 PM 0.5 32.9 0.057 6.57 1.81 13.68
12/20/2020 4:15:00 PM 0.52 32.936 0.057 6.57 1.82 13.65
12/20/2020 4:30:00 PM 0.53 32.954 0.057 6.54 1.79 13.62
12/20/2020 4:45:00 PM 0.52 32.936 0.057 6.55 1.83 13.6
12/20/2020 5:00:00 PM 0.55 32.99 0.057 6.54 1.79 13.58
12/20/2020 5:15:00 PM 0.56 33.008 0.057 6.54 1.81 13.55
12/20/2020 5:30:00 PM 0.57 33.026 0.057 6.53 1.9 13.54
12/20/2020 5:45:00 PM 0.59 33.062 0.057 6.54 2.02 13.52
12/20/2020 6:00:00 PM 0.6 33.08 0.057 6.53 2.03 13.51
12/20/2020 6:15:00 PM 0.61 33.098 0.057 6.53 2.02 13.5
12/20/2020 6:30:00 PM 0.64 33.152 0.057 6.5 1.99 13.49
12/20/2020 6:45:00 PM 0.65 33.17 0.057 6.51 1.99 13.47
12/20/2020 7:00:00 PM 0.67 33.206 0.057 6.52 2 13.46
12/20/2020 7:15:00 PM 0.69 33.242 0.057 6.49 1.93 13.46
12/20/2020 7:30:00 PM 0.71 33.278 0.057 6.5 2.03 13.43
12/20/2020 7:45:00 PM 0.73 33.314 0.057 6.52 2 13.42
12/20/2020 8:00:00 PM 0.76 33.368 0.057 6.51 1.9 13.4
12/20/2020 8:15:00 PM 0.78 33.404 0.057 6.5 1.95 13.41
12/20/2020 8:30:00 PM 0.8 33.44 0.057 6.51 1.9 13.38
12/20/2020 8:45:00 PM 0.84 33.512 0.057 6.51 1.92 13.37
12/20/2020 9:00:00 PM 0.87 33.566 0.057 6.51 1.91 13.36
12/20/2020 9:15:00 PM 0.89 33.602 0.057 6.51 2 13.35
12/20/2020 9:30:00 PM 0.92 33.656 0.057 6.51 1.95 13.33
12/20/2020 9:45:00 PM 0.95 33.71 0.057 6.49 1.94 13.32
12/20/2020 10:00:00 PM 0.98 33.764 0.057 6.51 2.08 13.31
12/20/2020 10:15:00 PM 1 33.8 0.057 6.51 1.98 13.3
12/20/2020 10:30:00 PM 1.03 33.854 0.057 6.51 1.98 13.29
12/20/2020 10:45:00 PM 1.07 33.926 0.057 6.5 1.95 13.27
12/20/2020 11:00:00 PM 1.1 33.98 0.057 6.5 1.93 13.27
12/20/2020 11:15:00 PM 1.11 33.998 0.057 6.51 1.9 13.25
12/20/2020 11:30:00 PM 1.15 34.07 0.057 6.48 1.87 13.24
12/20/2020 11:45:00 PM 1.18 34.124 0.057 6.51 1.92 13.23
12/21/2020 12:00:00 AM 1.2 34.16 0.057 6.51 1.95 13.22
12/21/2020 12:15:00 AM 1.23 34.214 0.057 6.49 1.87 13.21
12/21/2020 12:30:00 AM 1.24 34.232 0.058 6.52 1.95 13.2
12/21/2020 12:45:00 AM 1.27 34.286 0.058 6.5 1.9 13.18
12/21/2020 1:00:00 AM 1.28 34.304 0.058 6.48 1.87 13.18
12/21/2020 1:15:00 AM 1.3 34.34 0.058 6.51 1.91 13.17
12/21/2020 1:30:00 AM 1.32 34.376 0.058 6.5 1.86 13.16
12/21/2020 1:45:00 AM 1.33 34.394 0.058 6.49 1.9 13.16
12/21/2020 2:00:00 AM 1.35 34.43 0.058 6.5 1.93 13.15
12/21/2020 2:15:00 AM 1.37 34.466 0.058 6.49 1.9 13.14
12/21/2020 2:30:00 AM 1.37 34.466 0.058 6.5 1.99 13.14
12/21/2020 2:45:00 AM 1.39 34.502 0.058 6.5 1.9 13.13
12/21/2020 3:00:00 AM 1.41 34.538 0.058 6.5 1.91 13.13
12/21/2020 3:15:00 AM 1.43 34.574 0.058 6.5 1.93 13.13
12/21/2020 3:30:00 AM 1.43 34.574 0.058 6.5 1.96 13.12
12/21/2020 3:45:00 AM 1.42 34.556 0.058 6.47 2.03 13.12
12/21/2020 4:00:00 AM 1.42 34.556 0.058 6.48 1.93 13.12
12/21/2020 4:15:00 AM 1.44 34.592 0.058 6.5 1.98 13.11
12/21/2020 4:30:00 AM 1.45 34.61 0.058 6.49 2.11 13.1
12/21/2020 4:45:00 AM 1.44 34.592 0.058 6.49 2.03 13.1
12/21/2020 5:00:00 AM 1.45 34.61 0.058 6.5 1.91 13.1
12/21/2020 5:15:00 AM 1.46 34.628 0.058 6.5 1.9 13.1
12/21/2020 5:30:00 AM 1.48 34.664 0.058 6.5 1.96 13.1
12/21/2020 5:45:00 AM 1.5 34.7 0.058 6.5 1.97 13.09
12/21/2020 6:00:00 AM 1.51 34.718 0.058 6.5 2.07 13.09
12/21/2020 6:15:00 AM 1.52 34.736 0.058 6.5 2.16 13.09
12/21/2020 6:30:00 AM 1.53 34.754 0.058 6.5 2.09 13.09
12/21/2020 6:45:00 AM 1.53 34.754 0.058 6.5 1.96 13.08
12/21/2020 7:00:00 AM 1.54 34.772 0.058 6.5 1.98 13.08
12/21/2020 7:15:00 AM 1.55 34.79 0.058 6.48 1.91 13.09
12/21/2020 7:30:00 AM 1.56 34.808 0.058 6.49 1.85 13.08
12/21/2020 7:45:00 AM 1.57 34.826 0.058 6.51 1.81 13.08
12/21/2020 8:00:00 AM 1.59 34.862 0.058 6.5 1.83 13.09
12/21/2020 8:15:00 AM 1.61 34.898 0.058 6.51 1.88 13.11
12/21/2020 8:30:00 AM 1.63 34.934 0.058 6.51 1.85 13.13
12/21/2020 8:45:00 AM 1.66 34.988 0.058 6.51 1.86 13.15
12/21/2020 9:00:00 AM 1.7 35.06 0.058 6.54 1.81 13.17
12/21/2020 9:15:00 AM 1.74 35.132 0.058 6.54 1.81 13.19
12/21/2020 9:30:00 AM 1.77 35.186 0.058 6.53 1.77 13.18
12/21/2020 9:45:00 AM 1.81 35.258 0.058 6.56 1.79 13.19
12/21/2020 10:00:00 AM 1.85 35.33 0.058 6.52 1.77 13.2
12/21/2020 10:15:00 AM 1.88 35.384 0.058 6.57 1.82 13.2
12/21/2020 10:30:00 AM 1.9 35.42 0.058 6.56 1.78 13.19
12/21/2020 10:45:00 AM 1.93 35.474 0.058 6.55 1.75 13.2
12/21/2020 11:00:00 AM 1.97 35.546 0.058 6.58 1.77 13.21
12/21/2020 11:15:00 AM 2.01 35.618 0.057 6.58 1.77 13.21
12/21/2020 11:30:00 AM 2.06 35.708 0.057 6.56 1.8 13.22
12/21/2020 11:45:00 AM 2.12 35.816 0.057 6.6 1.73 13.21
12/21/2020 12:00:00 PM 2.17 35.906 0.057 6.6 1.81 13.2
12/21/2020 12:15:00 PM 2.19 35.942 0.057 6.61 1.81 13.18
12/21/2020 12:30:00 PM 2.21 35.978 0.057 6.6 1.77 13.16
12/21/2020 12:45:00 PM 2.24 36.032 0.057 6.61 1.82 13.14
12/21/2020 1:00:00 PM 2.26 36.068 0.057 6.61 1.77 13.13
12/21/2020 1:15:00 PM 2.33 36.194 0.057 6.6 1.78 13.14
12/21/2020 1:30:00 PM 2.38 36.284 0.057 6.62 1.79 13.13
12/21/2020 1:45:00 PM 2.43 36.374 0.057 6.62 1.78 13.13
12/21/2020 2:00:00 PM 2.46 36.428 0.057 6.62 1.87 13.12
12/21/2020 2:15:00 PM 2.49 36.482 0.057 6.63 1.84 13.11
12/21/2020 2:30:00 PM 2.53 36.554 0.057 6.61 1.86 13.1
12/21/2020 2:45:00 PM 2.55 36.59 0.057 6.63 1.8 13.08
12/21/2020 3:00:00 PM 2.56 36.608 0.057 6.61 1.85 13.06
12/21/2020 3:15:00 PM 2.55 36.59 0.057 6.62 1.8 13.03
12/21/2020 3:30:00 PM 2.55 36.59 0.057 6.62 1.85 12.99
12/21/2020 3:45:00 PM 2.55 36.59 0.057 6.6 1.79 12.95
12/21/2020 4:00:00 PM 2.57 36.626 0.057 6.58 1.85 12.92
12/21/2020 4:15:00 PM 2.57 36.626 0.057 6.59 1.79 12.9
12/21/2020 4:30:00 PM 2.57 36.626 0.057 6.56 1.79 12.87
12/21/2020 4:45:00 PM 2.56 36.608 0.057 6.55 1.83 12.84
12/21/2020 5:00:00 PM 2.55 36.59 0.057 6.56 1.88 12.81
12/21/2020 5:15:00 PM 2.55 36.59 0.057 6.54 1.91 12.79
12/21/2020 5:30:00 PM 2.56 36.608 0.057 6.53 1.89 12.77
12/21/2020 5:45:00 PM 2.56 36.608 0.057 6.54 1.95 12.75
12/21/2020 6:00:00 PM 2.55 36.59 0.057 6.53 1.92 12.74
12/21/2020 6:15:00 PM 2.55 36.59 0.057 6.53 2.04 12.73
12/21/2020 6:30:00 PM 2.56 36.608 0.057 6.53 1.92 12.72
12/21/2020 6:45:00 PM 2.56 36.608 0.057 6.52 1.85 12.71
12/21/2020 7:00:00 PM 2.56 36.608 0.057 6.51 1.86 12.7
12/21/2020 7:15:00 PM 2.55 36.59 0.057 6.5 1.9 12.7
12/21/2020 7:30:00 PM 2.54 36.572 0.057 6.51 1.88 12.7
12/21/2020 7:45:00 PM 2.56 36.608 0.057 6.52 1.8 12.69
12/21/2020 8:00:00 PM 2.56 36.608 0.057 6.51 1.9 12.69
12/21/2020 8:15:00 PM 2.57 36.626 0.057 6.51 1.89 12.68
12/21/2020 8:30:00 PM 2.57 36.626 0.057 6.5 1.89 12.68
12/21/2020 8:45:00 PM 2.57 36.626 0.057 6.48 1.86 12.68
12/21/2020 9:00:00 PM 2.57 36.626 0.057 6.49 1.85 12.67
12/21/2020 9:15:00 PM 2.58 36.644 0.057 6.51 1.91 12.66
12/21/2020 9:30:00 PM 2.59 36.662 0.057 6.5 1.95 12.66
12/21/2020 9:45:00 PM 2.6 36.68 0.057 6.5 1.91 12.66
12/21/2020 10:00:00 PM 2.6 36.68 0.057 6.5 1.84 12.65
12/21/2020 10:15:00 PM 2.6 36.68 0.057 6.48 1.95 12.65
12/21/2020 10:30:00 PM 2.6 36.68 0.057 6.51 1.9 12.65
12/21/2020 10:45:00 PM 2.6 36.68 0.057 6.47 1.88 12.65
12/21/2020 11:00:00 PM 2.61 36.698 0.058 6.51 1.91 12.65
12/21/2020 11:15:00 PM 2.61 36.698 0.058 6.47 1.9 12.65
12/21/2020 11:30:00 PM 2.62 36.716 0.058 6.5 1.95 12.64
12/21/2020 11:45:00 PM 2.61 36.698 0.058 6.47 1.95 12.64
12/22/2020 12:00:00 AM 2.61 36.698 0.058 6.5 1.88 12.64
12/22/2020 12:15:00 AM 2.61 36.698 0.058 6.5 1.93 12.64
12/22/2020 12:30:00 AM 2.62 36.716 0.058 6.49 1.93 12.64
12/22/2020 12:45:00 AM 2.61 36.698 0.058 6.5 1.97 12.63
12/22/2020 1:00:00 AM 2.6 36.68 0.058 6.49 1.92 12.63
12/22/2020 1:15:00 AM 2.61 36.698 0.058 6.48 1.89 12.64
12/22/2020 1:30:00 AM 2.61 36.698 0.058 6.5 1.93 12.63
12/22/2020 1:45:00 AM 2.62 36.716 0.058 6.49 1.92 12.64
12/22/2020 2:00:00 AM 2.62 36.716 0.058 6.49 1.94 12.63
12/22/2020 2:15:00 AM 2.62 36.716 0.058 6.5 1.98 12.63
12/22/2020 2:30:00 AM 2.61 36.698 0.058 6.49 1.92 12.63
12/22/2020 2:45:00 AM 2.58 36.644 0.058 6.49 1.92 12.64
12/22/2020 3:00:00 AM 2.56 36.608 0.058 6.49 1.9 12.64
12/22/2020 3:15:00 AM 2.54 36.572 0.058 6.49 1.9 12.65
12/22/2020 3:30:00 AM 2.55 36.59 0.058 6.49 1.87 12.65
12/22/2020 3:45:00 AM 2.55 36.59 0.058 6.47 1.95 12.65
12/22/2020 4:00:00 AM 2.54 36.572 0.058 6.5 1.96 12.65
12/22/2020 4:15:00 AM 2.52 36.536 0.058 6.49 1.9 12.66
12/22/2020 4:30:00 AM 2.5 36.5 0.058 6.49 1.93 12.66
12/22/2020 4:45:00 AM 2.5 36.5 0.058 6.48 1.93 12.67
12/22/2020 5:00:00 AM 2.5 36.5 0.058 6.5 1.96 12.67
12/22/2020 5:15:00 AM 2.49 36.482 0.058 6.5 2.01 12.68
12/22/2020 5:30:00 AM 2.48 36.464 0.058 6.49 2.06 12.68
12/22/2020 5:45:00 AM 2.48 36.464 0.058 6.49 1.99 12.69
12/22/2020 6:00:00 AM 2.48 36.464 0.058 6.49 1.98 12.69
12/22/2020 6:15:00 AM 2.48 36.464 0.058 6.49 2 12.7
12/22/2020 6:30:00 AM 2.49 36.482 0.058 6.47 2.1 12.7
12/22/2020 6:45:00 AM 2.49 36.482 0.058 6.5 2.01 12.71
12/22/2020 7:00:00 AM 2.5 36.5 0.058 6.46 1.96 12.71
12/22/2020 7:15:00 AM 2.5 36.5 0.058 6.5 1.98 12.71
12/22/2020 7:30:00 AM 2.5 36.5 0.058 6.49 1.97 12.72
12/22/2020 7:45:00 AM 2.51 36.518 0.058 6.49 1.94 12.73
12/22/2020 8:00:00 AM 2.52 36.536 0.058 6.49 1.91 12.74
12/22/2020 8:15:00 AM 2.52 36.536 0.058 6.48 1.84 12.76
12/22/2020 8:30:00 AM 2.53 36.554 0.058 6.51 1.92 12.79
12/22/2020 8:45:00 AM 2.54 36.572 0.058 6.51 1.87 12.81
12/22/2020 9:00:00 AM 2.56 36.608 0.058 6.52 1.91 12.84
12/22/2020 9:15:00 AM 2.57 36.626 0.058 6.53 1.88 12.86
12/22/2020 9:30:00 AM 2.6 36.68 0.058 6.55 1.86 12.9
12/22/2020 9:45:00 AM 2.62 36.716 0.058 6.55 1.86 12.95
12/22/2020 10:00:00 AM 2.66 36.788 0.058 6.55 1.9 12.98
12/22/2020 10:15:00 AM 2.68 36.824 0.058 6.56 1.83 12.99
12/22/2020 10:30:00 AM 2.69 36.842 0.058 6.57 1.8 12.99
12/22/2020 10:45:00 AM 2.73 36.914 0.058 6.6 1.85 13
12/22/2020 11:00:00 AM 2.76 36.968 0.057 6.59 1.81 13.02
12/22/2020 11:15:00 AM 2.83 37.094 0.057 6.62 1.81 13.03
12/22/2020 11:30:00 AM 2.91 37.238 0.057 6.62 1.8 13.05
12/22/2020 11:45:00 AM 2.9 37.22 0.057 6.62 1.85 13.03
12/22/2020 12:00:00 PM 2.93 37.274 0.057 6.62 1.79 13.04
12/22/2020 12:15:00 PM 2.98 37.364 0.057 6.64 1.85 13.05
12/22/2020 12:30:00 PM 2.99 37.382 0.057 6.63 1.77 13.04
12/22/2020 12:45:00 PM 3 37.4 0.057 6.63 1.78 13.01
12/22/2020 1:00:00 PM 3.01 37.418 0.057 6.61 1.82 13.03
12/22/2020 1:15:00 PM 3.06 37.508 0.057 6.65 1.8 13.03
12/22/2020 1:30:00 PM 3.04 37.472 0.057 6.62 1.8 13.03
12/22/2020 1:45:00 PM 3.05 37.49 0.057 6.63 1.88 13.04
12/22/2020 2:00:00 PM 3.07 37.526 0.057 6.65 1.81 13.03
12/22/2020 2:15:00 PM 3.09 37.562 0.057 6.65 1.79 13.02
12/22/2020 2:30:00 PM 3.09 37.562 0.057 6.64 1.85 13
12/22/2020 2:45:00 PM 3.08 37.544 0.057 6.63 1.88 12.97
12/22/2020 3:00:00 PM 3.08 37.544 0.057 6.62 1.77 12.95
12/22/2020 3:15:00 PM 3.07 37.526 0.057 6.62 1.85 12.93
12/22/2020 3:30:00 PM 3.05 37.49 0.057 6.61 1.88 12.91
12/22/2020 3:45:00 PM 3.03 37.454 0.057 6.59 1.91 12.89
12/22/2020 4:00:00 PM 3 37.4 0.057 6.6 1.92 12.88
12/22/2020 4:15:00 PM 2.98 37.364 0.057 6.59 1.85 12.87
12/22/2020 4:30:00 PM 2.99 37.382 0.057 6.59 1.84 12.86
12/22/2020 4:45:00 PM 2.99 37.382 0.057 6.58 1.84 12.82
12/22/2020 5:00:00 PM 2.98 37.364 0.057 6.55 1.92 12.79
12/22/2020 5:15:00 PM 2.97 37.346 0.058 6.57 1.85 12.78
12/22/2020 5:30:00 PM 2.96 37.328 0.058 6.55 1.81 12.76
12/22/2020 5:45:00 PM 2.95 37.31 0.058 6.53 1.93 12.75
12/22/2020 6:00:00 PM 2.93 37.274 0.058 6.55 1.97 12.76
12/22/2020 6:15:00 PM 2.91 37.238 0.058 6.55 1.97 12.75
12/22/2020 6:30:00 PM 2.9 37.22 0.058 6.54 1.88 12.76
12/22/2020 6:45:00 PM 2.88 37.184 0.058 6.54 1.97 12.76
12/22/2020 7:00:00 PM 2.86 37.148 0.058 6.54 1.84 12.76
12/22/2020 7:15:00 PM 2.84 37.112 0.058 6.53 1.86 12.76
12/22/2020 7:30:00 PM 2.82 37.076 0.058 6.53 1.87 12.77
12/22/2020 7:45:00 PM 2.8 37.04 0.058 6.53 1.98 12.78
12/22/2020 8:00:00 PM 2.79 37.022 0.058 6.53 1.95 12.78
12/22/2020 8:15:00 PM 2.78 37.004 0.058 6.53 1.92 12.79
12/22/2020 8:30:00 PM 2.77 36.986 0.058 6.52 1.93 12.8
12/22/2020 8:45:00 PM 2.76 36.968 0.058 6.53 1.93 12.8
12/22/2020 9:00:00 PM 2.75 36.95 0.058 6.52 1.92 12.81
12/22/2020 9:15:00 PM 2.73 36.914 0.058 6.52 1.97 12.82
12/22/2020 9:30:00 PM 2.71 36.878 0.058 6.5 1.94 12.82
12/22/2020 9:45:00 PM 2.69 36.842 0.058 6.52 1.93 12.83
12/22/2020 10:00:00 PM 2.69 36.842 0.058 6.53 1.92 12.84
12/22/2020 10:15:00 PM 2.68 36.824 0.058 6.51 2.01 12.84
12/22/2020 10:30:00 PM 2.66 36.788 0.058 6.52 1.93 12.85
12/22/2020 10:45:00 PM 2.65 36.77 0.058 6.53 1.96 12.86
12/22/2020 11:00:00 PM 2.63 36.734 0.058 6.52 1.9 12.87
12/22/2020 11:15:00 PM 2.61 36.698 0.058 6.5 1.94 12.87
12/22/2020 11:30:00 PM 2.59 36.662 0.058 6.52 1.96 12.88
12/22/2020 11:45:00 PM 2.57 36.626 0.058 6.52 1.98 12.88
12/23/2020 12:00:00 AM 2.56 36.608 0.058 6.53 1.97 12.89
12/23/2020 12:15:00 AM 2.55 36.59 0.058 6.47 1.89 12.89
12/23/2020 12:30:00 AM 2.54 36.572 0.058 6.51 1.91 12.9
12/23/2020 12:45:00 AM 2.54 36.572 0.058 6.52 1.97 12.9
12/23/2020 1:00:00 AM 2.52 36.536 0.058 6.52 1.95 12.91
12/23/2020 1:15:00 AM 2.52 36.536 0.058 6.52 1.95 12.92
12/23/2020 1:30:00 AM 2.51 36.518 0.059 6.51 1.92 12.92
12/23/2020 1:45:00 AM 2.5 36.5 0.059 6.51 2.02 12.92
12/23/2020 2:00:00 AM 2.48 36.464 0.059 6.52 1.92 12.92
12/23/2020 2:15:00 AM 2.48 36.464 0.059 6.52 1.96 12.93
12/23/2020 2:30:00 AM 2.47 36.446 0.059 6.5 1.92 12.94
12/23/2020 2:45:00 AM 2.46 36.428 0.059 6.52 1.89 12.95
12/23/2020 3:00:00 AM 2.46 36.428 0.059 6.52 1.94 12.95
12/23/2020 3:15:00 AM 2.45 36.41 0.059 6.52 1.93 12.96
12/23/2020 3:30:00 AM 2.43 36.374 0.059 6.52 1.93 12.97
12/23/2020 3:45:00 AM 2.42 36.356 0.059 6.52 1.94 12.96
12/23/2020 4:00:00 AM 2.39 36.302 0.059 6.51 1.92 12.97
12/23/2020 4:15:00 AM 2.35 36.23 0.059 6.51 1.9 12.98
12/23/2020 4:30:00 AM 2.32 36.176 0.059 6.51 1.94 12.99
12/23/2020 4:45:00 AM 2.3 36.14 0.059 6.51 1.94 12.99
12/23/2020 5:00:00 AM 2.26 36.068 0.059 6.51 1.97 13
12/23/2020 5:15:00 AM 2.23 36.014 0.059 6.51 2.03 13.01
12/23/2020 5:30:00 AM 2.23 36.014 0.059 6.48 2.03 13.02
12/23/2020 5:45:00 AM 2.21 35.978 0.059 6.51 2.07 13.03
12/23/2020 6:00:00 AM 2.16 35.888 0.059 6.48 2.01 13.04
12/23/2020 6:15:00 AM 2.12 35.816 0.059 6.51 2.02 13.05
12/23/2020 6:30:00 AM 2.09 35.762 0.059 6.48 2.02 13.07
12/23/2020 6:45:00 AM 2.06 35.708 0.059 6.51 2.07 13.07
12/23/2020 7:00:00 AM 2.03 35.654 0.059 6.51 1.98 13.09
12/23/2020 7:15:00 AM 1.99 35.582 0.059 6.51 2.08 13.1
12/23/2020 7:30:00 AM 1.95 35.51 0.059 6.51 2.5 13.11
12/23/2020 7:45:00 AM 1.91 35.438 0.059 6.51 2.31 13.14
12/23/2020 8:00:00 AM 1.87 35.366 0.059 6.51 2.06 13.19
12/23/2020 8:15:00 AM 1.85 35.33 0.059 6.5 1.91 13.24
12/23/2020 8:30:00 AM 1.83 35.294 0.059 6.53 1.88 13.3
12/23/2020 8:45:00 AM 1.82 35.276 0.059 6.52 1.84 13.35
12/23/2020 9:00:00 AM 1.8 35.24 0.059 6.56 1.84 13.37
12/23/2020 9:15:00 AM 1.79 35.222 0.059 6.56 1.83 13.41
12/23/2020 9:30:00 AM 1.81 35.258 0.059 6.57 1.82 13.45
12/23/2020 9:45:00 AM 1.83 35.294 0.059 6.58 1.88 13.48
12/23/2020 10:00:00 AM 1.84 35.312 0.059 6.59 1.83 13.5
12/23/2020 10:15:00 AM 1.86 35.348 0.059 6.6 1.83 13.51
12/23/2020 10:30:00 AM 1.9 35.42 0.059 6.61 1.85 13.52
12/23/2020 10:45:00 AM 1.95 35.51 0.059 6.62 1.82 13.54
12/23/2020 11:00:00 AM 2 35.6 0.059 6.62 1.8 13.54
12/23/2020 11:15:00 AM 2.08 35.744 0.059 6.63 1.78 13.55
12/23/2020 11:30:00 AM 2.14 35.852 0.059 6.63 1.86 13.54
12/23/2020 11:45:00 AM 2.21 35.978 0.059 6.64 1.81 13.53
12/23/2020 12:00:00 PM 2.27 36.086 0.059 6.65 1.82 13.52
12/23/2020 12:15:00 PM 2.34 36.212 0.059 6.65 1.74 13.51
12/23/2020 12:30:00 PM 2.39 36.302 0.058 6.66 1.8 13.49
12/23/2020 12:45:00 PM 2.47 36.446 0.058 6.66 1.76 13.48
12/23/2020 1:00:00 PM 2.53 36.554 0.058 6.64 1.84 13.45
12/23/2020 1:15:00 PM 2.58 36.644 0.058 6.67 1.84 13.44
12/23/2020 1:30:00 PM 2.62 36.716 0.058 6.64 1.8 13.42
12/23/2020 1:45:00 PM 2.67 36.806 0.058 6.67 1.78 13.39
12/23/2020 2:00:00 PM 2.73 36.914 0.058 6.67 1.83 13.37
12/23/2020 2:15:00 PM 2.78 37.004 0.058 6.66 1.75 13.35
12/23/2020 2:30:00 PM 2.81 37.058 0.058 6.67 1.84 13.31
12/23/2020 2:45:00 PM 2.85 37.13 0.058 6.67 1.83 13.29
12/23/2020 3:00:00 PM 2.87 37.166 0.058 6.67 1.79 13.27
12/23/2020 3:15:00 PM 2.88 37.184 0.058 6.65 1.76 13.24
12/23/2020 3:30:00 PM 2.9 37.22 0.058 6.67 1.81 13.21
12/23/2020 3:45:00 PM 2.9 37.22 0.058 6.66 1.82 13.18
12/23/2020 4:00:00 PM 2.88 37.184 0.058 6.66 1.82 13.13
12/23/2020 4:15:00 PM 2.85 37.13 0.058 6.6 1.82 13.1
12/23/2020 4:30:00 PM 2.83 37.094 0.058 6.63 1.91 13.05
12/23/2020 4:45:00 PM 2.81 37.058 0.058 6.6 1.82 13.01
12/23/2020 5:00:00 PM 2.79 37.022 0.058 6.59 1.93 12.97
12/23/2020 5:15:00 PM 2.77 36.986 0.058 6.58 1.86 12.95
12/23/2020 5:30:00 PM 2.75 36.95 0.058 6.58 1.85 12.92
12/23/2020 5:45:00 PM 2.73 36.914 0.058 6.56 1.89 12.91
12/23/2020 6:00:00 PM 2.71 36.878 0.058 6.56 1.92 12.9
12/23/2020 6:15:00 PM 2.7 36.86 0.059 6.57 1.97 12.89
12/23/2020 6:30:00 PM 2.68 36.824 0.059 6.56 1.89 12.87
12/23/2020 6:45:00 PM 2.66 36.788 0.059 6.53 1.91 12.87
12/23/2020 7:00:00 PM 2.63 36.734 0.059 6.55 1.89 12.87
12/23/2020 7:15:00 PM 2.6 36.68 0.059 6.52 1.93 12.86
12/23/2020 7:30:00 PM 2.57 36.626 0.059 6.55 1.91 12.86
12/23/2020 7:45:00 PM 2.54 36.572 0.059 6.54 1.88 12.87
12/23/2020 8:00:00 PM 2.5 36.5 0.059 6.53 1.87 12.88
12/23/2020 8:15:00 PM 2.47 36.446 0.059 6.53 1.87 12.88
12/23/2020 8:30:00 PM 2.44 36.392 0.059 6.54 1.97 12.89
12/23/2020 8:45:00 PM 2.41 36.338 0.059 6.53 1.88 12.89
12/23/2020 9:00:00 PM 2.39 36.302 0.059 6.53 1.93 12.9
12/23/2020 9:15:00 PM 2.38 36.284 0.059 6.54 1.91 12.91
12/23/2020 9:30:00 PM 2.36 36.248 0.059 6.53 1.91 12.9
12/23/2020 9:45:00 PM 2.35 36.23 0.059 6.53 2.13 12.91
12/23/2020 10:00:00 PM 2.34 36.212 0.059 6.5 2.01 12.91
12/23/2020 10:15:00 PM 2.33 36.194 0.059 6.53 1.96 12.91
12/23/2020 10:30:00 PM 2.32 36.176 0.06 6.53 1.98 12.92
12/23/2020 10:45:00 PM 2.3 36.14 0.06 6.5 1.91 12.92
12/23/2020 11:00:00 PM 2.29 36.122 0.06 6.54 1.94 12.93
12/23/2020 11:15:00 PM 2.27 36.086 0.06 6.52 1.95 12.92
12/23/2020 11:30:00 PM 2.26 36.068 0.06 6.53 1.92 12.93
12/23/2020 11:45:00 PM 2.25 36.05 0.06 6.51 1.94 12.94
12/24/2020 12:00:00 AM 2.23 36.014 0.06 6.54 1.93 12.93
12/24/2020 12:15:00 AM 2.21 35.978 0.06 6.53 1.91 12.93
12/24/2020 12:30:00 AM 2.19 35.942 0.06 6.52 1.88 12.94
12/24/2020 12:45:00 AM 2.18 35.924 0.06 6.53 1.96 12.94
12/24/2020 1:00:00 AM 2.16 35.888 0.06 6.51 2.03 12.95
12/24/2020 1:15:00 AM 2.14 35.852 0.06 6.53 2.07 12.95
12/24/2020 1:30:00 AM 2.12 35.816 0.06 6.53 2.27 12.96
12/24/2020 1:45:00 AM 2.11 35.798 0.06 6.53 2.87 12.96
12/24/2020 2:00:00 AM 2.09 35.762 0.06 6.53 2.26 12.96
12/24/2020 2:15:00 AM 2.08 35.744 0.06 6.53 2.02 12.97
12/24/2020 2:30:00 AM 2.06 35.708 0.06 6.53 1.92 12.97
12/24/2020 2:45:00 AM 2.05 35.69 0.06 6.5 1.98 12.98
12/24/2020 3:00:00 AM 2.03 35.654 0.06 6.54 1.94 12.99
12/24/2020 3:15:00 AM 2 35.6 0.06 6.53 1.92 12.99
12/24/2020 3:30:00 AM 1.98 35.564 0.06 6.5 1.88 12.99
12/24/2020 3:45:00 AM 1.96 35.528 0.06 6.51 1.9 13
12/24/2020 4:00:00 AM 1.94 35.492 0.06 6.51 1.96 13
12/24/2020 4:15:00 AM 1.92 35.456 0.06 6.53 1.89 13.01
12/24/2020 4:30:00 AM 1.89 35.402 0.06 6.5 1.88 13.02
12/24/2020 4:45:00 AM 1.87 35.366 0.06 6.54 1.95 13.02
12/24/2020 5:00:00 AM 1.85 35.33 0.06 6.5 2.01 13.02
12/24/2020 5:15:00 AM 1.83 35.294 0.06 6.52 2.12 13.03
12/24/2020 5:30:00 AM 1.85 35.33 0.06 6.53 2.32 13.03
12/24/2020 5:45:00 AM 1.88 35.384 0.06 6.54 2.38 13.03
12/24/2020 6:00:00 AM 1.91 35.438 0.06 6.54 2.32 13.02
12/24/2020 6:15:00 AM 1.94 35.492 0.06 6.53 2.29 13.01
12/24/2020 6:30:00 AM 1.97 35.546 0.06 6.53 2.24 13
12/24/2020 6:45:00 AM 2 35.6 0.06 6.54 2.06 13
12/24/2020 7:00:00 AM 2.02 35.636 0.06 6.54 2.08 12.99
12/24/2020 7:15:00 AM 2.05 35.69 0.06 6.53 2.08 12.99
12/24/2020 7:30:00 AM 2.08 35.744 0.06 6.54 2.17 12.98
12/24/2020 7:45:00 AM 2.1 35.78 0.06 6.53 2.15 12.97
12/24/2020 8:00:00 AM 2.13 35.834 0.06 6.51 2.05 12.97
12/24/2020 8:15:00 AM 2.18 35.924 0.06 6.52 2.07 12.98
12/24/2020 8:30:00 AM 2.21 35.978 0.06 6.55 1.97 12.99
12/24/2020 8:45:00 AM 2.25 36.05 0.06 6.54 2.03 12.98
12/24/2020 9:00:00 AM 2.28 36.104 0.059 6.59 1.94 12.98
12/24/2020 9:15:00 AM 2.32 36.176 0.059 6.55 2.02 12.98
12/24/2020 9:30:00 AM 2.35 36.23 0.059 6.53 2.11 12.98
12/24/2020 9:45:00 AM 2.42 36.356 0.059 6.54 2 13
12/24/2020 10:00:00 AM 2.47 36.446 0.059 6.54 2.05 13.02
12/24/2020 10:15:00 AM 2.52 36.536 0.059 6.55 2.09 13.02
12/24/2020 10:30:00 AM 2.56 36.608 0.059 6.55 2.19 13.01
12/24/2020 10:45:00 AM 2.59 36.662 0.059 6.56 2.33 13
12/24/2020 11:00:00 AM 2.6 36.68 0.058 6.55 2.36 12.98
12/24/2020 11:15:00 AM 2.61 36.698 0.058 6.53 2.66 12.97
12/24/2020 11:30:00 AM 2.62 36.716 0.058 6.52 3 12.96
12/24/2020 11:45:00 AM 2.64 36.752 0.058 6.54 3.14 12.96
12/24/2020 12:00:00 PM 2.63 36.734 0.058 6.53 3.28 12.95
12/24/2020 12:15:00 PM 2.6 36.68 0.058 6.51 3.98 12.94
12/24/2020 12:30:00 PM 2.58 36.644 0.058 6.51 5.06 12.93
12/24/2020 12:45:00 PM 2.53 36.554 0.058 6.5 6.27 12.92
12/24/2020 1:00:00 PM 2.49 36.482 0.058 6.49 7.43 12.94
12/24/2020 1:15:00 PM 2.43 36.374 0.058 6.48 8.89 12.93
12/24/2020 1:30:00 PM 2.37 36.266 0.059 6.47 9.52 12.93
12/24/2020 1:45:00 PM 2.31 36.158 0.059 6.44 11.82 12.94
12/24/2020 2:00:00 PM 2.24 36.032 0.059 6.44 14.52 12.94
12/24/2020 2:15:00 PM 2.18 35.924 0.06 6.43 13.78 12.93
12/24/2020 2:30:00 PM 2.13 35.834 0.06 6.4 17.41 12.93
12/24/2020 2:45:00 PM 2.1 35.78 0.061 6.39 13.04 12.92
12/24/2020 3:00:00 PM 2.09 35.762 0.062 6.37 21.85 12.9
12/24/2020 3:15:00 PM 2.09 35.762 0.064 6.37 25.23 12.87
12/24/2020 3:30:00 PM 2.1 35.78 0.065 6.36 34.86 12.84
12/24/2020 3:45:00 PM 2.13 35.834 0.066 6.33 34.92 12.81
12/24/2020 4:00:00 PM 2.17 35.906 0.067 6.33 35.11 12.78
12/24/2020 4:15:00 PM 2.21 35.978 0.068 6.32 42.21 12.74
12/24/2020 4:30:00 PM 2.27 36.086 0.07 6.3 44.76 12.7
12/24/2020 4:45:00 PM 2.33 36.194 0.071 6.3 66.19 12.65
12/24/2020 5:00:00 PM 2.37 36.266 0.072 6.28 68.25 12.62
12/24/2020 5:15:00 PM 2.39 36.302 0.073 6.28 67.01 12.6
12/24/2020 5:30:00 PM 2.49 36.482 0.074 6.26 111.35 12.56
12/24/2020 5:45:00 PM 2.57 36.626 0.075 6.26 84.24 12.54
12/24/2020 6:00:00 PM 2.6 36.68 0.077 6.25 77.05 12.52
12/24/2020 6:15:00 PM 2.61 36.698 0.078 6.24 98.6 12.48
12/24/2020 6:30:00 PM 2.68 36.824 0.08 6.23 86.25 12.47
12/24/2020 6:45:00 PM 2.67 36.806 0.08 6.22 109.02 12.48
12/24/2020 7:00:00 PM 2.63 36.734 0.081 6.22 88.62 12.5
12/24/2020 7:15:00 PM 2.66 36.788 0.082 6.2 98.29 12.48
12/24/2020 7:30:00 PM 2.71 36.878 0.083 6.2 119.14 12.47
12/24/2020 7:45:00 PM 2.74 36.932 0.084 6.18 86.98 12.46
12/24/2020 8:00:00 PM 2.75 36.95 0.084 6.18 90.76 12.46
12/24/2020 8:15:00 PM 2.78 37.004 0.084 6.19 95.68 12.44
12/24/2020 8:30:00 PM 2.84 37.112 0.084 6.16 90.13 12.45
12/24/2020 8:45:00 PM 2.92 37.256 0.082 6.18 80.3 12.44
12/24/2020 9:00:00 PM 3 37.4 0.081 6.18 91.25 12.41
12/24/2020 9:15:00 PM 3.1 37.58 0.047 6.19 73.46 12.4
12/24/2020 9:30:00 PM 3.21 37.778 0.079 6.17 73.05 12.38
12/24/2020 9:45:00 PM 3.32 37.976 0.057 6.18 86.72 12.35
12/24/2020 10:00:00 PM 3.4 38.12 0.044 6.16 78.91 12.32
12/24/2020 10:15:00 PM 3.45 38.21 0.05 6.18 66.42 12.29
12/24/2020 10:30:00 PM 3.49 38.282 0.051 6.18 70.31 12.28
12/24/2020 10:45:00 PM 3.53 38.354 0.049 6.18 64.66 12.27
12/24/2020 11:00:00 PM 3.58 38.444 0.048 6.18 74.96 12.24
12/24/2020 11:15:00 PM 3.65 38.57 0.046 6.19 67.94 12.22
12/24/2020 11:30:00 PM 3.68 38.624 0.044 6.13 58.23 12.21
12/24/2020 11:45:00 PM 3.7 38.66 0.044 6.16 78.25 12.19
12/25/2020 12:00:00 AM 3.72 38.696 0.043 6.16 64.57 12.18
12/25/2020 12:15:00 AM 3.75 38.75 0.045 6.15 97.31 12.17
12/25/2020 12:30:00 AM 3.73 38.714 0.041 6.15 73.61 12.16
12/25/2020 12:45:00 AM 3.76 38.768 0.045 6.15 104.56 12.15
12/25/2020 1:00:00 AM 3.81 38.858 0.043 6.13 83.64 12.13
12/25/2020 1:15:00 AM 3.87 38.966 0.04 6.15 55.67 12.11
12/25/2020 1:30:00 AM 3.92 39.056 0.044 6.13 74.48 12.09
12/25/2020 1:45:00 AM 3.96 39.128 0.039 6.12 75.12 12.08
12/25/2020 2:00:00 AM 4.03 39.254 0.043 6.13 66.19 12.06
12/25/2020 2:15:00 AM 4.08 39.344 0.041 6.12 66.48 12.04
12/25/2020 2:30:00 AM 4.09 39.362 0.042 6.11 60.18 12.04
12/25/2020 2:45:00 AM 4.08 39.344 0.038 6.12 65.58 12.04
12/25/2020 3:00:00 AM 4.07 39.326 0.04 6.1 65.69 12.04
12/25/2020 3:15:00 AM 4.06 39.308 0.04 6.11 64.71 12.04
12/25/2020 3:30:00 AM 4.05 39.29 0.038 6.12 64.59 12.05
12/25/2020 3:45:00 AM 4.06 39.308 0.038 6.07 65.29 12.04
12/25/2020 4:00:00 AM 4.1 39.38 0.036 6.09 72.4 12.03
12/25/2020 4:15:00 AM 4.12 39.416 0.035 6.08 64.25 12.03
12/25/2020 4:30:00 AM 4.14 39.452 0.036 6.11 58.29 12.03
12/25/2020 4:45:00 AM 4.18 39.524 0.031 6.08 65.34 12.03
12/25/2020 5:00:00 AM 4.24 39.632 0.026 6.07 58.16 12.02
12/25/2020 5:15:00 AM 4.3 39.74 0.03 6.08 54.95 12.02
12/25/2020 5:30:00 AM 4.35 39.83 0.026 6.07 53.14 12
12/25/2020 5:45:00 AM 4.37 39.866 0.053 6.08 72.02 12
12/25/2020 6:00:00 AM 4.4 39.92 0.024 6.09 49.14 11.99
12/25/2020 6:15:00 AM 4.43 39.974 0.052 6.08 50 11.99
12/25/2020 6:30:00 AM 4.46 40.028 0.052 6.08 42.8 11.99
12/25/2020 6:45:00 AM 4.49 40.082 0.024 6.16 41.91 11.99
12/25/2020 7:00:00 AM 4.51 40.118 0.025 6.11 28.4 11.99
12/25/2020 7:15:00 AM 4.52 40.136 0.05 6.1 35.86 11.99
12/25/2020 7:30:00 AM 4.54 40.172 0.05 6.1 46.15 12
12/25/2020 7:45:00 AM 4.56 40.208 0.049 6.17 32.96 11.99
12/25/2020 8:00:00 AM 4.6 40.28 0.024 6.11 27.81 11.99
12/25/2020 8:15:00 AM 4.61 40.298 0.047 6.11 37.55 11.98
12/25/2020 8:30:00 AM 4.63 40.334 0.048 6.12 30.52 11.97
12/25/2020 8:45:00 AM 4.66 40.388 0.048 6.11 21.45 11.97
12/25/2020 9:00:00 AM 4.69 40.442 0.048 6.12 31.79 11.97
12/25/2020 9:15:00 AM 4.72 40.496 0.047 6.12 26.47 11.97
12/25/2020 9:30:00 AM 4.74 40.532 0.047 6.13 25.54 11.96
12/25/2020 9:45:00 AM 4.77 40.586 0.047 6.12 23.75 11.95
12/25/2020 10:00:00 AM 4.8 40.64 0.047 6.14 31.25 11.95
12/25/2020 10:15:00 AM 4.83 40.694 0.047 6.14 20.1 11.95
12/25/2020 10:30:00 AM 4.86 40.748 0.047 6.13 22.68 11.94
12/25/2020 10:45:00 AM 4.89 40.802 0.046 6.15 21.06 11.94
12/25/2020 11:00:00 AM 4.91 40.838 0.046 6.14 21.73 11.93
12/25/2020 11:15:00 AM 4.93 40.874 0.046 6.15 21.76 11.93
12/25/2020 11:30:00 AM 4.96 40.928 0.046 6.16 18.36 11.92
12/25/2020 11:45:00 AM 4.98 40.964 0.046 6.16 24.28 11.92
12/25/2020 12:00:00 PM 4.99 40.982 0.046 6.17 18.5 11.91
12/25/2020 12:15:00 PM 5 41 0.046 6.14 18.03 11.9
12/25/2020 12:30:00 PM 5.01 41.018 0.046 6.16 17.54 11.91
12/25/2020 12:45:00 PM 5.02 41.036 0.046 6.16 17.93 11.9
12/25/2020 1:00:00 PM 5.02 41.036 0.046 6.16 14.56 11.91
12/25/2020 1:15:00 PM 5.05 41.09 0.046 6.18 18.47 11.9
12/25/2020 1:30:00 PM 5.07 41.126 0.046 6.16 17.24 11.9
12/25/2020 1:45:00 PM 5.09 41.162 0.046 6.17 16.4 11.9
12/25/2020 2:00:00 PM 5.1 41.18 0.046 6.17 15.77 11.9
12/25/2020 2:15:00 PM 5.11 41.198 0.046 6.17 15.87 11.89
12/25/2020 2:30:00 PM 5.11 41.198 0.046 6.18 14.75 11.88
12/25/2020 2:45:00 PM 5.11 41.198 0.046 6.19 16.75 11.88
12/25/2020 3:00:00 PM 5.11 41.198 0.046 6.18 15.57 11.88
12/25/2020 3:15:00 PM 5.1 41.18 0.046 6.16 15.17 11.89
12/25/2020 3:30:00 PM 5.08 41.144 0.046 6.17 15.57 11.89
12/25/2020 3:45:00 PM 5.08 41.144 0.046 6.17 14.93 11.88
12/25/2020 4:00:00 PM 5.06 41.108 0.046 6.18 14.87 11.89
12/25/2020 4:15:00 PM 5.03 41.054 0.046 6.18 11.23 11.89
12/25/2020 4:30:00 PM 5.01 41.018 0.046 6.17 14.38 11.9
12/25/2020 4:45:00 PM 4.98 40.964 0.046 6.2 13.71 11.91
12/25/2020 5:00:00 PM 4.96 40.928 0.046 6.19 14.62 11.92
12/25/2020 5:15:00 PM 4.93 40.874 0.046 6.19 14.22 11.93
12/25/2020 5:30:00 PM 4.91 40.838 0.046 6.17 13.98 11.94
12/25/2020 5:45:00 PM 4.88 40.784 0.046 6.19 14.08 11.95
12/25/2020 6:00:00 PM 4.85 40.73 0.046 6.2 17 11.96
12/25/2020 6:15:00 PM 4.83 40.694 0.046 6.17 14.64 11.97
12/25/2020 6:30:00 PM 4.81 40.658 0.046 6.2 14.62 11.98
12/25/2020 6:45:00 PM 4.79 40.622 0.046 6.19 13.26 11.99
12/25/2020 7:00:00 PM 4.76 40.568 0.046 6.19 13.01 12
12/25/2020 7:15:00 PM 4.73 40.514 0.046 6.2 13.5 12.01
12/25/2020 7:30:00 PM 4.71 40.478 0.046 6.18 13.01 12.02
12/25/2020 7:45:00 PM 4.69 40.442 0.046 6.2 12.44 12.03
12/25/2020 8:00:00 PM 4.67 40.406 0.046 6.19 13.58 12.05
12/25/2020 8:15:00 PM 4.64 40.352 0.046 6.19 13.19 12.05
12/25/2020 8:30:00 PM 4.61 40.298 0.046 6.19 11.37 12.06
12/25/2020 8:45:00 PM 4.59 40.262 0.046 6.19 13.12 12.07
12/25/2020 9:00:00 PM 4.56 40.208 0.046 6.2 12.8 12.08
12/25/2020 9:15:00 PM 4.53 40.154 0.046 6.2 12.38 12.09
12/25/2020 9:30:00 PM 4.5 40.1 0.046 6.2 12.12 12.1
12/25/2020 9:45:00 PM 4.49 40.082 0.046 6.2 11.72 12.11
12/25/2020 10:00:00 PM 4.47 40.046 0.046 6.21 11.86 12.11
12/25/2020 10:15:00 PM 4.46 40.028 0.046 6.22 11.47 12.12
12/25/2020 10:30:00 PM 4.44 39.992 0.046 6.22 10.7 12.12
12/25/2020 10:45:00 PM 4.43 39.974 0.046 6.21 11.16 12.13
12/25/2020 11:00:00 PM 4.43 39.974 0.046 6.21 10.98 12.14
12/25/2020 11:15:00 PM 4.41 39.938 0.046 6.21 10.84 12.13
12/25/2020 11:30:00 PM 4.4 39.92 0.046 6.22 11.66 12.14
12/25/2020 11:45:00 PM 4.39 39.902 0.046 6.22 10.76 12.15
12/26/2020 12:00:00 AM 4.37 39.866 0.046 6.22 11.25 12.15
12/26/2020 12:15:00 AM 4.34 39.812 0.046 6.23 10.66 12.16
12/26/2020 12:30:00 AM 4.32 39.776 0.046 6.22 11.03 12.16
12/26/2020 12:45:00 AM 4.3 39.74 0.046 6.2 10.16 12.17
12/26/2020 1:00:00 AM 4.28 39.704 0.046 6.22 11.1 12.18
12/26/2020 1:15:00 AM 4.27 39.686 0.046 6.22 10.01 12.18
12/26/2020 1:30:00 AM 4.24 39.632 0.046 6.23 9.71 12.19
12/26/2020 1:45:00 AM 4.23 39.614 0.046 6.23 9.82 12.2
12/26/2020 2:00:00 AM 4.2 39.56 0.046 6.23 9.97 12.2
12/26/2020 2:15:00 AM 4.17 39.506 0.046 6.22 9.96 12.21
12/26/2020 2:30:00 AM 4.16 39.488 0.046 6.23 9.91 12.21
12/26/2020 2:45:00 AM 4.16 39.488 0.046 6.22 9.74 12.23
12/26/2020 3:00:00 AM 4.15 39.47 0.046 6.23 9.46 12.23
12/26/2020 3:15:00 AM 4.15 39.47 0.046 6.25 10.12 12.24
12/26/2020 3:30:00 AM 4.14 39.452 0.046 6.23 11.57 12.24
12/26/2020 3:45:00 AM 4.13 39.434 0.046 6.24 9.09 12.24
12/26/2020 4:00:00 AM 4.13 39.434 0.046 6.23 9.08 12.25
12/26/2020 4:15:00 AM 4.12 39.416 0.046 6.24 10.35 12.25
12/26/2020 4:30:00 AM 4.1 39.38 0.046 6.24 9.59 12.25
12/26/2020 4:45:00 AM 4.08 39.344 0.046 6.24 9.25 12.26
12/26/2020 5:00:00 AM 4.06 39.308 0.046 6.24 8.46 12.26
12/26/2020 5:15:00 AM 4.04 39.272 0.046 6.24 8.43 12.27
12/26/2020 5:30:00 AM 4.02 39.236 0.046 6.26 9.32 12.28
12/26/2020 5:45:00 AM 4.01 39.218 0.046 6.25 8.14 12.29
12/26/2020 6:00:00 AM 4 39.2 0.046 6.24 9.38 12.29
12/26/2020 6:15:00 AM 4.01 39.218 0.046 6.25 8.58 12.29
12/26/2020 6:30:00 AM 4.01 39.218 0.046 6.25 10.44 12.3
12/26/2020 6:45:00 AM 4.02 39.236 0.046 6.26 8.78 12.3
12/26/2020 7:00:00 AM 4.02 39.236 0.046 6.25 8.47 12.3
12/26/2020 7:15:00 AM 4.02 39.236 0.046 6.25 8.09 12.3
12/26/2020 7:30:00 AM 4.02 39.236 0.046 6.26 8.32 12.31
12/26/2020 7:45:00 AM 4.02 39.236 0.046 6.25 8.68 12.31
12/26/2020 8:00:00 AM 4.03 39.254 0.046 6.25 7.98 12.31
12/26/2020 8:15:00 AM 4.04 39.272 0.046 6.25 7.73 12.32
12/26/2020 8:30:00 AM 4.05 39.29 0.046 6.25 7.61 12.32
12/26/2020 8:45:00 AM 4.06 39.308 0.046 6.26 8.28 12.32
12/26/2020 9:00:00 AM 4.06 39.308 0.046 6.27 8.64 12.32
12/26/2020 9:15:00 AM 4.07 39.326 0.046 6.27 7.67 12.33
12/26/2020 9:30:00 AM 4.09 39.362 0.046 6.27 7.07 12.33
12/26/2020 9:45:00 AM 4.1 39.38 0.046 6.27 9.45 12.33
12/26/2020 10:00:00 AM 4.12 39.416 0.046 6.28 8.56 12.33
12/26/2020 10:15:00 AM 4.13 39.434 0.046 6.27 6.94 12.33
12/26/2020 10:30:00 AM 4.14 39.452 0.046 6.28 6.83 12.33
12/26/2020 10:45:00 AM 4.16 39.488 0.046 6.29 7.06 12.33
12/26/2020 11:00:00 AM 4.17 39.506 0.046 6.28 7.06 12.34
12/26/2020 11:15:00 AM 4.2 39.56 0.046 6.27 6.86 12.33
12/26/2020 11:30:00 AM 4.22 39.596 0.046 6.28 6.76 12.33
12/26/2020 11:45:00 AM 4.25 39.65 0.046 6.28 6.99 12.32
12/26/2020 12:00:00 PM 4.29 39.722 0.046 6.3 7.01 12.32
12/26/2020 12:15:00 PM 4.31 39.758 0.046 6.29 6.22 12.32
12/26/2020 12:30:00 PM 4.35 39.83 0.019 6.28 7.92 12.3
12/26/2020 12:45:00 PM 4.38 39.884 0.046 6.29 7.32 12.3
12/26/2020 1:00:00 PM 4.4 39.92 0.046 6.3 7.17 12.29
12/26/2020 1:15:00 PM 4.41 39.938 0.046 6.27 6.96 12.28
12/26/2020 1:30:00 PM 4.42 39.956 0.046 6.28 6.52 12.27
12/26/2020 1:45:00 PM 4.43 39.974 0.046 6.29 6.01 12.27
12/26/2020 2:00:00 PM 4.44 39.992 0.046 6.3 6.72 12.27
12/26/2020 2:15:00 PM 4.45 40.01 0.046 6.27 6.53 12.26
12/26/2020 2:30:00 PM 4.47 40.046 0.046 6.3 6.81 12.26
12/26/2020 2:45:00 PM 4.48 40.064 0.046 6.29 6.29 12.26
12/26/2020 3:00:00 PM 4.47 40.046 0.046 6.28 5.98 12.25
12/26/2020 3:15:00 PM 4.47 40.046 0.046 6.3 6.44 12.25
12/26/2020 3:30:00 PM 4.47 40.046 0.046 6.29 6.46 12.25
12/26/2020 3:45:00 PM 4.46 40.028 0.046 6.27 6.54 12.24
12/26/2020 4:00:00 PM 4.46 40.028 0.046 6.3 6.04 12.23
12/26/2020 4:15:00 PM 4.44 39.992 0.046 6.26 6.56 12.23
12/26/2020 4:30:00 PM 4.42 39.956 0.046 6.27 7.14 12.23
12/26/2020 4:45:00 PM 4.4 39.92 0.046 6.28 6.55 12.24
12/26/2020 5:00:00 PM 4.39 39.902 0.046 6.27 6.38 12.24
12/26/2020 5:15:00 PM 4.37 39.866 0.046 6.26 6 12.24
12/26/2020 5:30:00 PM 4.36 39.848 0.046 6.28 6.4 12.25
12/26/2020 5:45:00 PM 4.34 39.812 0.046 6.26 6.84 12.25
12/26/2020 6:00:00 PM 4.31 39.758 0.046 6.28 6.42 12.26
12/26/2020 6:15:00 PM 4.3 39.74 0.046 6.28 6.16 12.27
12/26/2020 6:30:00 PM 4.27 39.686 0.046 6.26 6.12 12.27
12/26/2020 6:45:00 PM 4.25 39.65 0.046 6.26 6.15 12.29
12/26/2020 7:00:00 PM 4.23 39.614 0.046 6.28 6.33 12.29
12/26/2020 7:15:00 PM 4.22 39.596 0.046 6.26 6.23 12.3
12/26/2020 7:30:00 PM 4.2 39.56 0.046 6.28 6.23 12.3
12/26/2020 7:45:00 PM 4.18 39.524 0.046 6.28 6.09 12.32
12/26/2020 8:00:00 PM 4.17 39.506 0.046 6.26 6.31 12.32
12/26/2020 8:15:00 PM 4.15 39.47 0.046 6.28 6.28 12.33
12/26/2020 8:30:00 PM 4.14 39.452 0.046 6.28 6.17 12.33
12/26/2020 8:45:00 PM 4.14 39.452 0.046 6.26 6.3 12.34
12/26/2020 9:00:00 PM 4.13 39.434 0.046 6.28 6.08 12.34
12/26/2020 9:15:00 PM 4.12 39.416 0.046 6.26 6.59 12.34
12/26/2020 9:30:00 PM 4.11 39.398 0.046 6.29 6.87 12.34
12/26/2020 9:45:00 PM 4.11 39.398 0.046 6.28 6.07 12.35
12/26/2020 10:00:00 PM 4.11 39.398 0.046 6.27 5.87 12.35
12/26/2020 10:15:00 PM 4.11 39.398 0.046 6.27 6.15 12.36
12/26/2020 10:30:00 PM 4.11 39.398 0.046 6.28 6.31 12.36
12/26/2020 10:45:00 PM 4.11 39.398 0.046 6.29 5.88 12.36
12/26/2020 11:00:00 PM 4.11 39.398 0.046 6.26 5.73 12.36
12/26/2020 11:15:00 PM 4.11 39.398 0.046 6.29 6.3 12.37
12/26/2020 11:30:00 PM 4.12 39.416 0.046 6.26 6.08 12.37
12/26/2020 11:45:00 PM 4.12 39.416 0.046 6.27 5.96 12.37
12/27/2020 12:00:00 AM 4.13 39.434 0.046 6.29 5.97 12.36
12/27/2020 12:15:00 AM 4.13 39.434 0.046 6.3 5.56 12.36
12/27/2020 12:30:00 AM 4.13 39.434 0.046 6.26 5.88 12.36
12/27/2020 12:45:00 AM 4.13 39.434 0.046 6.3 5.82 12.36
12/27/2020 1:00:00 AM 4.14 39.452 0.046 6.28 5.6 12.37
12/27/2020 1:15:00 AM 4.14 39.452 0.046 6.27 6.14 12.37
12/27/2020 1:30:00 AM 4.14 39.452 0.046 6.29 5.45 12.37
12/27/2020 1:45:00 AM 4.15 39.47 0.046 6.29 5.82 12.37
12/27/2020 2:00:00 AM 4.15 39.47 0.046 6.28 5.49 12.37
12/27/2020 2:15:00 AM 4.15 39.47 0.046 6.28 5.45 12.38
12/27/2020 2:30:00 AM 4.16 39.488 0.046 6.29 5.82 12.38
12/27/2020 2:45:00 AM 4.16 39.488 0.046 6.28 5.69 12.38
12/27/2020 3:00:00 AM 4.17 39.506 0.046 6.28 5.58 12.38
12/27/2020 3:15:00 AM 4.18 39.524 0.046 6.26 5.8 12.37
12/27/2020 3:30:00 AM 4.19 39.542 0.046 6.3 5.82 12.38
12/27/2020 3:45:00 AM 4.2 39.56 0.046 6.28 5.83 12.38
12/27/2020 4:00:00 AM 4.2 39.56 0.046 6.27 6.26 12.38
12/27/2020 4:15:00 AM 4.21 39.578 0.046 6.29 5.42 12.37
12/27/2020 4:30:00 AM 4.22 39.596 0.046 6.28 5.33 12.37
12/27/2020 4:45:00 AM 4.23 39.614 0.046 6.29 5.8 12.37
12/27/2020 5:00:00 AM 4.24 39.632 0.046 6.27 5.61 12.37
12/27/2020 5:15:00 AM 4.24 39.632 0.046 6.29 5.29 12.37
12/27/2020 5:30:00 AM 4.25 39.65 0.046 6.27 5.28 12.38
12/27/2020 5:45:00 AM 4.25 39.65 0.046 6.28 5.85 12.38
12/27/2020 6:00:00 AM 4.26 39.668 0.046 6.28 5.43 12.38
12/27/2020 6:15:00 AM 4.27 39.686 0.046 6.29 5.11 12.38
12/27/2020 6:30:00 AM 4.27 39.686 0.046 6.27 5.57 12.38
12/27/2020 6:45:00 AM 4.28 39.704 0.046 6.29 5.11 12.38
12/27/2020 7:00:00 AM 4.28 39.704 0.046 6.27 5.01 12.38
12/27/2020 7:15:00 AM 4.29 39.722 0.046 6.29 4.95 12.39
12/27/2020 7:30:00 AM 4.29 39.722 0.046 6.26 4.82 12.38
12/27/2020 7:45:00 AM 4.29 39.722 0.046 6.28 5.12 12.38
12/27/2020 8:00:00 AM 4.3 39.74 0.046 6.28 5.15 12.39
12/27/2020 8:15:00 AM 4.31 39.758 0.046 6.3 4.96 12.39
12/27/2020 8:30:00 AM 4.32 39.776 0.046 6.27 5.2 12.39
12/27/2020 8:45:00 AM 4.33 39.794 0.046 6.3 4.89 12.4
12/27/2020 9:00:00 AM 4.35 39.83 0.046 6.28 4.67 12.41
12/27/2020 9:15:00 AM 4.37 39.866 0.046 6.29 4.53 12.42
12/27/2020 9:30:00 AM 4.39 39.902 0.046 6.3 4.74 12.42
12/27/2020 9:45:00 AM 4.41 39.938 0.046 6.31 4.53 12.42
12/27/2020 10:00:00 AM 4.44 39.992 0.046 6.31 4.77 12.43
12/27/2020 10:15:00 AM 4.47 40.046 0.046 6.32 4.35 12.42
12/27/2020 10:30:00 AM 4.5 40.1 0.046 6.29 5.17 12.42
12/27/2020 10:45:00 AM 4.54 40.172 0.046 6.31 5.01 12.41
12/27/2020 11:00:00 AM 4.59 40.262 0.046 6.31 4.4 12.4
12/27/2020 11:15:00 AM 4.64 40.352 0.046 6.31 4.6 12.4
12/27/2020 11:30:00 AM 4.7 40.46 0.046 6.33 4.49 12.38
12/27/2020 11:45:00 AM 4.77 40.586 0.046 6.33 4.51 12.36
12/27/2020 12:00:00 PM 4.83 40.694 0.046 6.3 4.34 12.34
12/27/2020 12:15:00 PM 4.88 40.784 0.046 6.33 4.72 12.32
12/27/2020 12:30:00 PM 4.93 40.874 0.046 6.33 4.42 12.3
12/27/2020 12:45:00 PM 4.96 40.928 0.046 6.31 4.4 12.29
12/27/2020 1:00:00 PM 5.01 41.018 0.046 6.32 4.29 12.27
12/27/2020 1:15:00 PM 5.07 41.126 0.046 6.32 4.44 12.25
12/27/2020 1:30:00 PM 5.11 41.198 0.046 6.32 4.31 12.23
12/27/2020 1:45:00 PM 5.13 41.234 0.046 6.33 4.48 12.21
12/27/2020 2:00:00 PM 5.16 41.288 0.046 6.32 4.37 12.2
12/27/2020 2:15:00 PM 5.18 41.324 0.046 6.3 4.37 12.19
12/27/2020 2:30:00 PM 5.19 41.342 0.046 6.3 4.48 12.19
12/27/2020 2:45:00 PM 5.2 41.36 0.046 6.3 4.53 12.18
12/27/2020 3:00:00 PM 5.19 41.342 0.046 6.32 4.47 12.17
12/27/2020 3:15:00 PM 5.18 41.324 0.046 6.31 4.29 12.18
12/27/2020 3:30:00 PM 5.15 41.27 0.046 6.31 4.52 12.18
12/27/2020 3:45:00 PM 5.13 41.234 0.046 6.32 5.1 12.18
12/27/2020 4:00:00 PM 5.1 41.18 0.046 6.29 4.39 12.17
12/27/2020 4:15:00 PM 5.07 41.126 0.046 6.31 4.34 12.18
12/27/2020 4:30:00 PM 5.04 41.072 0.046 6.28 4.45 12.17
12/27/2020 4:45:00 PM 5.01 41.018 0.046 6.29 4.38 12.18
12/27/2020 5:00:00 PM 4.97 40.946 0.046 6.29 4.73 12.18
12/27/2020 5:15:00 PM 4.93 40.874 0.046 6.27 4.42 12.17
12/27/2020 5:30:00 PM 4.89 40.802 0.046 6.28 5.14 12.18
12/27/2020 5:45:00 PM 4.85 40.73 0.046 6.28 4.56 12.19
12/27/2020 6:00:00 PM 4.81 40.658 0.046 6.27 4.33 12.2
12/27/2020 6:15:00 PM 4.77 40.586 0.046 6.28 4.69 12.2
12/27/2020 6:30:00 PM 4.74 40.532 0.046 6.29 4.56 12.22
12/27/2020 6:45:00 PM 4.71 40.478 0.046 6.27 4.6 12.23
12/27/2020 7:00:00 PM 4.67 40.406 0.046 6.27 4.6 12.24
12/27/2020 7:15:00 PM 4.64 40.352 0.046 6.28 4.33 12.25
12/27/2020 7:30:00 PM 4.61 40.298 0.046 6.27 4.61 12.26
12/27/2020 7:45:00 PM 4.58 40.244 0.046 6.29 4.5 12.26
12/27/2020 8:00:00 PM 4.55 40.19 0.046 6.27 4.88 12.28
12/27/2020 8:15:00 PM 4.51 40.118 0.046 6.26 4.42 12.29
12/27/2020 8:30:00 PM 4.49 40.082 0.046 6.28 4.54 12.3
12/27/2020 8:45:00 PM 4.46 40.028 0.046 6.29 4.57 12.3
12/27/2020 9:00:00 PM 4.44 39.992 0.046 6.27 4.46 12.31
12/27/2020 9:15:00 PM 4.42 39.956 0.046 6.3 4.53 12.32
12/27/2020 9:30:00 PM 4.4 39.92 0.046 6.26 4.45 12.32
12/27/2020 9:45:00 PM 4.39 39.902 0.046 6.28 4.78 12.33
12/27/2020 10:00:00 PM 4.38 39.884 0.046 6.29 4.11 12.33
12/27/2020 10:15:00 PM 4.38 39.884 0.046 6.28 4.71 12.34
12/27/2020 10:30:00 PM 4.37 39.866 0.046 6.3 4.21 12.33
12/27/2020 10:45:00 PM 4.38 39.884 0.046 6.28 4.33 12.34
12/27/2020 11:00:00 PM 4.38 39.884 0.046 6.28 4.2 12.33
12/27/2020 11:15:00 PM 4.38 39.884 0.046 6.29 4.29 12.33
12/27/2020 11:30:00 PM 4.38 39.884 0.046 6.29 4.81 12.33
12/27/2020 11:45:00 PM 4.38 39.884 0.046 6.3 4.28 12.33
12/28/2020 12:00:00 AM 4.37 39.866 0.046 6.29 4.56 12.32
12/28/2020 12:15:00 AM 4.37 39.866 0.046 6.29 4.42 12.32
12/28/2020 12:30:00 AM 4.37 39.866 0.046 6.29 4.44 12.32
12/28/2020 12:45:00 AM 4.36 39.848 0.046 6.28 4.37 12.32
12/28/2020 1:00:00 AM 4.36 39.848 0.046 6.29 3.97 12.31
12/28/2020 1:15:00 AM 4.37 39.866 0.046 6.29 4.8 12.31
12/28/2020 1:30:00 AM 4.37 39.866 0.046 6.3 4.1 12.3
12/28/2020 1:45:00 AM 4.37 39.866 0.046 6.29 4.23 12.31
12/28/2020 2:00:00 AM 4.37 39.866 0.046 6.32 4.08 12.3
12/28/2020 2:15:00 AM 4.38 39.884 0.046 6.3 4.05 12.3
12/28/2020 2:30:00 AM 4.39 39.902 0.046 6.27 4.21 12.3
12/28/2020 2:45:00 AM 4.39 39.902 0.046 6.29 4.19 12.3
12/28/2020 3:00:00 AM 4.4 39.92 0.046 6.29 4.07 12.29
12/28/2020 3:15:00 AM 4.41 39.938 0.046 6.31 4.07 12.29
12/28/2020 3:30:00 AM 4.42 39.956 0.046 6.29 4.01 12.29
12/28/2020 3:45:00 AM 4.43 39.974 0.046 6.3 3.96 12.28
12/28/2020 4:00:00 AM 4.45 40.01 0.046 6.29 4.05 12.28
12/28/2020 4:15:00 AM 4.47 40.046 0.046 6.29 3.91 12.27
12/28/2020 4:30:00 AM 4.45 40.01 0.046 6.29 4.33 12.26
12/28/2020 4:45:00 AM 4.33 39.794 0.046 6.27 4.17 12.26
12/28/2020 5:00:00 AM 4.29 39.722 0.046 6.28 4.04 12.27
12/28/2020 5:15:00 AM 4.31 39.758 0.046 6.3 3.98 12.28
12/28/2020 5:30:00 AM 4.3 39.74 0.046 6.3 3.93 12.29
12/28/2020 5:45:00 AM 4.29 39.722 0.045 6.27 4.21 12.29
12/28/2020 6:00:00 AM 4.31 39.758 0.045 6.28 4.29 12.3
12/28/2020 6:15:00 AM 4.33 39.794 0.045 6.29 3.84 12.3
12/28/2020 6:30:00 AM 4.34 39.812 0.045 6.29 3.88 12.3
12/28/2020 6:45:00 AM 4.36 39.848 0.045 6.29 3.97 12.3
12/28/2020 7:00:00 AM 4.37 39.866 0.045 6.29 3.95 12.3
12/28/2020 7:15:00 AM 4.39 39.902 0.045 6.28 4.08 12.3
12/28/2020 7:30:00 AM 4.4 39.92 0.045 6.29 3.87 12.29
12/28/2020 7:45:00 AM 4.42 39.956 0.045 6.3 3.63 12.29
12/28/2020 8:00:00 AM 4.43 39.974 0.045 6.31 3.75 12.28
12/28/2020 8:15:00 AM 4.45 40.01 0.045 6.28 4.64 12.29
12/28/2020 8:30:00 AM 4.48 40.064 0.045 6.28 3.91 12.28
12/28/2020 8:45:00 AM 4.51 40.118 0.045 6.3 3.65 12.27
12/28/2020 9:00:00 AM 4.55 40.19 0.045 6.3 3.47 12.27
12/28/2020 9:15:00 AM 4.6 40.28 0.045 6.29</